DL80 / N1200K 7700 Squawk Report (21st of April, 2018)

Aircraft B763 Reg No. N1200K Age 20 years old
Model 767 Jet engines 2 First flight 22-03-98
Registered 10-04-98 Rollout N/A Delivered 10-04-98
Construction No. 28457 Line No. 0696 Series 332(ER)
ADSHEX A05614 Airline name Delta Air Lines Owner N/A
Airfield based Atlanta-Hartsfield~GA~N First tracked 2011-04-07 15:43:03

Flight history for N1200K

Route Flight No Date Playback
Salt Lake City Intl (SLC) - Charles De Gaulle (CDG) DL248 2018-12-19 10:12:00
Orlando Intl (MCO) - Salt Lake City Intl (SLC) DL587 2018-12-19 00:00:00
Salt Lake City Intl (SLC) - Orlando Intl (MCO) DL586 2018-12-17 20:28:00
Charles De Gaulle (CDG) - Salt Lake City Intl (SLC) DL249 2018-12-16 20:05:00
Raleigh Durham Intl (RDU) - Charles De Gaulle (CDG) DL230 2018-12-16 09:47:00
Charles De Gaulle (CDG) - Raleigh Durham Intl (RDU) DL231 2018-12-15 23:51:00
Seattle Tacoma Intl (SEA) - Charles De Gaulle (CDG) DL34 2018-12-15 10:52:00
Charles De Gaulle (CDG) - Seattle Tacoma Intl (SEA) DL35 2018-12-13 20:13:00
Cincinnati Northern Kentucky Intl (CVG) - Charles De Gaulle (CDG) DL228 2018-12-13 09:42:00
Charles De Gaulle (CDG) - Cincinnati Northern Kentucky Intl (CVG) DL229 2018-12-12 18:26:00
General Edward Lawrence Logan Intl (BOS) - Charles De Gaulle (CDG) DL404 2018-12-12 09:22:00
Charles De Gaulle (CDG) - General Edward Lawrence Logan Intl (BOS) DL405 2018-12-11 23:58:00
Seattle Tacoma Intl (SEA) - Charles De Gaulle (CDG) DL34 2018-12-11 09:18:00
Charles De Gaulle (CDG) - Seattle Tacoma Intl (SEA) DL35 2018-12-09 22:48:00
Indianapolis Intl (IND) - Charles De Gaulle (CDG) DL500 2018-12-09 09:47:00
Charles De Gaulle (CDG) - Indianapolis Intl (IND) DL501 2018-12-08 21:59:00
Salt Lake City Intl (SLC) - Charles De Gaulle (CDG) DL248 2018-12-08 13:14:00
Schiphol (AMS) - Salt Lake City Intl (SLC) DL57 2018-12-07 20:31:00
John F Kennedy Intl (JFK) - Schiphol (AMS) DL48 2018-12-07 10:06:00
Hartsfield Jackson Atlanta Intl (ATL) - John F Kennedy Intl (JFK) DL2350 2018-12-06 15:16:00
Time Lat Lon Altitude Heading Speed Vertical Rate
2018-04-22 05:58:40 GMT 50.899109 4.523992 225 250 134 -384
2018-04-22 05:58:35 GMT 50.900169 4.528580 275 250 130 -576
2018-04-22 05:58:25 GMT 50.902313 4.537799 375 251 128 -704
2018-04-22 05:58:17 GMT 50.903942 4.544830 475 251 128 -704
2018-04-22 05:58:13 GMT 50.904732 4.548264 525 250 130 -704
2018-04-22 05:58:04 GMT 50.906525 4.556060 675 251 130 -704
2018-04-22 05:57:59 GMT 50.907486 4.560440 675 251 130 -704
2018-04-22 05:57:55 GMT 50.908409 4.564514 725 251 131 -704
2018-04-22 05:57:52 GMT 50.908970 4.566956 725 251 131 -704
2018-04-22 05:57:46 GMT 50.910088 4.572067 825 251 130 -640
2018-04-22 05:57:43 GMT 50.910736 4.575138 850 251 130 -704
2018-04-22 05:57:37 GMT 50.912086 4.580994 925 249 130 -640
2018-04-22 05:57:34 GMT 50.912842 4.584045 975 249 132 -704
2018-04-22 05:57:26 GMT 50.914398 4.590355 1,125 248 135 -768
2018-04-22 05:57:22 GMT 50.915222 4.593547 1,100 248 135 -704
2018-04-22 05:57:16 GMT 50.916733 4.599411 1,175 248 136 -768
2018-04-22 05:57:13 GMT 50.917397 4.601822 1,225 249 136 -704
2018-04-22 05:57:10 GMT 50.918335 4.605647 1,250 249 137 -704
2018-04-22 05:57:07 GMT 50.918793 4.607315 1,275 249 137 -640
2018-04-22 05:57:03 GMT 50.920002 4.612198 1,325 250 137 -704
2018-04-22 05:57:00 GMT 50.920559 4.614639 1,375 250 137 -704
2018-04-22 05:56:56 GMT 50.921631 4.618988 1,425 250 137 -576
2018-04-22 05:56:53 GMT 50.922134 4.621161 1,450 251 135 -704
2018-04-22 05:56:50 GMT 50.922890 4.624252 1,475 254 134 -768
2018-04-22 05:56:46 GMT 50.923599 4.628213 1,550 259 131 -768
2018-04-22 05:56:43 GMT 50.923912 4.630585 1,575 259 131 -768
2018-04-22 05:56:39 GMT 50.924423 4.634476 1,650 258 131 -704
2018-04-22 05:56:35 GMT 50.924889 4.637833 1,675 255 130 -704
2018-04-22 05:56:31 GMT 50.925541 4.641418 1,700 248 133 -704
2018-04-22 05:56:26 GMT 50.926712 4.645955 1,775 245 139 -576
2018-04-22 05:56:22 GMT 50.928040 4.650483 1,800 248 144 -704
2018-04-22 05:56:18 GMT 50.928818 4.653304 1,900 249 150 -896
2018-04-22 05:56:15 GMT 50.929729 4.656906 1,900 250 150 -896
2018-04-22 05:56:12 GMT 50.930477 4.660034 1,950 250 153 -640
2018-04-22 05:56:07 GMT 50.931641 4.664917 1,975 250 160 192
2018-04-22 05:56:04 GMT 50.932343 4.668076 1,975 250 157 0
2018-04-22 05:56:01 GMT 50.932983 4.670897 1,975 251 161 128
2018-04-22 05:55:57 GMT 50.934036 4.675425 1,975 252 165 0
2018-04-22 05:55:54 GMT 50.934944 4.679565 1,975 252 168 -256
2018-04-22 05:55:50 GMT 50.936016 4.684601 2,000 251 171 -256
2018-04-22 05:55:47 GMT 50.936783 4.688119 2,025 250 172 -192
2018-04-22 05:55:44 GMT 50.937515 4.691311 2,025 249 174 -128
2018-04-22 05:55:39 GMT 50.938934 4.696878 2,025 245 174 -320
2018-04-22 05:55:34 GMT 50.940994 4.703707 2,050 240 175 -320
2018-04-22 05:55:30 GMT 50.942253 4.707108 2,075 235 175 -256
2018-04-22 05:55:27 GMT 50.943741 4.710685 2,075 232 175 -192
2018-04-22 05:55:23 GMT 50.945606 4.714279 2,100 228 176 -192
2018-04-22 05:55:19 GMT 50.947933 4.718170 2,100 222 177 -64
2018-04-22 05:55:13 GMT 50.952118 4.724047 2,125 222 177 -64
2018-04-22 05:55:09 GMT 50.954216 4.726868 2,125 224 177 -128
2018-04-22 05:55:04 GMT 50.956684 4.730682 2,150 229 177 -256
2018-04-22 05:55:01 GMT 50.958435 4.733771 2,150 231 177 -192
2018-04-22 05:54:58 GMT 50.960224 4.737244 2,175 232 176 -128
2018-04-22 05:54:54 GMT 50.961960 4.740749 2,175 231 176 -128
2018-04-22 05:54:51 GMT 50.963528 4.743805 2,200 227 176 -256
2018-04-22 05:54:48 GMT 50.965763 4.747772 2,200 225 176 -384
2018-04-22 05:54:42 GMT 50.968872 4.752329 2,300 214 174 -960
2018-04-22 05:54:37 GMT 50.972351 4.756041 2,350 201 174 -1408
2018-04-22 05:54:34 GMT 50.974655 4.757767 2,550 172 180 -1344
2018-04-22 05:54:29 GMT 50.978668 4.759084 2,525 181 179 -1344
2018-04-22 05:54:26 GMT 50.980801 4.759064 2,575 175 180 -1344
2018-04-22 05:54:23 GMT 50.983566 4.758639 2,650 164 182 -1408
2018-04-22 05:54:20 GMT 50.985901 4.757451 2,775 150 185 -1408
2018-04-22 05:54:17 GMT 50.988419 4.755744 2,800 148 187 -1344
2018-04-22 05:54:13 GMT 50.990902 4.753113 2,975 136 190 -1024
2018-04-22 05:54:09 GMT 50.994064 4.748764 2,975 136 190 -1024
2018-04-22 05:54:06 GMT 50.995422 4.746762 3,000 136 190 -1024
2018-04-22 05:54:02 GMT 50.997696 4.743347 3,125 136 191 -1024
2018-04-22 05:53:59 GMT 51.000366 4.739339 3,125 136 192 -1024
2018-04-22 05:53:56 GMT 51.001968 4.736889 3,175 136 192 -960
2018-04-22 05:53:53 GMT 51.004578 4.733029 3,250 136 194 -960
2018-04-22 05:53:50 GMT 51.005630 4.731470 3,275 136 194 -960
2018-04-22 05:53:46 GMT 51.008682 4.726944 3,400 137 195 0
2018-04-22 05:53:42 GMT 51.011215 4.723156 3,425 137 197 -1024
2018-04-22 05:53:39 GMT 51.013870 4.719296 3,475 137 197 -1024
2018-04-22 05:53:36 GMT 51.015335 4.717069 3,525 137 198 -1024
2018-04-22 05:53:33 GMT 51.017204 4.714355 3,600 137 199 -1024
2018-04-22 05:53:30 GMT 51.019135 4.711576 3,625 137 199 -1024
2018-04-22 05:53:26 GMT 51.021812 4.707642 3,725 137 200 -1088
2018-04-22 05:53:23 GMT 51.024605 4.703598 3,800 137 200 -1152
2018-04-22 05:53:20 GMT 51.026001 4.701555 3,800 136 201 -1152
2018-04-22 05:53:15 GMT 51.029354 4.696579 4,050 136 201 -1920
2018-04-22 05:53:10 GMT 51.033051 4.691014 4,050 136 201 -1920
2018-04-22 05:53:05 GMT 51.036438 4.685966 4,225 137 203 -1920
2018-04-22 05:53:02 GMT 51.038498 4.682922 4,350 137 203 -1984
2018-04-22 05:52:59 GMT 51.040108 4.680557 4,600 137 205 -1920
2018-04-22 05:52:55 GMT 51.043365 4.675827 4,550 137 205 -1920
2018-04-22 05:52:52 GMT 51.045460 4.672775 4,675 137 210 -1600
2018-04-22 05:52:49 GMT 51.047321 4.670105 4,725 137 209 -1600
2018-04-22 05:52:45 GMT 51.049759 4.666517 4,925 137 218 -1280
2018-04-22 05:52:42 GMT 51.053146 4.661692 4,925 137 218 -1280
2018-04-22 05:52:39 GMT 51.054703 4.659465 4,950 137 219 -1216
2018-04-22 05:52:34 GMT 51.057953 4.654788 5,225 137 237 -1536
2018-04-22 05:52:31 GMT 51.060730 4.650955 5,150 138 229 -1088
2018-04-22 05:52:28 GMT 51.062759 4.648108 5,300 137 236 -1536
2018-04-22 05:52:24 GMT 51.066360 4.643097 5,225 138 234 -1472
2018-04-22 05:52:19 GMT 51.071018 4.636459 5,375 135 239 -1472
2018-04-22 05:52:13 GMT 51.074787 4.630508 5,475 120 249 -1472
2018-04-22 05:52:08 GMT 51.078873 4.622720 5,625 122 248 -1472
2018-04-22 05:52:04 GMT 51.081585 4.615250 5,850 112 251 -1344
2018-04-22 05:52:01 GMT 51.082809 4.610992 5,775 110 251 -1216
2018-04-22 05:51:58 GMT 51.083908 4.606538 5,950 109 254 -896
2018-04-22 05:51:53 GMT 51.085785 4.598001 5,925 108 253 -1024
2018-04-22 05:51:48 GMT 51.087799 4.588648 6,125 108 260 -640
2018-04-22 05:51:43 GMT 51.089546 4.580536 6,100 108 257 -704
2018-04-22 05:51:40 GMT 51.090710 4.575043 6,125 108 259 -640
2018-04-22 05:51:37 GMT 51.091965 4.569321 6,125 108 259 -640
2018-04-22 05:51:33 GMT 51.093201 4.563409 6,175 108 260 -640
2018-04-22 05:51:30 GMT 51.094940 4.555318 6,225 108 262 -768
2018-04-22 05:51:27 GMT 51.095783 4.551392 6,250 108 263 -832
2018-04-22 05:51:22 GMT 51.097733 4.541956 6,325 108 264 -896
2018-04-22 05:51:19 GMT 51.098923 4.536389 6,375 108 264 -960
2018-04-22 05:51:16 GMT 51.099880 4.531860 6,400 108 265 -896
2018-04-22 05:51:12 GMT 51.101669 4.523324 6,625 108 274 -576
2018-04-22 05:51:09 GMT 51.102814 4.517905 6,500 108 268 -768
2018-04-22 05:51:06 GMT 51.103790 4.513168 6,550 108 268 -704
2018-04-22 05:51:02 GMT 51.105743 4.503875 6,600 108 271 -640
2018-04-22 05:50:59 GMT 51.107162 4.497268 6,625 108 273 -576
2018-04-22 05:50:56 GMT 51.107758 4.494373 6,650 108 274 -576
2018-04-22 05:50:52 GMT 51.109936 4.484177 6,700 108 276 -576
2018-04-22 05:50:49 GMT 51.111004 4.478989 6,750 108 278 -640
2018-04-22 05:50:46 GMT 51.112061 4.474034 6,750 109 279 -640
2018-04-22 05:50:42 GMT 51.113663 4.466685 6,825 109 282 -704
2018-04-22 05:50:39 GMT 51.115036 4.460449 6,850 109 283 -768
2018-04-22 05:50:36 GMT 51.116360 4.454498 6,875 109 284 -768
2018-04-22 05:50:30 GMT 51.118874 4.443283 6,950 108 286 -896
2018-04-22 05:50:26 GMT 51.120758 4.434023 7,025 104 289 -1344
2018-04-22 05:50:22 GMT 51.122086 4.425338 7,200 90 291 -1472
2018-04-22 05:50:18 GMT 51.122688 4.417877 7,250 92 291 -1408
2018-04-22 05:50:15 GMT 51.122864 4.411605 7,300 91 291 -1408
2018-04-22 05:50:11 GMT 51.122955 4.403736 7,425 90 291 -1472
2018-04-22 05:50:08 GMT 51.122955 4.396610 7,650 89 291 -1472
2018-04-22 05:50:05 GMT 51.122971 4.390335 7,550 89 291 -1536
2018-04-22 05:50:00 GMT 51.122910 4.380204 7,675 89 291 -1472
2018-04-22 05:49:57 GMT 51.122829 4.372787 7,750 88 291 -1408
2018-04-22 05:49:54 GMT 51.122738 4.366608 7,800 88 292 -1280
2018-04-22 05:49:50 GMT 51.122643 4.359131 8,000 88 294 -896
2018-04-22 05:49:47 GMT 51.122551 4.353485 7,925 88 294 -896
2018-04-22 05:49:44 GMT 51.122456 4.346161 8,000 89 297 -512
2018-04-22 05:49:41 GMT 51.122406 4.339154 8,000 90 298 -576
2018-04-22 05:49:38 GMT 51.122364 4.333572 8,050 90 298 -576
2018-04-22 05:49:35 GMT 51.122364 4.325943 8,050 90 299 -576
2018-04-22 05:49:32 GMT 51.122406 4.319037 8,075 90 299 -576
2018-04-22 05:49:28 GMT 51.122498 4.310946 8,125 91 299 -832
2018-04-22 05:49:25 GMT 51.122589 4.303894 8,150 91 300 -512
2018-04-22 05:49:21 GMT 51.122726 4.296174 8,175 91 300 -512
2018-04-22 05:49:17 GMT 51.122925 4.286652 8,225 91 300 -704
2018-04-22 05:49:13 GMT 51.123047 4.279026 8,250 91 299 -896
2018-04-22 05:49:08 GMT 51.123230 4.268263 8,375 91 299 -1024
2018-04-22 05:49:05 GMT 51.123386 4.259338 8,400 91 299 -1088
2018-04-22 05:49:02 GMT 51.123436 4.253845 8,450 90 299 -1152
2018-04-22 05:48:59 GMT 51.123505 4.247181 8,650 90 298 -1536
2018-04-22 05:48:56 GMT 51.123573 4.241562 8,600 90 298 -1472
2018-04-22 05:48:53 GMT 51.123596 4.234042 8,750 90 299 0
2018-04-22 05:48:49 GMT 51.123669 4.223175 8,925 90 298 -1472
2018-04-22 05:48:45 GMT 51.123714 4.214630 8,900 90 298 -1472
2018-04-22 05:48:42 GMT 51.123760 4.211349 9,300 90 299 -1472
2018-04-22 05:48:38 GMT 51.123825 4.201157 9,050 90 298 -1408
2018-04-22 05:48:35 GMT 51.123871 4.195515 9,250 90 298 -1472
2018-04-22 05:48:32 GMT 51.123947 4.188843 9,175 90 299 -1472
2018-04-22 05:48:28 GMT 51.124008 4.180149 9,300 90 299 -1408
2018-04-22 05:48:25 GMT 51.124039 4.172363 9,400 90 299 -1408
2018-04-22 05:48:22 GMT 51.124054 4.166565 9,475 90 300 -1408
2018-04-22 05:48:18 GMT 51.124100 4.156172 9,550 90 300 -1344
2018-04-22 05:48:15 GMT 51.124146 4.150457 9,575 90 306 -1280
2018-04-22 05:48:12 GMT 51.124180 4.143753 9,825 90 301 -1280
2018-04-22 05:48:08 GMT 51.124226 4.132690 9,750 90 301 -1280
2018-04-22 05:48:05 GMT 51.124271 4.126740 9,825 90 302 -1280
2018-04-22 05:48:01 GMT 51.124283 4.118908 9,900 90 304 -1216
2018-04-22 05:47:58 GMT 51.124283 4.112450 9,975 90 303 -1216
2018-04-22 05:47:55 GMT 51.124317 4.104767 10,200 90 304 -1216
2018-04-22 05:47:52 GMT 51.124374 4.097752 10,075 90 304 -1216
2018-04-22 05:47:47 GMT 51.124413 4.088058 10,200 90 305 -1280
2018-04-22 05:47:44 GMT 51.124458 4.081573 10,225 90 306 -1280
2018-04-22 05:47:41 GMT 51.124466 4.075631 10,475 90 320 -1280
2018-04-22 05:47:36 GMT 51.124557 4.064570 10,400 90 307 -1280
2018-04-22 05:47:33 GMT 51.124603 4.058335 10,525 90 308 -1280
2018-04-22 05:47:30 GMT 51.124599 4.051666 10,675 90 309 -1280
2018-04-22 05:47:25 GMT 51.124645 4.040146 10,625 90 309 -1280
2018-04-22 05:47:21 GMT 51.124695 4.029533 10,725 90 310 -1280
2018-04-22 05:47:17 GMT 51.124741 4.019586 10,825 90 311 -1216
2018-04-22 05:47:14 GMT 51.124786 4.014983 10,925 90 312 -1280
2018-04-22 05:47:11 GMT 51.124832 4.005508 10,950 90 312 -1280
2018-04-22 05:47:07 GMT 51.124832 3.998355 11,050 90 314 -1280
2018-04-22 05:47:04 GMT 51.124878 3.991318 11,100 90 316 -1344
2018-04-22 05:47:00 GMT 51.124878 3.982544 11,150 90 315 -1280
2018-04-22 05:46:55 GMT 51.124878 3.970566 11,275 90 316 -1280
2018-04-22 05:46:52 GMT 51.124924 3.962798 11,350 90 317 -1344
2018-04-22 05:46:49 GMT 51.124924 3.957899 11,600 90 320 -1280
2018-04-22 05:46:45 GMT 51.124924 3.948517 11,550 90 317 -1280
2018-04-22 05:46:42 GMT 51.124924 3.940353 11,575 90 318 -1216
2018-04-22 05:46:39 GMT 51.124969 3.934708 11,925 90 320 -1280
2018-04-22 05:46:36 GMT 51.125019 3.924713 11,700 90 319 -1280
2018-04-22 05:46:32 GMT 51.125065 3.917236 11,800 90 320 -1280
2018-04-22 05:46:29 GMT 51.125061 3.911207 11,900 90 321 -1280
2018-04-22 05:46:24 GMT 51.125107 3.898068 11,925 90 321 -1280
2018-04-22 05:46:20 GMT 51.125198 3.888641 12,150 90 322 -1408
2018-04-22 05:46:17 GMT 51.125252 3.881454 12,125 90 322 -1408
2018-04-22 05:46:14 GMT 51.125290 3.872829 12,175 90 323 -1280
2018-04-22 05:46:09 GMT 51.125336 3.862882 12,300 90 323 -1344
2018-04-22 05:46:06 GMT 51.125343 3.851776 12,375 90 324 -1344
2018-04-22 05:46:03 GMT 51.125336 3.848110 12,450 90 324 -1280
2018-04-22 05:45:59 GMT 51.125343 3.836365 12,525 90 325 -1152
2018-04-22 05:45:55 GMT 51.125381 3.829775 12,625 90 326 -1088
2018-04-22 05:45:52 GMT 51.125381 3.823836 12,625 90 327 -1088
2018-04-22 05:45:49 GMT 51.125389 3.814545 13,025 90 329 -1408
2018-04-22 05:45:46 GMT 51.125439 3.807373 12,750 90 329 -1408
2018-04-22 05:45:43 GMT 51.125439 3.797455 12,825 90 330 -1408
2018-04-22 05:45:40 GMT 51.125473 3.792733 13,000 89 332 -1280
2018-04-22 05:45:37 GMT 51.125439 3.785629 12,975 89 331 -1344
2018-04-22 05:45:34 GMT 51.125439 3.778534 13,000 89 332 -1280
2018-04-22 05:45:31 GMT 51.125427 3.770834 13,125 90 333 -1216
2018-04-22 05:45:28 GMT 51.125427 3.763782 13,125 90 333 -1216
2018-04-22 05:45:25 GMT 51.125427 3.757918 13,225 90 334 -1472
2018-04-22 05:45:22 GMT 51.125473 3.748342 13,325 89 334 -1536
2018-04-22 05:45:19 GMT 51.125484 3.742371 13,375 89 334 -1536
2018-04-22 05:45:16 GMT 51.125439 3.734512 13,425 89 334 -1664
2018-04-22 05:45:13 GMT 51.125439 3.726883 13,700 90 333 -1664
2018-04-22 05:45:10 GMT 51.125427 3.720431 14,050 90 333 -1664
2018-04-22 05:45:07 GMT 51.125439 3.712692 13,725 90 334 -1728
2018-04-22 05:45:04 GMT 51.125439 3.703842 13,800 90 331 -1728
2018-04-22 05:45:01 GMT 51.125439 3.697205 13,875 90 333 -1664
2018-04-22 05:44:57 GMT 51.125439 3.687439 14,000 90 333 -1664
2018-04-22 05:44:54 GMT 51.125439 3.680115 14,075 90 332 -1664
2018-04-22 05:44:51 GMT 51.125427 3.672700 14,150 90 332 -1664
2018-04-22 05:44:46 GMT 51.125439 3.658447 14,325 90 331 -1728
2018-04-22 05:44:43 GMT 51.125473 3.654661 14,450 90 331 -1728
2018-04-22 05:44:40 GMT 51.125473 3.647164 14,450 90 331 -1600
2018-04-22 05:44:37 GMT 51.125484 3.636322 14,575 90 331 -1664
2018-04-22 05:44:34 GMT 51.125530 3.632431 14,650 90 330 -1600
2018-04-22 05:44:31 GMT 51.125530 3.622971 14,700 90 330 -1600
2018-04-22 05:44:24 GMT 51.125576 3.607178 14,925 90 331 -1408
2018-04-22 05:44:21 GMT 51.125576 3.602142 14,950 90 331 -1216
2018-04-22 05:44:18 GMT 51.125565 3.593717 14,975 90 332 -1216
2018-04-22 05:44:15 GMT 51.125565 3.585255 15,075 90 333 -1152
2018-04-22 05:44:12 GMT 51.125576 3.579025 15,150 90 334 -1088
2018-04-22 05:44:09 GMT 51.125576 3.572693 15,175 90 334 -1088
2018-04-22 05:44:06 GMT 51.125622 3.562622 15,250 90 335 -1152
2018-04-22 05:44:03 GMT 51.125656 3.555636 15,300 90 336 -1280
2018-04-22 05:44:00 GMT 51.125656 3.548732 15,475 90 337 -1408
2018-04-22 05:43:55 GMT 51.125702 3.532179 15,525 89 337 -1408
2018-04-22 05:43:51 GMT 51.125656 3.526982 15,575 89 338 -1408
2018-04-22 05:43:48 GMT 51.125656 3.518000 15,700 90 339 -1280
2018-04-22 05:43:44 GMT 51.125656 3.510355 15,725 88 389 -640
2018-04-22 05:43:41 GMT 51.125668 3.501968 15,800 90 340 -1280
2018-04-22 05:43:38 GMT 51.125668 3.496017 15,825 89 341 -1408
2018-04-22 05:43:34 GMT 51.125668 3.485565 15,975 89 342 -1280
2018-04-22 05:43:31 GMT 51.125622 3.477020 16,025 89 342 -1216
2018-04-22 05:43:28 GMT 51.125576 3.472290 16,100 90 354 -1728
2018-04-22 05:43:24 GMT 51.125519 3.459283 16,250 89 346 -1216
2018-04-22 05:43:20 GMT 51.125484 3.450623 16,275 89 345 -1216
2018-04-22 05:43:17 GMT 51.125427 3.443397 16,300 89 346 -1216
2018-04-22 05:43:12 GMT 51.125336 3.430926 16,450 89 348 -1152
2018-04-22 05:43:09 GMT 51.125343 3.420563 16,450 90 349 -1088
2018-04-22 05:43:03 GMT 51.125381 3.407172 16,700 90 350 -1152
2018-04-22 05:43:00 GMT 51.125439 3.397522 16,650 89 352 -1280
2018-04-22 05:42:57 GMT 51.125427 3.390990 16,675 89 353 -1280
2018-04-22 05:42:54 GMT 51.125427 3.384234 16,750 89 353 -1280
2018-04-22 05:42:51 GMT 51.125389 3.373489 16,825 89 353 -1408
2018-04-22 05:42:48 GMT 51.125389 3.366776 16,900 89 354 -1600
2018-04-22 05:42:44 GMT 51.125343 3.355637 17,125 89 354 -1600
2018-04-22 05:42:41 GMT 51.125290 3.346153 17,175 89 354 -1600
2018-04-22 05:42:38 GMT 51.125290 3.339918 17,175 89 354 -1472
2018-04-22 05:42:35 GMT 51.125290 3.332124 17,225 89 354 -1344
2018-04-22 05:42:32 GMT 51.125252 3.326797 17,400 90 354 -1664
2018-04-22 05:42:28 GMT 51.125252 3.315048 17,425 90 354 -1728
2018-04-22 05:42:25 GMT 51.125244 3.307182 18,050 90 354 -1728
2018-04-22 05:42:22 GMT 51.125290 3.297012 17,700 90 354 -1728
2018-04-22 05:42:19 GMT 51.125290 3.292113 17,700 89 355 -1792
2018-04-22 05:42:16 GMT 51.125290 3.285358 17,900 89 356 -1600
2018-04-22 05:42:13 GMT 51.125252 3.276062 17,825 89 355 -1664
2018-04-22 05:42:10 GMT 51.125198 3.267096 17,900 89 355 -1600
2018-04-22 05:42:06 GMT 51.125156 3.257828 18,000 89 356 -1472
2018-04-22 05:42:03 GMT 51.125111 3.251038 18,050 89 356 -1536
2018-04-22 05:41:59 GMT 51.125061 3.237626 18,200 89 356 -1600
2018-04-22 05:41:56 GMT 51.125015 3.232356 18,250 89 361 -1152
2018-04-22 05:41:51 GMT 51.124924 3.220108 18,450 89 358 -1408
2018-04-22 05:41:48 GMT 51.124878 3.211823 18,450 89 359 -1280
2018-04-22 05:41:45 GMT 51.124832 3.203851 18,500 89 359 -1280
2018-04-22 05:41:42 GMT 51.124786 3.195908 18,550 89 362 -960
2018-04-22 05:41:39 GMT 51.124786 3.188782 18,650 89 363 -896
2018-04-22 05:41:36 GMT 51.124741 3.179206 18,650 89 364 -832
2018-04-22 05:41:32 GMT 51.124691 3.170319 18,900 89 366 -832
2018-04-22 05:41:29 GMT 51.124645 3.159866 18,775 89 368 -960
2018-04-22 05:41:25 GMT 51.124599 3.148575 18,825 89 369 -1024
2018-04-22 05:41:22 GMT 51.124603 3.143500 18,875 89 370 -1024
2018-04-22 05:41:19 GMT 51.124554 3.131714 18,925 89 372 -1152
2018-04-22 05:41:16 GMT 51.124554 3.125763 18,975 90 372 -1152
2018-04-22 05:41:13 GMT 51.124554 3.117523 19,025 90 374 -1152
2018-04-22 05:41:09 GMT 51.124554 3.105698 19,200 90 376 -1280
2018-04-22 05:41:06 GMT 51.124599 3.097687 19,175 90 376 -1280
2018-04-22 05:41:03 GMT 51.124645 3.089142 19,250 90 379 -1216
2018-04-22 05:40:58 GMT 51.124786 3.072205 19,375 90 382 -1216
2018-04-22 05:40:55 GMT 51.124832 3.066101 19,450 90 383 -1216
2018-04-22 05:40:51 GMT 51.124832 3.057175 19,500 89 396 -768
2018-04-22 05:40:48 GMT 51.124786 3.047444 19,575 88 385 -1152
2018-04-22 05:40:45 GMT 51.124741 3.041209 19,625 88 387 -1024
2018-04-22 05:40:42 GMT 51.124554 3.030930 19,725 88 389 -640
2018-04-22 05:40:39 GMT 51.124374 3.022205 19,700 88 390 -576
2018-04-22 05:40:36 GMT 51.124271 3.014069 19,725 89 391 -640
2018-04-22 05:40:33 GMT 51.124146 3.005058 19,775 89 401 -640
2018-04-22 05:40:29 GMT 51.124088 2.995148 19,850 89 396 -768
2018-04-22 05:40:26 GMT 51.124008 2.985238 19,875 89 396 -832
2018-04-22 05:40:23 GMT 51.123962 2.977666 19,925 89 406 -576
2018-04-22 05:40:20 GMT 51.123901 2.967606 19,925 89 400 -640
2018-04-22 05:40:17 GMT 51.123825 2.958663 20,025 89 409 -512
2018-04-22 05:40:14 GMT 51.123779 2.947157 20,000 89 408 -576
2018-04-22 05:40:11 GMT 51.123734 2.940030 20,075 89 415 -512
2018-04-22 05:40:07 GMT 51.123642 2.929193 20,075 89 413 -512
2018-04-22 05:40:04 GMT 51.123573 2.921524 20,075 89 415 -512
2018-04-22 05:40:01 GMT 51.123505 2.908259 20,125 89 424 -640
2018-04-22 05:39:58 GMT 51.123436 2.900162 20,175 89 424 -640
2018-04-22 05:39:55 GMT 51.123386 2.892075 20,175 89 425 -640
2018-04-22 05:39:50 GMT 51.123249 2.876205 20,275 89 432 -768
2018-04-22 05:39:47 GMT 51.123203 2.868347 20,300 89 433 -768
2018-04-22 05:39:44 GMT 51.123138 2.856445 20,325 89 434 -832
2018-04-22 05:39:40 GMT 51.123047 2.841450 20,400 89 440 -1024
2018-04-22 05:39:35 GMT 51.122971 2.825470 20,475 89 443 -1152
2018-04-22 05:39:32 GMT 51.122910 2.820146 20,525 89 445 -1216
2018-04-22 05:39:29 GMT 51.122864 2.808343 20,625 89 454 -1088
2018-04-22 05:39:25 GMT 51.122772 2.797208 20,675 89 451 -1152
2018-04-22 05:39:22 GMT 51.122688 2.785797 20,725 89 452 -1152
2018-04-22 05:39:18 GMT 51.122643 2.771912 20,800 89 455 -960
2018-04-22 05:39:15 GMT 51.122589 2.763730 20,900 90 457 -704
2018-04-22 05:39:12 GMT 51.122589 2.752372 20,900 90 457 -704
2018-04-22 05:39:09 GMT 51.122589 2.742648 20,925 90 458 -704
2018-04-22 05:39:06 GMT 51.122597 2.733765 20,975 90 459 -640
2018-04-22 05:39:02 GMT 51.122643 2.720642 21,000 90 461 -192
2018-04-22 05:38:59 GMT 51.122688 2.708130 21,000 90 461 -64
2018-04-22 05:38:55 GMT 51.122726 2.692764 21,000 90 462 0
2018-04-22 05:38:52 GMT 51.122772 2.685563 21,000 90 463 0
2018-04-22 05:38:47 GMT 51.122875 2.669830 21,000 90 464 0
2018-04-22 05:38:43 GMT 51.123001 2.654980 21,000 91 466 -64
2018-04-22 05:38:40 GMT 51.123062 2.646332 21,000 90 465 0
2018-04-22 05:38:37 GMT 51.123184 2.633824 21,000 90 470 0
2018-04-22 05:38:33 GMT 51.123413 2.617790 21,000 91 467 0
2018-04-22 05:38:30 GMT 51.123505 2.611331 21,000 90 468 0
2018-04-22 05:38:27 GMT 51.123642 2.599603 21,000 90 470 0
2018-04-22 05:38:22 GMT 51.123806 2.583694 21,000 88 467 0
2018-04-22 05:38:19 GMT 51.123856 2.570267 21,000 89 471 64
2018-04-22 05:38:15 GMT 51.123779 2.555880 21,000 88 472 -64
2018-04-22 05:38:12 GMT 51.123688 2.548977 21,000 88 473 -64
2018-04-22 05:38:09 GMT 51.123596 2.540291 21,025 88 472 -64
2018-04-22 05:38:06 GMT 51.123386 2.526932 21,025 88 473 0
2018-04-22 05:38:02 GMT 51.123230 2.514978 21,025 88 472 -64
2018-04-22 05:37:59 GMT 51.123093 2.504215 21,025 88 471 0
2018-04-22 05:37:56 GMT 51.122864 2.489665 21,025 88 469 0
2018-04-22 05:37:53 GMT 51.122738 2.483368 21,025 88 465 -64
2018-04-22 05:37:50 GMT 51.122543 2.474225 21,025 88 458 64
2018-04-22 05:37:47 GMT 51.122318 2.462463 21,025 88 459 64
2018-04-22 05:37:44 GMT 51.122131 2.453690 21,000 88 458 64
2018-04-22 05:37:41 GMT 51.121902 2.441711 21,000 87 454 0
2018-04-22 05:37:37 GMT 51.121582 2.425752 21,000 86 449 -64
2018-04-22 05:37:34 GMT 51.121292 2.415619 21,000 87 450 -64
2018-04-22 05:37:31 GMT 51.121078 2.408827 21,025 87 443 -64
2018-04-22 05:37:28 GMT 51.120827 2.400742 21,025 86 446 -64
2018-04-22 05:37:25 GMT 51.120392 2.389155 21,025 87 440 128
2018-04-22 05:37:22 GMT 51.120174 2.382126 21,025 88 437 128
2018-04-22 05:37:19 GMT 51.119804 2.368927 21,025 88 437 128
2018-04-22 05:37:16 GMT 51.119659 2.359759 21,000 88 435 64
2018-04-22 05:37:12 GMT 51.119476 2.347107 21,000 88 435 64
2018-04-22 05:37:09 GMT 51.119385 2.338562 21,000 88 435 0
2018-04-22 05:37:05 GMT 51.119247 2.324648 21,000 89 435 -64
2018-04-22 05:37:02 GMT 51.119106 2.313919 21,000 89 435 0
2018-04-22 05:36:58 GMT 51.119011 2.302170 21,000 89 435 0
2018-04-22 05:36:55 GMT 51.118927 2.292728 21,000 89 435 0
2018-04-22 05:36:50 GMT 51.118778 2.279129 21,000 88 436 0
2018-04-22 05:36:47 GMT 51.118652 2.267786 21,000 88 436 0
2018-04-22 05:36:44 GMT 51.118546 2.258377 21,000 88 436 0
2018-04-22 05:36:41 GMT 51.118408 2.248154 21,000 88 436 0
2018-04-22 05:36:38 GMT 51.118240 2.236163 21,000 88 436 0
2018-04-22 05:36:35 GMT 51.118130 2.227631 21,000 88 437 0
2018-04-22 05:36:32 GMT 51.118034 2.219620 21,000 88 437 0
2018-04-22 05:36:29 GMT 51.117893 2.211304 21,000 88 437 0
2018-04-22 05:36:24 GMT 51.117599 2.191624 21,000 88 437 -64
2018-04-22 05:36:21 GMT 51.117462 2.184869 21,000 88 437 0
2018-04-22 05:36:18 GMT 51.117336 2.174072 21,000 88 437 0
2018-04-22 05:36:15 GMT 51.117195 2.165756 21,000 88 437 0
2018-04-22 05:36:12 GMT 51.117058 2.157745 21,000 88 438 0
2018-04-22 05:36:09 GMT 51.116871 2.146835 21,000 88 438 0
2018-04-22 05:36:06 GMT 51.116684 2.136917 21,000 87 439 0
2018-04-22 05:36:02 GMT 51.116364 2.120658 21,000 88 438 0
2018-04-22 05:35:59 GMT 51.116264 2.116013 21,000 87 439 0
2018-04-22 05:35:54 GMT 51.115894 2.100220 21,000 87 439 0
2018-04-22 05:35:50 GMT 51.115585 2.085547 21,000 87 439 0
2018-04-22 05:35:47 GMT 51.115242 2.071915 21,000 87 440 0
2018-04-22 05:35:44 GMT 51.115082 2.063351 21,000 87 440 0
2018-04-22 05:35:41 GMT 51.114918 2.056427 21,000 87 440 0
2018-04-22 05:35:38 GMT 51.114681 2.046356 21,000 87 440 0
2018-04-22 05:35:35 GMT 51.114395 2.036553 21,000 87 440 0
2018-04-22 05:35:30 GMT 51.113892 2.018890 21,000 87 440 0
2018-04-22 05:35:27 GMT 51.113617 2.011315 21,000 87 440 0
2018-04-22 05:35:24 GMT 51.113285 2.001190 21,000 87 440 0
2018-04-22 05:35:21 GMT 51.112915 1.989822 21,000 87 440 0
2018-04-22 05:35:18 GMT 51.112728 1.981506 21,000 88 440 64
2018-04-22 05:35:14 GMT 51.112404 1.968231 21,000 88 440 64
2018-04-22 05:35:11 GMT 51.112263 1.958160 21,000 89 441 64
2018-04-22 05:35:08 GMT 51.112152 1.947327 21,000 89 441 64
2018-04-22 05:35:03 GMT 51.112122 1.934586 21,025 89 441 -128
2018-04-22 05:35:00 GMT 51.112061 1.924092 21,025 89 441 -384
2018-04-22 05:34:57 GMT 51.111984 1.913605 21,075 89 440 -576
2018-04-22 05:34:53 GMT 51.111889 1.900940 21,250 89 440 -1280
2018-04-22 05:34:50 GMT 51.111832 1.890465 21,175 89 440 -1088
2018-04-22 05:34:47 GMT 51.111740 1.881112 21,175 89 440 -1152
2018-04-22 05:34:44 GMT 51.111656 1.871948 21,550 89 440 -1280
2018-04-22 05:34:41 GMT 51.111610 1.862869 21,425 89 440 -1408
2018-04-22 05:34:38 GMT 51.111557 1.854314 21,350 89 440 -1408
2018-04-22 05:34:35 GMT 51.111511 1.843031 21,425 89 440 -1408
2018-04-22 05:34:32 GMT 51.111519 1.834488 21,850 89 440 -1472
2018-04-22 05:34:29 GMT 51.111465 1.822394 21,850 88 440 -1536
2018-04-22 05:34:26 GMT 51.111374 1.815639 21,650 88 439 -1664
2018-04-22 05:34:23 GMT 51.111237 1.804356 22,000 88 441 -2048
2018-04-22 05:34:20 GMT 51.111053 1.794052 21,925 88 441 -2048
2018-04-22 05:34:17 GMT 51.110870 1.785278 21,950 88 441 -2048
2018-04-22 05:34:14 GMT 51.110733 1.777558 22,025 88 442 -2048
2018-04-22 05:34:11 GMT 51.110493 1.764755 22,175 88 443 -1856
2018-04-22 05:34:08 GMT 51.110413 1.756476 22,300 89 445 -1792
2018-04-22 05:34:05 GMT 51.110275 1.744748 22,625 89 446 -1664
2018-04-22 05:34:01 GMT 51.110260 1.733780 22,450 90 448 -1600
2018-04-22 05:33:58 GMT 51.110306 1.723557 22,550 91 451 -1408
2018-04-22 05:33:55 GMT 51.110413 1.713496 22,600 91 458 -1344
2018-04-22 05:33:52 GMT 51.110504 1.705256 22,750 91 458 -1344
2018-04-22 05:33:49 GMT 51.110680 1.693878 22,725 91 456 -1344
2018-04-22 05:33:46 GMT 51.110825 1.682541 22,825 91 459 -1408
2018-04-22 05:33:43 GMT 51.111004 1.672287 22,875 91 461 -1344
2018-04-22 05:33:39 GMT 51.111191 1.661608 22,975 91 464 -1280
2018-04-22 05:33:36 GMT 51.111423 1.648483 23,050 92 469 -1024
2018-04-22 05:33:33 GMT 51.111656 1.639633 23,125 92 475 -1536
2018-04-22 05:33:30 GMT 51.111843 1.630630 23,100 92 473 -1344
2018-04-22 05:33:27 GMT 51.112198 1.618034 23,200 92 475 -1536
2018-04-22 05:33:24 GMT 51.112404 1.609497 23,500 91 487 -1920
2018-04-22 05:33:21 GMT 51.112774 1.595840 23,375 92 479 -2048
2018-04-22 05:33:17 GMT 51.113194 1.582184 23,550 92 482 -2496
2018-04-22 05:33:14 GMT 51.113480 1.571119 23,625 92 482 -2560
2018-04-22 05:33:11 GMT 51.113705 1.560287 23,800 91 497 -1856
2018-04-22 05:33:08 GMT 51.113846 1.553574 24,350 91 497 -1856
2018-04-22 05:33:05 GMT 51.114075 1.540239 24,000 91 487 -1920
2018-04-22 05:33:01 GMT 51.114216 1.527939 24,075 91 487 -1984
2018-04-22 05:32:58 GMT 51.114403 1.515732 24,350 91 497 -1856
2018-04-22 05:32:55 GMT 51.114578 1.503048 24,325 91 490 -1920
2018-04-22 05:32:52 GMT 51.114716 1.491914 24,400 91 491 -1920
2018-04-22 05:32:49 GMT 51.114868 1.481628 24,525 91 491 -1920
2018-04-22 05:32:46 GMT 51.114964 1.473007 24,575 91 492 -1920
2018-04-22 05:32:43 GMT 51.115128 1.461998 24,750 91 493 -1856
2018-04-22 05:32:40 GMT 51.115288 1.446991 24,975 91 495 -1792
2018-04-22 05:32:37 GMT 51.115356 1.442104 24,825 91 495 -1792
2018-04-22 05:32:34 GMT 51.115566 1.424866 24,975 91 498 -1920
2018-04-22 05:32:31 GMT 51.115723 1.413747 25,075 91 497 -1856
2018-04-22 05:32:28 GMT 51.115849 1.406250 25,275 90 501 -1920
2018-04-22 05:32:25 GMT 51.115906 1.398456 25,200 91 498 -1920
2018-04-22 05:32:22 GMT 51.116081 1.385498 25,325 90 500 -1920
2018-04-22 05:32:18 GMT 51.116173 1.371384 25,550 90 501 -1920
2018-04-22 05:32:15 GMT 51.116310 1.360168 25,650 90 503 -1856
2018-04-22 05:32:12 GMT 51.116405 1.348801 26,150 90 506 -1664
2018-04-22 05:32:09 GMT 51.116547 1.335358 25,775 91 503 -1792
2018-04-22 05:32:06 GMT 51.116684 1.322368 25,850 91 505 -1792
2018-04-22 05:32:02 GMT 51.116776 1.311678 26,125 90 507 -1600
2018-04-22 05:31:58 GMT 51.116962 1.294785 26,125 90 506 -1664
2018-04-22 05:31:55 GMT 51.117058 1.285553 26,225 91 517 -1792
2018-04-22 05:31:51 GMT 51.117195 1.270218 26,275 90 510 -1472
2018-04-22 05:31:48 GMT 51.117290 1.257172 26,325 90 511 -1472
2018-04-22 05:31:44 GMT 51.117371 1.243831 26,425 90 513 -1536
2018-04-22 05:31:41 GMT 51.117477 1.229324 26,575 91 516 -1664
2018-04-22 05:31:38 GMT 51.117569 1.221848 26,575 91 516 -1664
2018-04-22 05:31:35 GMT 51.117691 1.210649 26,700 91 517 -1856
2018-04-22 05:31:32 GMT 51.117847 1.198730 26,800 91 518 -2112
2018-04-22 05:31:29 GMT 51.118057 1.183703 26,925 90 518 -2624
2018-04-22 05:31:26 GMT 51.118130 1.177063 27,250 90 518 -3200
2018-04-22 05:31:23 GMT 51.118221 1.166458 27,800 90 518 -3264
2018-04-22 05:31:20 GMT 51.118332 1.150669 27,325 90 518 -3264
2018-04-22 05:31:17 GMT 51.118423 1.141168 27,525 90 517 -3328
2018-04-22 05:31:14 GMT 51.118454 1.131516 29,050 90 517 -3328
2018-04-22 05:31:10 GMT 51.118561 1.113850 27,850 90 517 -3328
2018-04-22 05:31:07 GMT 51.118591 1.103745 28,075 90 516 -3264
2018-04-22 05:31:04 GMT 51.118607 1.090319 28,475 90 516 -3264
2018-04-22 05:31:01 GMT 51.118607 1.078961 28,675 89 515 -3072
2018-04-22 05:30:57 GMT 51.118561 1.064635 28,625 89 515 -3072
2018-04-22 05:30:53 GMT 51.118546 1.048584 29,050 90 514 -2496
2018-04-22 05:30:50 GMT 51.118561 1.037466 28,925 90 514 -2880
2018-04-22 05:30:47 GMT 51.118546 1.029358 29,350 90 516 -1472
2018-04-22 05:30:44 GMT 51.118591 1.017685 29,200 90 515 -1920
2018-04-22 05:30:41 GMT 51.118652 1.006511 29,325 90 516 -1472
2018-04-22 05:30:38 GMT 51.118687 0.993805 29,350 90 515 -1472
2018-04-22 05:30:35 GMT 51.118778 0.984344 29,400 90 515 -1472
2018-04-22 05:30:32 GMT 51.118874 0.968857 29,475 90 515 -1536
2018-04-22 05:30:28 GMT 51.119019 0.954326 29,575 90 515 -1536
2018-04-22 05:30:25 GMT 51.119110 0.943785 29,775 90 514 -1344
2018-04-22 05:30:20 GMT 51.119339 0.922629 29,750 90 514 -1344
2018-04-22 05:30:17 GMT 51.119431 0.912628 29,850 90 514 -1472
2018-04-22 05:30:14 GMT 51.119476 0.904887 30,250 90 513 -1600
2018-04-22 05:30:10 GMT 51.119522 0.884705 30,025 90 511 -1984
2018-04-22 05:30:07 GMT 51.119568 0.877050 30,125 90 511 -1984
2018-04-22 05:30:04 GMT 51.119614 0.863540 30,225 90 510 -2048
2018-04-22 05:30:01 GMT 51.119659 0.854929 30,325 90 509 -2112
2018-04-22 05:29:58 GMT 51.119659 0.842236 30,425 90 509 -2048
2018-04-22 05:29:55 GMT 51.119713 0.831223 30,550 90 508 -1920
2018-04-22 05:29:52 GMT 51.119751 0.823900 30,650 90 508 -1792
2018-04-22 05:29:49 GMT 51.119751 0.812394 30,725 90 507 -1664
2018-04-22 05:29:46 GMT 51.119843 0.797845 30,775 85 506 -1536
2018-04-22 05:29:43 GMT 51.119896 0.784683 30,900 88 502 -2432
2018-04-22 05:29:40 GMT 51.119980 0.775130 30,925 90 507 -1472
2018-04-22 05:29:37 GMT 51.120037 0.767899 30,975 90 507 -1408
2018-04-22 05:29:34 GMT 51.120163 0.755087 31,100 90 506 -1408
2018-04-22 05:29:31 GMT 51.120224 0.740433 31,175 89 502 -2560
2018-04-22 05:29:28 GMT 51.120270 0.733337 31,575 89 503 -2560
2018-04-22 05:29:25 GMT 51.120255 0.721683 31,375 87 502 -1856
2018-04-22 05:29:22 GMT 51.120163 0.708024 31,450 89 503 -2496
2018-04-22 05:29:19 GMT 51.120117 0.699488 31,625 89 502 -2496
2018-04-22 05:29:16 GMT 51.119991 0.686417 31,750 88 502 -2432
2018-04-22 05:29:13 GMT 51.119896 0.676880 31,850 88 501 -2304
2018-04-22 05:29:10 GMT 51.119751 0.665638 32,200 88 501 -2368
2018-04-22 05:29:07 GMT 51.119617 0.653992 32,100 88 501 -2304
2018-04-22 05:29:04 GMT 51.119385 0.640106 32,200 88 501 -2240
2018-04-22 05:29:01 GMT 51.119198 0.629425 32,325 88 501 -2112
2018-04-22 05:28:58 GMT 51.118973 0.617832 32,525 87 502 -1856
2018-04-22 05:28:55 GMT 51.118687 0.606613 32,575 87 502 -1792
2018-04-22 05:28:52 GMT 51.118454 0.599594 32,600 87 502 -1792
2018-04-22 05:28:49 GMT 51.118080 0.587769 32,675 86 503 -1728
2018-04-22 05:28:46 GMT 51.117828 0.580271 32,750 86 504 -1728
2018-04-22 05:28:43 GMT 51.117290 0.566025 32,925 85 505 -1664
2018-04-22 05:28:40 GMT 51.116821 0.555106 32,925 85 505 -1664
2018-04-22 05:28:37 GMT 51.116364 0.545159 33,050 85 505 -1536
2018-04-22 05:28:34 GMT 51.115952 0.535880 33,125 85 507 -1472
2018-04-22 05:28:31 GMT 51.115219 0.521851 33,175 84 508 -1536
2018-04-22 05:28:28 GMT 51.114635 0.510941 33,225 84 508 -1536
2018-04-22 05:28:25 GMT 51.113705 0.495300 33,325 83 510 -1792
2018-04-22 05:28:22 GMT 51.113251 0.488075 33,375 83 510 -1856
2018-04-22 05:28:19 GMT 51.112450 0.477448 33,500 82 510 -2176
2018-04-22 05:28:16 GMT 51.111656 0.467072 33,625 81 510 -2368
2018-04-22 05:28:13 GMT 51.110458 0.453557 33,750 80 509 -2624
2018-04-22 05:28:10 GMT 51.109131 0.440270 33,875 80 509 -2496
2018-04-22 05:28:07 GMT 51.108353 0.432663 34,000 80 510 -2304
2018-04-22 05:28:04 GMT 51.107162 0.420672 34,075 80 510 -2240
2018-04-22 05:28:00 GMT 51.105839 0.407639 34,275 80 510 -2816
2018-04-22 05:27:57 GMT 51.104462 0.394097 34,575 81 507 -3712
2018-04-22 05:27:54 GMT 51.103512 0.384293 35,000 81 505 -3904
2018-04-22 05:27:51 GMT 51.102577 0.374680 34,850 81 507 -3712
2018-04-22 05:27:48 GMT 51.101532 0.363811 35,525 81 500 -4352
2018-04-22 05:27:45 GMT 51.100296 0.351266 35,200 81 501 -4288
2018-04-22 05:27:41 GMT 51.098694 0.334563 35,525 79 487 -3968
2018-04-22 05:27:37 GMT 51.097271 0.320282 36,375 80 483 -1792
2018-04-22 05:27:34 GMT 51.096107 0.309219 36,025 80 491 -4736
2018-04-22 05:27:31 GMT 51.095551 0.303802 36,125 79 489 -4480
2018-04-22 05:27:28 GMT 51.093750 0.287797 36,425 79 486 -3456
2018-04-22 05:27:25 GMT 51.092571 0.277786 36,625 79 484 -2688
2018-04-22 05:27:22 GMT 51.091358 0.267258 36,775 79 483 -2176
2018-04-22 05:27:19 GMT 51.090012 0.255051 36,850 80 482 -1536
2018-04-22 05:27:16 GMT 51.089218 0.247935 36,875 80 483 -1216
2018-04-22 05:27:13 GMT 51.087914 0.235214 36,950 80 483 -640
2018-04-22 05:27:10 GMT 51.087112 0.227298 37,000 81 481 -512
2018-04-22 05:27:07 GMT 51.086197 0.218242 37,000 81 481 -256
2018-04-22 05:27:04 GMT 51.084961 0.205697 37,000 81 481 -256
2018-04-22 05:27:01 GMT 51.084099 0.196762 37,000 81 480 -64
2018-04-22 05:26:58 GMT 51.082993 0.185803 37,000 81 480 0
2018-04-22 05:26:55 GMT 51.081985 0.175707 37,000 81 480 0
2018-04-22 05:26:52 GMT 51.081024 0.165983 37,000 81 480 0
2018-04-22 05:26:49 GMT 51.079956 0.154953 37,000 80 481 0
2018-04-22 05:26:46 GMT 51.078735 0.142600 37,000 80 481 0
2018-04-22 05:26:43 GMT 51.077682 0.132207 37,000 81 480 0
2018-04-22 05:26:40 GMT 51.076557 0.121231 37,000 81 480 0
2018-04-22 05:26:37 GMT 51.075668 0.112313 37,000 81 481 0
2018-04-22 05:26:34 GMT 51.074696 0.102234 37,000 81 480 0
2018-04-22 05:26:31 GMT 51.073578 0.090179 37,000 83 480 0
2018-04-22 05:26:28 GMT 51.072460 0.077286 37,000 82 480 0
2018-04-22 05:26:25 GMT 51.071762 0.068893 37,000 83 480 0
2018-04-22 05:26:22 GMT 51.071136 0.060722 37,000 83 480 0
2018-04-22 05:26:19 GMT 51.070358 0.050626 37,000 83 479 0
2018-04-22 05:26:16 GMT 51.069397 0.037710 37,000 83 479 0
2018-04-22 05:26:13 GMT 51.068737 0.029144 37,000 83 479 0
2018-04-22 05:26:10 GMT 51.067749 0.016405 37,000 83 479 0
2018-04-22 05:26:07 GMT 51.066921 0.005417 37,000 83 479 64
2018-04-22 05:26:04 GMT 51.066128 -0.004730 37,000 83 479 0
2018-04-22 05:26:01 GMT 51.065323 -0.015737 37,000 83 479 0
2018-04-22 05:25:58 GMT 51.064865 -0.021305 37,000 83 479 64
2018-04-22 05:25:55 GMT 51.063766 -0.036299 37,000 83 479 64
2018-04-22 05:25:52 GMT 51.063171 -0.043574 37,000 83 479 0
2018-04-22 05:25:49 GMT 51.062080 -0.057755 37,000 82 478 -64
2018-04-22 05:25:46 GMT 51.061382 -0.067139 37,000 82 479 0
2018-04-22 05:25:43 GMT 51.060402 -0.079727 37,000 82 479 0
2018-04-22 05:25:40 GMT 51.059704 -0.088425 37,000 82 479 0
2018-04-22 05:25:37 GMT 51.059052 -0.096576 37,000 83 479 0
2018-04-22 05:25:34 GMT 51.058090 -0.109121 37,000 83 479 0
2018-04-22 05:25:31 GMT 51.057449 -0.117880 37,000 83 479 -64
2018-04-22 05:25:28 GMT 51.056351 -0.131762 37,025 83 479 -64
2018-04-22 05:25:25 GMT 51.055515 -0.142441 37,025 83 478 -64
2018-04-22 05:25:22 GMT 51.054771 -0.152512 37,025 83 478 -64
2018-04-22 05:25:19 GMT 51.053925 -0.163162 37,025 82 478 -64
2018-04-22 05:25:16 GMT 51.053421 -0.169907 37,025 83 478 64
2018-04-22 05:25:13 GMT 51.052582 -0.180359 37,000 82 478 64
2018-04-22 05:25:10 GMT 51.051514 -0.194244 37,025 83 478 64
2018-04-22 05:25:07 GMT 51.050949 -0.201391 37,025 83 478 64
2018-04-22 05:25:04 GMT 51.050022 -0.213699 37,000 82 478 64
2018-04-22 05:25:01 GMT 51.049210 -0.224329 37,000 82 478 64
2018-04-22 05:24:58 GMT 51.048485 -0.233231 37,000 82 478 64
2018-04-22 05:24:55 GMT 51.047554 -0.245361 37,000 82 478 0
2018-04-22 05:24:52 GMT 51.046856 -0.254135 37,000 82 478 0
2018-04-22 05:24:49 GMT 51.046051 -0.264711 37,000 82 478 0
2018-04-22 05:24:46 GMT 51.045273 -0.274658 37,000 82 478 0
2018-04-22 05:24:43 GMT 51.044437 -0.285263 37,000 82 478 64
2018-04-22 05:24:40 GMT 51.043736 -0.294113 37,000 82 478 0
2018-04-22 05:24:37 GMT 51.042759 -0.306625 37,000 82 478 0
2018-04-22 05:24:34 GMT 51.041611 -0.320756 37,000 82 479 0
2018-04-22 05:24:31 GMT 51.040897 -0.329590 37,000 82 479 0
2018-04-22 05:24:28 GMT 51.040199 -0.337982 37,000 82 479 0
2018-04-22 05:24:25 GMT 51.039368 -0.348222 37,000 82 479 0
2018-04-22 05:24:22 GMT 51.038525 -0.358429 37,000 82 479 0
2018-04-22 05:24:19 GMT 51.037582 -0.369749 37,000 82 479 0
2018-04-22 05:24:16 GMT 51.036896 -0.378063 37,000 82 479 64
2018-04-22 05:24:13 GMT 51.036072 -0.388159 37,000 82 479 64
2018-04-22 05:24:10 GMT 51.035217 -0.398407 37,000 82 479 64
2018-04-22 05:24:07 GMT 51.034054 -0.412674 37,000 82 478 0
2018-04-22 05:24:04 GMT 51.033497 -0.419312 37,000 82 478 0
2018-04-22 05:24:01 GMT 51.032703 -0.429001 37,000 82 478 0
2018-04-22 05:23:58 GMT 51.031723 -0.441383 37,000 82 478 0
2018-04-22 05:23:55 GMT 51.030750 -0.453339 37,000 82 478 -64
2018-04-22 05:23:52 GMT 51.030003 -0.462646 37,000 82 477 -64
2018-04-22 05:23:49 GMT 51.028980 -0.475235 37,000 82 478 -64
2018-04-22 05:23:46 GMT 51.028374 -0.482941 37,000 82 478 -64
2018-04-22 05:23:43 GMT 51.027493 -0.493698 37,000 82 478 -64
2018-04-22 05:23:40 GMT 51.026512 -0.506210 37,000 82 478 -64
2018-04-22 05:23:37 GMT 51.025772 -0.515764 37,000 82 478 -64
2018-04-22 05:23:34 GMT 51.024902 -0.526156 37,000 82 479 0
2018-04-22 05:23:31 GMT 51.023907 -0.538177 37,025 82 479 0
2018-04-22 05:23:28 GMT 51.023209 -0.546644 37,025 82 479 0
2018-04-22 05:23:25 GMT 51.022511 -0.555496 37,000 82 479 0
2018-04-22 05:23:22 GMT 51.021515 -0.567503 37,025 82 479 0
2018-04-22 05:23:19 GMT 51.020508 -0.579834 37,025 82 479 0
2018-04-22 05:23:16 GMT 51.019913 -0.586952 37,025 82 479 0
2018-04-22 05:23:13 GMT 51.018951 -0.598755 37,025 82 479 0
2018-04-22 05:23:10 GMT 51.018040 -0.609360 37,025 82 479 0
2018-04-22 05:23:07 GMT 51.017212 -0.619614 37,025 82 479 0
2018-04-22 05:23:04 GMT 51.016479 -0.627928 37,025 82 479 0
2018-04-22 05:23:01 GMT 51.015427 -0.640473 37,025 82 478 0
2018-04-22 05:22:58 GMT 51.014549 -0.651016 37,025 82 478 0
2018-04-22 05:22:55 GMT 51.013779 -0.659922 37,025 82 478 0
2018-04-22 05:22:52 GMT 51.012875 -0.670471 37,025 82 479 0
2018-04-22 05:22:49 GMT 51.011990 -0.680923 37,025 82 479 0
2018-04-22 05:22:46 GMT 51.011078 -0.691471 37,025 82 479 0
2018-04-22 05:22:43 GMT 51.010220 -0.702057 37,025 82 479 -64
2018-04-22 05:22:40 GMT 51.009102 -0.715637 37,025 82 479 -64
2018-04-22 05:22:37 GMT 51.008266 -0.725327 37,025 82 479 0
2018-04-22 05:22:34 GMT 51.007519 -0.734329 37,025 82 479 0
2018-04-22 05:22:31 GMT 51.006729 -0.743581 37,025 82 479 0
2018-04-22 05:22:28 GMT 51.005703 -0.755920 37,025 82 479 -64
2018-04-22 05:22:25 GMT 51.004772 -0.766678 37,025 82 479 64
2018-04-22 05:22:22 GMT 51.004166 -0.773794 37,025 82 479 64
2018-04-22 05:22:19 GMT 51.003204 -0.785226 37,025 82 479 64
2018-04-22 05:22:16 GMT 51.002197 -0.797400 37,000 82 479 64
2018-04-22 05:22:13 GMT 51.001419 -0.806456 37,000 82 480 64
2018-04-22 05:22:10 GMT 51.000229 -0.820708 37,000 82 480 64
2018-04-22 05:22:07 GMT 50.999840 -0.825348 37,000 82 480 64
2018-04-22 05:22:04 GMT 50.998718 -0.839118 37,000 82 480 64
2018-04-22 05:22:01 GMT 50.997940 -0.848174 37,000 82 480 0
2018-04-22 05:21:58 GMT 50.997025 -0.858641 37,000 82 480 0
2018-04-22 05:21:55 GMT 50.996063 -0.870073 37,000 82 480 0
2018-04-22 05:21:52 GMT 50.995331 -0.878387 37,000 82 480 -64
2018-04-22 05:21:49 GMT 50.994415 -0.888853 37,000 82 480 -64
2018-04-22 05:21:46 GMT 50.993179 -0.903180 37,000 82 480 0
2018-04-22 05:21:43 GMT 50.992264 -0.913944 37,000 82 480 0
2018-04-22 05:21:40 GMT 50.991783 -0.919342 37,000 82 480 0
2018-04-22 05:21:37 GMT 50.990616 -0.932724 37,000 82 480 0
2018-04-22 05:21:34 GMT 50.989689 -0.943298 37,000 82 480 0
2018-04-22 05:21:31 GMT 50.988922 -0.952173 37,000 82 480 0
2018-04-22 05:21:28 GMT 50.988106 -0.961761 37,000 82 480 0
2018-04-22 05:21:25 GMT 50.986897 -0.975647 37,000 82 480 0
2018-04-22 05:21:22 GMT 50.985992 -0.985949 37,000 82 480 0
2018-04-22 05:21:19 GMT 50.985126 -0.996246 37,000 82 480 0
2018-04-22 05:21:16 GMT 50.984482 -1.003319 37,000 82 480 0
2018-04-22 05:21:13 GMT 50.983337 -1.016903 37,000 82 480 0
2018-04-22 05:21:10 GMT 50.982559 -1.026034 37,000 82 480 0
2018-04-22 05:21:07 GMT 50.981644 -1.036426 37,000 82 481 0
2018-04-22 05:21:04 GMT 50.980801 -1.046753 37,000 82 481 -64
2018-04-22 05:21:01 GMT 50.979813 -1.058770 37,000 82 480 0
2018-04-22 05:20:58 GMT 50.978989 -1.069237 37,025 82 480 0
2018-04-22 05:20:55 GMT 50.978424 -1.075974 37,025 82 480 0
2018-04-22 05:20:52 GMT 50.977249 -1.090467 37,025 82 480 0
2018-04-22 05:20:49 GMT 50.976700 -1.097445 37,025 82 481 0
2018-04-22 05:20:46 GMT 50.975739 -1.109322 37,025 82 481 64
2018-04-22 05:20:43 GMT 50.974960 -1.118379 37,025 82 481 64
2018-04-22 05:20:40 GMT 50.973907 -1.130924 37,025 82 481 64
2018-04-22 05:20:37 GMT 50.973164 -1.140137 37,000 83 480 0
2018-04-22 05:20:34 GMT 50.972305 -1.150447 37,000 82 481 64
2018-04-22 05:20:31 GMT 50.971298 -1.162250 37,000 82 480 0
2018-04-22 05:20:28 GMT 50.970371 -1.173935 37,000 82 480 0
2018-04-22 05:20:25 GMT 50.969467 -1.184890 37,000 82 480 0
2018-04-22 05:20:22 GMT 50.968643 -1.195357 37,000 82 480 0
2018-04-22 05:20:19 GMT 50.968094 -1.202706 37,000 83 480 0
2018-04-22 05:20:16 GMT 50.967361 -1.211762 37,000 83 480 0
2018-04-22 05:20:13 GMT 50.966400 -1.224382 37,000 83 480 0
2018-04-22 05:20:10 GMT 50.965389 -1.237793 37,000 83 480 0
2018-04-22 05:20:07 GMT 50.964878 -1.244354 37,000 83 480 0
2018-04-22 05:20:04 GMT 50.963882 -1.257489 37,025 83 480 0
2018-04-22 05:20:01 GMT 50.963062 -1.267776 37,025 82 480 0
2018-04-22 05:19:58 GMT 50.962463 -1.275973 37,025 82 480 0
2018-04-22 05:19:55 GMT 50.961620 -1.286240 37,025 82 480 0
2018-04-22 05:19:52 GMT 50.960770 -1.297203 37,025 82 480 0
2018-04-22 05:19:49 GMT 50.959805 -1.309204 37,025 84 480 0
2018-04-22 05:19:46 GMT 50.959030 -1.319102 37,025 83 480 0
2018-04-22 05:19:43 GMT 50.958176 -1.330795 37,025 83 479 0
2018-04-22 05:19:40 GMT 50.957382 -1.341629 37,000 84 480 0
2018-04-22 05:19:37 GMT 50.956970 -1.348423 37,000 84 479 0
2018-04-22 05:19:34 GMT 50.956284 -1.359558 37,000 85 479 0
2018-04-22 05:19:31 GMT 50.955597 -1.372474 37,000 86 478 0
2018-04-22 05:19:28 GMT 50.955288 -1.380005 37,000 86 479 0
2018-04-22 05:19:25 GMT 50.954865 -1.390661 37,000 87 479 0
2018-04-22 05:19:22 GMT 50.954498 -1.401573 37,000 87 479 0
2018-04-22 05:19:19 GMT 50.954224 -1.412708 37,000 88 479 0
2018-04-22 05:19:16 GMT 50.953995 -1.423249 37,000 88 479 0
2018-04-22 05:19:13 GMT 50.953846 -1.434937 37,000 88 479 -64
2018-04-22 05:19:10 GMT 50.953705 -1.444016 37,000 88 479 0
2018-04-22 05:19:07 GMT 50.953472 -1.458054 37,000 88 479 0
2018-04-22 05:19:03 GMT 50.953354 -1.466601 37,000 88 479 0
2018-04-22 05:19:00 GMT 50.953194 -1.479034 37,025 88 479 0
2018-04-22 05:18:57 GMT 50.953007 -1.492996 37,000 88 479 0
2018-04-22 05:18:54 GMT 50.952850 -1.501935 37,025 88 478 0
2018-04-22 05:18:51 GMT 50.952667 -1.513812 37,000 88 478 0
2018-04-22 05:18:48 GMT 50.952530 -1.522200 37,000 88 478 0
2018-04-22 05:18:45 GMT 50.952400 -1.531143 37,000 88 478 0
2018-04-22 05:18:42 GMT 50.952209 -1.543876 37,000 88 478 0
2018-04-22 05:18:39 GMT 50.952072 -1.551522 37,025 88 478 -64
2018-04-22 05:18:36 GMT 50.951889 -1.562063 37,025 88 478 -64
2018-04-22 05:18:33 GMT 50.951660 -1.575647 37,025 88 478 0
2018-04-22 05:18:30 GMT 50.951565 -1.582489 37,025 88 478 0
2018-04-22 05:18:27 GMT 50.951385 -1.594873 37,025 88 478 0
2018-04-22 05:18:24 GMT 50.951237 -1.603775 37,025 88 478 0
2018-04-22 05:18:21 GMT 50.951054 -1.613922 37,025 88 477 64
2018-04-22 05:18:18 GMT 50.950817 -1.627884 37,000 88 478 64
2018-04-22 05:18:15 GMT 50.950634 -1.638641 37,000 88 477 64
2018-04-22 05:18:12 GMT 50.950539 -1.645660 37,000 88 477 64
2018-04-22 05:18:09 GMT 50.950287 -1.658045 37,000 88 477 64
2018-04-22 05:18:06 GMT 50.950104 -1.668808 37,000 88 477 64
2018-04-22 05:18:03 GMT 50.949982 -1.677399 37,000 88 477 64
2018-04-22 05:18:00 GMT 50.949783 -1.687663 37,000 88 477 0
2018-04-22 05:17:57 GMT 50.949600 -1.698130 37,000 88 477 0
2018-04-22 05:17:54 GMT 50.949425 -1.709137 37,000 88 477 -64
2018-04-22 05:17:51 GMT 50.949234 -1.720845 37,000 88 477 -64
2018-04-22 05:17:48 GMT 50.949051 -1.729530 37,000 88 477 0
2018-04-22 05:17:45 GMT 50.948868 -1.739626 37,000 88 477 0
2018-04-22 05:17:42 GMT 50.948639 -1.752171 37,000 88 477 0
2018-04-22 05:17:39 GMT 50.948490 -1.760712 37,000 88 477 64
2018-04-22 05:17:36 GMT 50.948303 -1.771851 37,000 88 477 0
2018-04-22 05:17:33 GMT 50.948135 -1.780750 37,000 88 477 0
2018-04-22 05:17:30 GMT 50.947861 -1.792924 37,000 88 477 0
2018-04-22 05:17:27 GMT 50.947678 -1.802352 37,025 88 476 0
2018-04-22 05:17:24 GMT 50.947468 -1.814728 37,000 88 476 0
2018-04-22 05:17:21 GMT 50.947235 -1.826172 37,000 88 476 0
2018-04-22 05:17:18 GMT 50.947128 -1.831599 37,025 88 476 0
2018-04-22 05:17:15 GMT 50.946945 -1.841992 37,025 88 476 0
2018-04-22 05:17:12 GMT 50.946674 -1.857147 37,000 88 476 0
2018-04-22 05:17:09 GMT 50.946487 -1.867750 37,025 88 476 0
2018-04-22 05:17:06 GMT 50.946304 -1.877846 37,025 88 476 0
2018-04-22 05:17:03 GMT 50.946167 -1.886160 37,000 88 474 0
2018-04-22 05:17:00 GMT 50.945930 -1.898880 37,000 88 475 0
2018-04-22 05:16:57 GMT 50.945744 -1.908951 37,000 88 475 0
2018-04-22 05:16:54 GMT 50.945389 -1.924760 37,000 88 475 0
2018-04-22 05:16:51 GMT 50.945278 -1.931839 37,000 87 475 0
2018-04-22 05:16:48 GMT 50.945045 -1.941910 37,000 87 475 0
2018-04-22 05:16:45 GMT 50.944931 -1.947624 37,000 87 475 0
2018-04-22 05:16:42 GMT 50.944656 -1.959055 37,000 87 475 0
2018-04-22 05:16:39 GMT 50.944393 -1.971054 37,000 88 475 0
2018-04-22 05:16:36 GMT 50.944153 -1.981993 37,000 88 475 0
2018-04-22 05:16:33 GMT 50.943977 -1.990814 37,000 88 475 0
2018-04-22 05:16:30 GMT 50.943741 -2.001442 37,000 88 475 0
2018-04-22 05:16:27 GMT 50.943462 -2.015152 37,025 88 475 0
2018-04-22 05:16:24 GMT 50.943325 -2.022400 37,000 88 474 0
2018-04-22 05:16:21 GMT 50.943146 -2.031209 37,025 88 474 0
2018-04-22 05:16:18 GMT 50.942860 -2.043533 37,025 88 474 0
2018-04-22 05:16:15 GMT 50.942688 -2.052068 37,025 88 474 0
2018-04-22 05:16:12 GMT 50.942394 -2.066727 37,025 88 474 0
2018-04-22 05:16:09 GMT 50.942253 -2.074356 37,000 88 474 64
2018-04-22 05:16:06 GMT 50.942066 -2.082977 37,000 88 474 0
2018-04-22 05:16:03 GMT 50.941864 -2.091856 37,000 88 474 64
2018-04-22 05:16:00 GMT 50.941681 -2.102249 37,000 88 474 0
2018-04-22 05:15:57 GMT 50.941360 -2.118506 37,000 88 474 0
2018-04-22 05:15:54 GMT 50.941223 -2.125038 37,000 87 473 0
2018-04-22 05:15:51 GMT 50.940998 -2.136688 37,000 87 473 0
2018-04-22 05:15:48 GMT 50.940716 -2.149429 37,000 87 473 0
2018-04-22 05:15:45 GMT 50.940445 -2.160001 37,000 87 473 -64
2018-04-22 05:15:42 GMT 50.940346 -2.164993 37,000 88 473 -64
2018-04-22 05:15:39 GMT 50.940113 -2.176437 37,000 88 473 -64
2018-04-22 05:15:36 GMT 50.939850 -2.186947 37,025 87 473 0
2018-04-22 05:15:33 GMT 50.939575 -2.201126 37,000 87 473 0
2018-04-22 05:15:29 GMT 50.939301 -2.214265 37,025 88 473 0
2018-04-22 05:15:26 GMT 50.939137 -2.222366 37,025 87 473 0
2018-04-22 05:15:23 GMT 50.938889 -2.232897 37,025 86 466 0
2018-04-22 05:15:20 GMT 50.938614 -2.245368 37,025 87 473 0
2018-04-22 05:15:17 GMT 50.938431 -2.252568 37,025 88 473 0
2018-04-22 05:15:14 GMT 50.938156 -2.265549 37,025 88 473 0
2018-04-22 05:15:11 GMT 50.937973 -2.272982 37,025 88 473 0
2018-04-22 05:15:08 GMT 50.937737 -2.284927 37,000 87 472 0
2018-04-22 05:15:05 GMT 50.937553 -2.294235 37,025 88 473 0
2018-04-22 05:15:02 GMT 50.937271 -2.305298 37,025 88 473 0
2018-04-22 05:14:59 GMT 50.937038 -2.317352 37,000 87 473 0
2018-04-22 05:14:56 GMT 50.936829 -2.327246 37,000 87 473 0
2018-04-22 05:14:53 GMT 50.936527 -2.339783 37,000 87 473 0
2018-04-22 05:14:50 GMT 50.936340 -2.348480 37,000 87 473 0
2018-04-22 05:14:47 GMT 50.936142 -2.356567 37,000 87 473 0
2018-04-22 05:14:44 GMT 50.935867 -2.369038 37,000 87 473 0
2018-04-22 05:14:41 GMT 50.935684 -2.377649 37,000 87 473 0
2018-04-22 05:14:38 GMT 50.935364 -2.391586 37,000 87 473 0
2018-04-22 05:14:35 GMT 50.935135 -2.400067 37,025 87 473 0
2018-04-22 05:14:32 GMT 50.934990 -2.406845 37,000 87 473 0
2018-04-22 05:14:29 GMT 50.934711 -2.418594 37,025 87 473 0
2018-04-22 05:14:26 GMT 50.934402 -2.432878 37,025 87 473 0
2018-04-22 05:14:23 GMT 50.934200 -2.442398 37,000 87 472 0
2018-04-22 05:14:20 GMT 50.933990 -2.449803 37,025 87 472 0
2018-04-22 05:14:17 GMT 50.933735 -2.460327 37,000 87 472 0
2018-04-22 05:14:14 GMT 50.933441 -2.472889 37,025 87 472 0
2018-04-22 05:14:11 GMT 50.933128 -2.485199 37,025 87 472 -128
2018-04-22 05:14:08 GMT 50.932892 -2.492560 37,025 87 472 -64
2018-04-22 05:14:05 GMT 50.932663 -2.502441 37,025 87 472 64
2018-04-22 05:14:02 GMT 50.932430 -2.512054 37,025 87 472 0
2018-04-22 05:13:59 GMT 50.932106 -2.524796 37,025 87 472 64
2018-04-22 05:13:56 GMT 50.931885 -2.533314 37,025 87 472 64
2018-04-22 05:13:53 GMT 50.931595 -2.545547 37,000 87 472 0
2018-04-22 05:13:50 GMT 50.931427 -2.552911 37,000 86 466 0
2018-04-22 05:13:47 GMT 50.931080 -2.565155 37,000 87 472 0
2018-04-22 05:13:44 GMT 50.930801 -2.576904 37,000 87 472 0
2018-04-22 05:13:41 GMT 50.930569 -2.585144 37,000 87 472 0
2018-04-22 05:13:38 GMT 50.930283 -2.596040 37,000 87 472 0
2018-04-22 05:13:35 GMT 50.930008 -2.606358 37,000 87 472 0
2018-04-22 05:13:32 GMT 50.929779 -2.616196 37,000 87 472 0
2018-04-22 05:13:29 GMT 50.929546 -2.624435 37,000 87 472 0
2018-04-22 05:13:26 GMT 50.929276 -2.635680 37,025 87 472 0
2018-04-22 05:13:23 GMT 50.928955 -2.647408 37,025 87 472 0
2018-04-22 05:13:20 GMT 50.928661 -2.658615 37,025 87 472 0
2018-04-22 05:13:17 GMT 50.928429 -2.667160 37,000 87 472 0
2018-04-22 05:13:14 GMT 50.928055 -2.680969 37,000 87 472 0
2018-04-22 05:13:11 GMT 50.927765 -2.691799 37,000 87 471 0
2018-04-22 05:13:08 GMT 50.927589 -2.698898 37,000 87 471 -64
2018-04-22 05:13:05 GMT 50.927357 -2.706451 37,000 87 471 -64
2018-04-22 05:13:02 GMT 50.927032 -2.719193 37,025 87 471 -64
2018-04-22 05:12:59 GMT 50.926758 -2.729360 37,025 87 471 0
2018-04-22 05:12:56 GMT 50.926392 -2.742425 37,025 87 471 -64
2018-04-22 05:12:53 GMT 50.926117 -2.751333 37,025 87 471 0
2018-04-22 05:12:50 GMT 50.925888 -2.759944 37,025 87 471 0
2018-04-22 05:12:47 GMT 50.925522 -2.773009 37,025 87 471 0
2018-04-22 05:12:44 GMT 50.925339 -2.780580 37,025 87 471 64
2018-04-22 05:12:41 GMT 50.925030 -2.792435 37,025 87 471 0
2018-04-22 05:12:38 GMT 50.924744 -2.802627 37,025 87 471 0
2018-04-22 05:12:35 GMT 50.924473 -2.813110 37,025 87 471 64
2018-04-22 05:12:32 GMT 50.924145 -2.823715 37,000 87 471 64
2018-04-22 05:12:29 GMT 50.924004 -2.830276 37,000 87 471 64
2018-04-22 05:12:26 GMT 50.923588 -2.845383 37,000 87 471 64
2018-04-22 05:12:23 GMT 50.923279 -2.855555 37,000 87 471 0
2018-04-22 05:12:20 GMT 50.922981 -2.865982 37,000 87 471 0
2018-04-22 05:12:17 GMT 50.922794 -2.873230 37,000 87 471 0
2018-04-22 05:12:14 GMT 50.922501 -2.884431 37,000 87 471 0
2018-04-22 05:12:11 GMT 50.922180 -2.894749 37,000 87 471 0
2018-04-22 05:12:08 GMT 50.921906 -2.904325 37,000 87 471 0
2018-04-22 05:12:05 GMT 50.921585 -2.916722 37,000 87 471 0
2018-04-22 05:12:02 GMT 50.921307 -2.925491 37,000 87 470 0
2018-04-22 05:11:59 GMT 50.921024 -2.935791 37,000 87 470 0
2018-04-22 05:11:56 GMT 50.920746 -2.945709 37,000 87 470 0
2018-04-22 05:11:53 GMT 50.920467 -2.955704 37,000 87 470 0
2018-04-22 05:11:50 GMT 50.920120 -2.966531 37,000 87 470 0
2018-04-22 05:11:47 GMT 50.919815 -2.976990 37,000 87 470 0
2018-04-22 05:11:44 GMT 50.919479 -2.987094 37,000 87 470 64
2018-04-22 05:11:41 GMT 50.919113 -2.998080 37,000 87 470 0
2018-04-22 05:11:38 GMT 50.918839 -3.008270 37,000 87 470 64
2018-04-22 05:11:35 GMT 50.918465 -3.019943 37,000 87 470 64
2018-04-22 05:11:32 GMT 50.918232 -3.028488 37,000 87 470 0
2018-04-22 05:11:29 GMT 50.917877 -3.041357 37,000 87 470 0
2018-04-22 05:11:26 GMT 50.917580 -3.052521 37,000 87 470 0
2018-04-22 05:11:23 GMT 50.917442 -3.059387 37,000 87 470 -64
2018-04-22 05:11:20 GMT 50.917145 -3.071198 37,000 87 470 -64
2018-04-22 05:11:17 GMT 50.916916 -3.080180 37,000 87 470 -64
2018-04-22 05:11:14 GMT 50.916641 -3.090127 37,000 87 470 -64
2018-04-22 05:11:11 GMT 50.916275 -3.103118 37,000 87 470 -64
2018-04-22 05:11:08 GMT 50.916092 -3.110022 37,025 87 470 -64
2018-04-22 05:11:05 GMT 50.915817 -3.120340 37,025 87 470 0
2018-04-22 05:11:02 GMT 50.915497 -3.131252 37,000 87 469 0
2018-04-22 05:10:59 GMT 50.915161 -3.143463 37,025 87 469 64
2018-04-22 05:10:56 GMT 50.914902 -3.152853 37,000 87 469 64
2018-04-22 05:10:53 GMT 50.914600 -3.165359 37,000 87 469 128
2018-04-22 05:10:50 GMT 50.914352 -3.174158 37,000 87 469 64
2018-04-22 05:10:47 GMT 50.914135 -3.183212 37,000 87 469 64
2018-04-22 05:10:44 GMT 50.913765 -3.195572 37,000 87 469 0
2018-04-22 05:10:41 GMT 50.913483 -3.205632 37,000 87 469 0
2018-04-22 05:10:38 GMT 50.913204 -3.215790 37,000 87 469 0
2018-04-22 05:10:34 GMT 50.912926 -3.226395 37,000 87 469 0
2018-04-22 05:10:31 GMT 50.912601 -3.237686 37,000 87 469 -64
2018-04-22 05:10:28 GMT 50.912292 -3.248464 37,000 87 467 0
2018-04-22 05:10:25 GMT 50.911949 -3.260651 37,000 87 469 -64
2018-04-22 05:10:21 GMT 50.911652 -3.272812 37,000 87 469 -64
2018-04-22 05:10:18 GMT 50.911343 -3.284302 37,025 87 469 -64
2018-04-22 05:10:14 GMT 50.911018 -3.295898 37,025 87 468 64
2018-04-22 05:10:11 GMT 50.910782 -3.304658 37,025 87 468 64
2018-04-22 05:10:08 GMT 50.910416 -3.318613 37,000 87 468 64
2018-04-22 05:10:05 GMT 50.910225 -3.326035 37,000 87 469 64
2018-04-22 05:10:02 GMT 50.909855 -3.339386 37,000 87 468 64
2018-04-22 05:09:59 GMT 50.909592 -3.349791 37,000 87 468 0
2018-04-22 05:09:56 GMT 50.909409 -3.354913 37,000 87 468 0
2018-04-22 05:09:53 GMT 50.909042 -3.368943 37,000 87 468 0
2018-04-22 05:09:50 GMT 50.908829 -3.375931 37,000 87 468 0
2018-04-22 05:09:47 GMT 50.908447 -3.388763 37,000 87 468 0
2018-04-22 05:09:44 GMT 50.908131 -3.399506 37,000 87 468 0
2018-04-22 05:09:41 GMT 50.907898 -3.408051 37,000 87 468 0
2018-04-22 05:09:38 GMT 50.907578 -3.418827 37,000 87 468 -64
2018-04-22 05:09:35 GMT 50.907211 -3.432485 37,000 87 468 -64
2018-04-22 05:09:31 GMT 50.906845 -3.444808 37,000 87 467 -64
2018-04-22 05:09:28 GMT 50.906593 -3.452759 37,025 87 467 -64
2018-04-22 05:09:25 GMT 50.906269 -3.464432 37,025 87 467 0
2018-04-22 05:09:22 GMT 50.905930 -3.475466 37,025 87 467 0
2018-04-22 05:09:19 GMT 50.905617 -3.485565 37,025 87 467 0
2018-04-22 05:09:16 GMT 50.905384 -3.493729 37,025 86 467 -64
2018-04-22 05:09:13 GMT 50.905060 -3.503647 37,025 86 467 0
2018-04-22 05:09:10 GMT 50.904732 -3.512497 37,025 86 467 0
2018-04-22 05:09:07 GMT 50.904282 -3.524607 37,025 86 468 0
2018-04-22 05:09:04 GMT 50.903824 -3.535816 37,025 85 467 0
2018-04-22 05:09:01 GMT 50.903412 -3.545392 37,025 85 467 64
2018-04-22 05:08:58 GMT 50.902863 -3.555933 37,025 85 467 64
2018-04-22 05:08:55 GMT 50.902359 -3.566284 37,025 85 467 0
2018-04-22 05:08:51 GMT 50.901535 -3.582137 37,025 85 467 0
2018-04-22 05:08:48 GMT 50.901241 -3.588104 37,025 85 467 0
2018-04-22 05:08:45 GMT 50.900730 -3.598633 37,025 86 466 0
2018-04-22 05:08:42 GMT 50.900124 -3.612595 37,025 86 466 0
2018-04-22 05:08:39 GMT 50.899796 -3.621628 37,025 86 466 0
2018-04-22 05:08:36 GMT 50.899475 -3.630462 37,025 86 466 0
2018-04-22 05:08:33 GMT 50.899155 -3.638998 37,000 86 466 64
2018-04-22 05:08:30 GMT 50.898773 -3.650360 37,000 86 466 64
2018-04-22 05:08:27 GMT 50.898239 -3.664460 37,000 86 466 0
2018-04-22 05:08:24 GMT 50.897919 -3.672626 37,000 86 466 0
2018-04-22 05:08:21 GMT 50.897598 -3.681162 37,000 86 466 -64
2018-04-22 05:08:18 GMT 50.897186 -3.691703 37,000 86 466 0
2018-04-22 05:08:15 GMT 50.896820 -3.702087 37,025 86 466 0
2018-04-22 05:08:12 GMT 50.896446 -3.712234 37,025 86 466 0
2018-04-22 05:08:09 GMT 50.896042 -3.721916 37,025 86 466 0
2018-04-22 05:08:06 GMT 50.895630 -3.733496 37,025 86 466 0
2018-04-22 05:08:03 GMT 50.895283 -3.742142 37,025 86 466 0
2018-04-22 05:08:00 GMT 50.894897 -3.752870 37,025 86 465 0
2018-04-22 05:07:57 GMT 50.894485 -3.763411 37,025 86 465 0
2018-04-22 05:07:54 GMT 50.893982 -3.776625 37,025 86 465 0
2018-04-22 05:07:51 GMT 50.893661 -3.785458 37,025 86 465 0
2018-04-22 05:07:48 GMT 50.893341 -3.793995 37,025 86 465 0
2018-04-22 05:07:45 GMT 50.892906 -3.806000 37,025 86 465 0
2018-04-22 05:07:42 GMT 50.892654 -3.812998 37,000 86 465 0
2018-04-22 05:07:39 GMT 50.892208 -3.825684 37,000 86 465 0
2018-04-22 05:07:36 GMT 50.891876 -3.836381 37,000 86 465 0
2018-04-22 05:07:33 GMT 50.891647 -3.843211 37,000 86 465 0
2018-04-22 05:07:30 GMT 50.891186 -3.856964 37,000 86 465 64
2018-04-22 05:07:27 GMT 50.890961 -3.863550 37,000 86 465 64
2018-04-22 05:07:24 GMT 50.890594 -3.874388 37,000 86 465 0
2018-04-22 05:07:21 GMT 50.890255 -3.883057 37,000 86 465 0
2018-04-22 05:07:18 GMT 50.889816 -3.894431 37,000 86 466 0
2018-04-22 05:07:15 GMT 50.889450 -3.904675 37,000 86 466 0
2018-04-22 05:07:12 GMT 50.889084 -3.913508 37,000 86 466 0
2018-04-22 05:07:09 GMT 50.888580 -3.925247 37,000 86 468 0
2018-04-22 05:07:06 GMT 50.888123 -3.936669 37,000 86 468 0
2018-04-22 05:07:03 GMT 50.887619 -3.948917 37,000 86 469 0
2018-04-22 05:07:00 GMT 50.887161 -3.959087 37,000 86 482 1024
2018-04-22 05:06:57 GMT 50.886887 -3.965619 37,000 86 469 0
2018-04-22 05:06:54 GMT 50.886482 -3.975372 36,975 86 470 0
2018-04-22 05:06:51 GMT 50.886017 -3.987274 37,000 86 469 64
2018-04-22 05:06:48 GMT 50.885605 -3.997390 36,975 86 470 64
2018-04-22 05:06:45 GMT 50.885239 -4.006669 36,975 86 470 64
2018-04-22 05:06:42 GMT 50.884666 -4.020844 36,975 86 470 64
2018-04-22 05:06:39 GMT 50.884369 -4.028197 36,975 86 470 64
2018-04-22 05:06:36 GMT 50.883968 -4.039078 36,975 86 470 0
2018-04-22 05:06:33 GMT 50.883545 -4.049501 36,975 87 471 0
2018-04-22 05:06:29 GMT 50.882996 -4.065609 36,975 86 471 0
2018-04-22 05:06:26 GMT 50.882805 -4.070969 36,975 87 471 0
2018-04-22 05:06:23 GMT 50.882355 -4.085875 36,975 87 471 64
2018-04-22 05:06:20 GMT 50.882107 -4.093246 36,975 87 471 64
2018-04-22 05:06:17 GMT 50.881828 -4.103241 36,975 87 471 64
2018-04-22 05:06:14 GMT 50.881550 -4.113235 36,975 87 471 0
2018-04-22 05:06:11 GMT 50.881210 -4.124030 36,975 87 471 -64
2018-04-22 05:06:08 GMT 50.880806 -4.137955 36,975 87 472 -128
2018-04-22 05:06:05 GMT 50.880619 -4.144516 37,000 87 472 -192
2018-04-22 05:06:02 GMT 50.880249 -4.156395 37,000 86 472 -192
2018-04-22 05:05:59 GMT 50.879929 -4.166788 37,000 86 473 -128
2018-04-22 05:05:56 GMT 50.879593 -4.176941 37,025 86 474 64
2018-04-22 05:05:53 GMT 50.879314 -4.184189 37,000 86 475 192
2018-04-22 05:05:50 GMT 50.878922 -4.194699 37,000 86 476 320
2018-04-22 05:05:47 GMT 50.878418 -4.208283 36,975 86 479 768
2018-04-22 05:05:44 GMT 50.878052 -4.217265 36,900 86 483 1088
2018-04-22 05:05:41 GMT 50.877502 -4.231666 36,850 86 486 1344
2018-04-22 05:05:38 GMT 50.877220 -4.238892 36,750 86 489 1600
2018-04-22 05:05:35 GMT 50.876724 -4.250076 36,425 86 491 1792
2018-04-22 05:05:32 GMT 50.876312 -4.260097 36,575 86 495 2368
2018-04-22 05:05:29 GMT 50.875854 -4.270119 36,525 86 496 2496
2018-04-22 05:05:25 GMT 50.875126 -4.287338 36,175 86 502 3008
2018-04-22 05:05:22 GMT 50.874619 -4.298772 36,050 86 504 2624
2018-04-22 05:05:19 GMT 50.874287 -4.307327 36,050 86 504 2560
2018-04-22 05:05:15 GMT 50.873566 -4.324827 35,750 86 507 1600
2018-04-22 05:05:12 GMT 50.873219 -4.333115 35,700 86 507 1600
2018-04-22 05:05:09 GMT 50.872787 -4.343979 35,725 86 507 1536
2018-04-22 05:05:05 GMT 50.872238 -4.357834 35,575 86 507 1408
2018-04-22 05:05:02 GMT 50.871727 -4.370728 35,525 86 507 1472
2018-04-22 05:04:59 GMT 50.871307 -4.381104 35,500 86 508 1472
2018-04-22 05:04:55 GMT 50.870705 -4.395828 35,300 86 508 1408
2018-04-22 05:04:52 GMT 50.870190 -4.409180 35,300 86 508 1408
2018-04-22 05:04:49 GMT 50.869820 -4.418030 35,250 86 508 1408
2018-04-22 05:04:45 GMT 50.869259 -4.432068 35,125 86 508 1472
2018-04-22 05:04:42 GMT 50.868805 -4.443376 35,050 86 508 1408
2018-04-22 05:04:39 GMT 50.868347 -4.454436 35,000 86 508 1408
2018-04-22 05:04:36 GMT 50.867863 -4.466095 34,925 86 508 1344
2018-04-22 05:04:33 GMT 50.867256 -4.479828 34,850 86 508 1344
2018-04-22 05:04:29 GMT 50.866745 -4.493484 34,775 86 507 1280
2018-04-22 05:04:25 GMT 50.866142 -4.508591 34,675 86 507 1152
2018-04-22 05:04:22 GMT 50.865646 -4.520577 34,650 86 506 1088
2018-04-22 05:04:19 GMT 50.865326 -4.527926 34,600 86 506 1024
2018-04-22 05:04:16 GMT 50.864883 -4.538803 34,500 86 504 1024
2018-04-22 05:04:13 GMT 50.864319 -4.553313 34,450 86 504 1472
2018-04-22 05:04:10 GMT 50.863953 -4.561234 34,450 86 504 1280
2018-04-22 05:04:07 GMT 50.863358 -4.575360 33,975 86 506 2240
2018-04-22 05:04:04 GMT 50.862946 -4.584565 34,250 86 504 2240
2018-04-22 05:04:01 GMT 50.862534 -4.594067 34,050 86 506 2304
2018-04-22 05:03:58 GMT 50.861996 -4.605255 33,925 86 506 2176
2018-04-22 05:03:54 GMT 50.861343 -4.621310 33,900 86 507 1984
2018-04-22 05:03:51 GMT 50.860840 -4.632370 33,750 86 507 1856
2018-04-22 05:03:48 GMT 50.860367 -4.642868 33,575 86 507 1600
2018-04-22 05:03:44 GMT 50.859604 -4.660430 33,575 86 507 1536
2018-04-22 05:03:41 GMT 50.859283 -4.668150 33,475 86 507 1344
2018-04-22 05:03:38 GMT 50.858734 -4.680027 33,450 86 507 1344
2018-04-22 05:03:34 GMT 50.858047 -4.695839 33,350 86 506 1216
2018-04-22 05:03:31 GMT 50.857681 -4.705043 33,275 86 505 1216
2018-04-22 05:03:27 GMT 50.857109 -4.718094 33,225 86 505 1216
2018-04-22 05:03:24 GMT 50.856628 -4.728946 33,175 86 504 1088
2018-04-22 05:03:21 GMT 50.856037 -4.742737 33,100 86 503 896
2018-04-22 05:03:18 GMT 50.855438 -4.756412 33,025 85 500 0
2018-04-22 05:03:13 GMT 50.854874 -4.769440 33,025 85 501 320
2018-04-22 05:03:10 GMT 50.854431 -4.780166 33,025 85 501 320
2018-04-22 05:03:07 GMT 50.853836 -4.793676 33,000 85 501 0
2018-04-22 05:03:04 GMT 50.853432 -4.802628 33,000 85 501 -64
2018-04-22 05:03:01 GMT 50.852875 -4.814987 33,025 85 501 0
2018-04-22 05:02:58 GMT 50.852325 -4.827972 33,025 85 500 0
2018-04-22 05:02:55 GMT 50.851868 -4.837770 33,025 85 500 0
2018-04-22 05:02:52 GMT 50.851524 -4.846344 33,025 85 500 0
2018-04-22 05:02:49 GMT 50.850861 -4.860337 33,025 85 500 0
2018-04-22 05:02:46 GMT 50.850452 -4.869614 33,025 85 499 0
2018-04-22 05:02:42 GMT 50.849716 -4.886169 33,000 85 499 0
2018-04-22 05:02:38 GMT 50.849056 -4.901276 33,025 85 499 0
2018-04-22 05:02:35 GMT 50.848663 -4.910518 33,025 85 499 0
2018-04-22 05:02:32 GMT 50.848312 -4.917984 33,000 85 499 0
2018-04-22 05:02:28 GMT 50.847565 -4.934692 33,000 85 499 0
2018-04-22 05:02:25 GMT 50.846916 -4.948120 33,000 85 499 0
2018-04-22 05:02:22 GMT 50.846558 -4.955873 33,000 85 498 64
2018-04-22 05:02:19 GMT 50.846123 -4.965134 33,000 85 498 0
2018-04-22 05:02:16 GMT 50.845333 -4.982147 33,000 85 498 0
2018-04-22 05:02:13 GMT 50.844959 -4.990158 33,000 85 498 0
2018-04-22 05:02:10 GMT 50.844448 -5.001068 33,000 85 498 0
2018-04-22 05:02:07 GMT 50.843857 -5.013551 33,000 85 498 0
2018-04-22 05:02:04 GMT 50.843472 -5.022430 33,000 85 498 0
2018-04-22 05:02:00 GMT 50.842621 -5.040720 33,000 85 497 0
2018-04-22 05:01:57 GMT 50.842258 -5.047760 33,000 85 497 0
2018-04-22 05:01:54 GMT 50.841747 -5.058975 33,000 85 496 -64
2018-04-22 05:01:50 GMT 50.841064 -5.073679 33,000 85 497 0
2018-04-22 05:01:46 GMT 50.840424 -5.087783 33,000 85 497 0
2018-04-22 05:01:42 GMT 50.839840 -5.100250 33,000 85 497 0
2018-04-22 05:01:38 GMT 50.839096 -5.116288 33,000 85 497 0
2018-04-22 05:01:35 GMT 50.838535 -5.127716 33,025 85 496 -64
2018-04-22 05:01:32 GMT 50.838070 -5.137405 33,000 85 497 -64
2018-04-22 05:01:29 GMT 50.837559 -5.148315 33,025 85 496 -64
2018-04-22 05:01:26 GMT 50.836998 -5.160599 33,025 85 496 -64
2018-04-22 05:01:23 GMT 50.836578 -5.169439 33,025 85 496 0
2018-04-22 05:01:20 GMT 50.835892 -5.184211 33,025 85 496 0
2018-04-22 05:01:17 GMT 50.835556 -5.191650 33,025 85 496 0
2018-04-22 05:01:14 GMT 50.835068 -5.201878 33,000 85 496 64
2018-04-22 05:01:11 GMT 50.834610 -5.212419 33,025 85 496 64
2018-04-22 05:01:07 GMT 50.833694 -5.230828 33,000 85 497 64
2018-04-22 05:01:04 GMT 50.833420 -5.236990 33,000 85 497 64
2018-04-22 05:01:00 GMT 50.832504 -5.255399 33,000 85 497 64
2018-04-22 05:00:57 GMT 50.832092 -5.264381 33,000 85 497 0
2018-04-22 05:00:54 GMT 50.831459 -5.276566 33,000 85 497 0
2018-04-22 05:00:51 GMT 50.831135 -5.283432 33,000 85 497 0
2018-04-22 05:00:48 GMT 50.830444 -5.296969 33,000 85 497 0
2018-04-22 05:00:45 GMT 50.829758 -5.310999 33,000 85 497 0
2018-04-22 05:00:40 GMT 50.829178 -5.323181 33,000 85 497 64
2018-04-22 05:00:37 GMT 50.828339 -5.340118 33,000 85 497 64
2018-04-22 05:00:34 GMT 50.827827 -5.350571 33,000 85 497 0
2018-04-22 05:00:31 GMT 50.827515 -5.357320 33,000 85 497 0
2018-04-22 05:00:28 GMT 50.826828 -5.371053 33,000 85 497 0
2018-04-22 05:00:24 GMT 50.826279 -5.382262 33,000 85 497 0
2018-04-22 05:00:20 GMT 50.825546 -5.397263 33,000 85 498 0
2018-04-22 05:00:17 GMT 50.824997 -5.408317 33,000 85 498 0
2018-04-22 05:00:14 GMT 50.824429 -5.420074 33,000 85 498 0
2018-04-22 05:00:10 GMT 50.823761 -5.433259 33,000 85 498 0
2018-04-22 05:00:07 GMT 50.823032 -5.448303 33,000 85 498 0
2018-04-22 05:00:04 GMT 50.822617 -5.456493 33,000 85 498 0
2018-04-22 05:00:01 GMT 50.822010 -5.468979 33,000 85 498 64
2018-04-22 04:59:58 GMT 50.821590 -5.477676 33,000 85 498 64
2018-04-22 04:59:55 GMT 50.820938 -5.490341 33,000 85 499 64
2018-04-22 04:59:51 GMT 50.820374 -5.501404 33,000 85 499 64
2018-04-22 04:59:47 GMT 50.819550 -5.517364 33,000 85 499 0
2018-04-22 04:59:43 GMT 50.818844 -5.530624 33,000 85 500 -64
2018-04-22 04:59:40 GMT 50.818333 -5.541153 33,000 85 500 0
2018-04-22 04:59:36 GMT 50.817581 -5.555519 33,000 85 500 0
2018-04-22 04:59:33 GMT 50.816849 -5.570068 33,000 85 500 0
2018-04-22 04:59:30 GMT 50.816467 -5.577164 33,000 85 500 0
2018-04-22 04:59:26 GMT 50.815536 -5.595703 33,000 85 500 0
2018-04-22 04:59:23 GMT 50.815071 -5.605164 33,000 85 500 0
2018-04-22 04:59:19 GMT 50.814423 -5.617725 33,000 85 501 0
2018-04-22 04:59:16 GMT 50.813770 -5.630646 33,000 85 501 0
2018-04-22 04:59:13 GMT 50.813095 -5.643558 33,000 85 501 0
2018-04-22 04:59:10 GMT 50.812511 -5.655060 33,000 85 501 0
2018-04-22 04:59:06 GMT 50.811722 -5.670319 33,000 85 501 0
2018-04-22 04:59:02 GMT 50.811081 -5.681862 33,000 85 502 0
2018-04-22 04:58:58 GMT 50.810326 -5.696259 33,000 85 502 0
2018-04-22 04:58:54 GMT 50.809582 -5.711212 33,000 85 502 0
2018-04-22 04:58:51 GMT 50.809067 -5.721054 33,000 85 503 0
2018-04-22 04:58:45 GMT 50.807831 -5.744291 33,000 85 503 0
2018-04-22 04:58:42 GMT 50.807346 -5.753250 33,000 85 503 0
2018-04-22 04:58:39 GMT 50.806824 -5.763294 33,000 85 503 0
2018-04-22 04:58:36 GMT 50.806183 -5.775691 33,000 85 504 0
2018-04-22 04:58:33 GMT 50.805622 -5.786133 33,000 85 504 0
2018-04-22 04:58:30 GMT 50.805065 -5.796814 33,000 85 504 0
2018-04-22 04:58:25 GMT 50.803940 -5.817483 33,000 85 508 -64
2018-04-22 04:58:21 GMT 50.803154 -5.832748 33,000 85 505 0
2018-04-22 04:58:17 GMT 50.802410 -5.845947 33,000 85 506 0
2018-04-22 04:58:12 GMT 50.801422 -5.864918 33,000 85 506 0
2018-04-22 04:58:09 GMT 50.800827 -5.876275 33,000 85 506 -64
2018-04-22 04:58:06 GMT 50.800369 -5.884366 33,000 85 506 0
2018-04-22 04:58:03 GMT 50.799683 -5.897580 33,000 85 507 0
2018-04-22 04:58:00 GMT 50.799107 -5.908813 33,000 85 507 0
2018-04-22 04:57:55 GMT 50.798126 -5.926679 33,000 85 507 0
2018-04-22 04:57:52 GMT 50.797668 -5.935586 33,000 85 508 0
2018-04-22 04:57:49 GMT 50.796963 -5.948639 33,000 85 508 0
2018-04-22 04:57:44 GMT 50.796032 -5.967102 33,000 85 508 -64
2018-04-22 04:57:41 GMT 50.795242 -5.981522 33,000 85 508 0
2018-04-22 04:57:36 GMT 50.794403 -5.996628 33,000 84 510 64
2018-04-22 04:57:29 GMT 50.792217 -6.036987 33,000 84 510 0
2018-04-22 04:57:22 GMT 50.791580 -6.047899 33,000 84 510 0
2018-04-22 04:57:18 GMT 50.790939 -6.059405 33,000 84 510 64
2018-04-22 04:57:12 GMT 50.789429 -6.086055 32,975 84 511 64
2018-04-22 04:57:09 GMT 50.788834 -6.097189 33,000 84 511 0
2018-04-22 04:57:02 GMT 50.787373 -6.123428 33,000 84 511 -64
2018-04-22 04:56:58 GMT 50.786629 -6.136017 33,000 84 511 -64
2018-04-22 04:56:53 GMT 50.785606 -6.154633 33,000 85 512 -64
2018-04-22 04:56:50 GMT 50.784908 -6.167603 33,000 84 512 -64
2018-04-22 04:56:44 GMT 50.783752 -6.188643 33,025 85 512 0
2018-04-22 04:56:40 GMT 50.782719 -6.207428 33,000 84 512 -64
2018-04-22 04:56:32 GMT 50.781136 -6.235352 33,025 84 514 -64
2018-04-22 04:56:29 GMT 50.780624 -6.244659 33,025 84 514 0
2018-04-22 04:56:25 GMT 50.779835 -6.258850 33,025 84 514 0
2018-04-22 04:56:22 GMT 50.778946 -6.273936 33,025 84 514 64
2018-04-22 04:56:19 GMT 50.778484 -6.281967 33,025 84 515 64
2018-04-22 04:56:14 GMT 50.777321 -6.301346 33,000 84 515 0
2018-04-22 04:56:11 GMT 50.776669 -6.312180 33,000 84 515 0
2018-04-22 04:56:08 GMT 50.776016 -6.323776 33,000 84 515 0
2018-04-22 04:56:01 GMT 50.774460 -6.350469 33,000 84 516 0
2018-04-22 04:55:58 GMT 50.773872 -6.360779 33,000 84 519 -64
2018-04-22 04:55:54 GMT 50.772995 -6.376302 33,000 84 516 0
2018-04-22 04:55:51 GMT 50.772339 -6.387711 33,000 84 516 0
2018-04-22 04:55:47 GMT 50.771622 -6.399833 33,000 84 516 0
2018-04-22 04:55:41 GMT 50.770065 -6.426037 33,025 84 516 0
2018-04-22 04:55:36 GMT 50.769173 -6.441193 33,000 84 517 0
2018-04-22 04:55:31 GMT 50.767822 -6.463153 33,000 84 517 0
2018-04-22 04:55:28 GMT 50.767265 -6.472702 33,000 84 517 0
2018-04-22 04:55:25 GMT 50.766678 -6.482231 33,000 84 517 0
2018-04-22 04:55:21 GMT 50.765495 -6.502686 33,000 84 517 0
2018-04-22 04:55:17 GMT 50.764847 -6.513705 33,000 84 519 0
2018-04-22 04:55:10 GMT 50.763199 -6.542284 33,025 84 518 0
2018-04-22 04:55:07 GMT 50.762703 -6.550369 33,000 84 519 -64
2018-04-22 04:55:03 GMT 50.761688 -6.567003 33,000 84 519 -64
2018-04-22 04:55:00 GMT 50.761047 -6.578287 33,000 84 518 64
2018-04-22 04:54:57 GMT 50.760372 -6.589737 33,000 84 519 -64
2018-04-22 04:54:54 GMT 50.759674 -6.601224 33,000 84 519 0
2018-04-22 04:54:50 GMT 50.758804 -6.615922 33,000 84 519 64
2018-04-22 04:54:46 GMT 50.757935 -6.630546 33,000 84 519 0
2018-04-22 04:54:43 GMT 50.757023 -6.646194 33,000 84 519 -64
2018-04-22 04:54:40 GMT 50.756561 -6.653929 33,000 84 519 -64
2018-04-22 04:54:36 GMT 50.755646 -6.669295 33,000 84 519 0
2018-04-22 04:54:29 GMT 50.754227 -6.693420 33,000 84 519 -64
2018-04-22 04:54:26 GMT 50.753437 -6.706390 33,025 84 520 0
2018-04-22 04:54:19 GMT 50.751755 -6.733357 33,025 84 520 0
2018-04-22 04:54:16 GMT 50.751202 -6.742249 33,000 84 520 0
2018-04-22 04:54:12 GMT 50.750134 -6.759567 33,000 84 520 0
2018-04-22 04:54:09 GMT 50.749557 -6.768766 33,000 84 520 64
2018-04-22 04:54:06 GMT 50.748875 -6.779938 33,025 84 521 -64
2018-04-22 04:54:03 GMT 50.748131 -6.792374 33,025 84 521 -64
2018-04-22 04:53:59 GMT 50.747200 -6.807480 33,025 84 521 -64
2018-04-22 04:53:55 GMT 50.746223 -6.823349 33,025 84 521 -64
2018-04-22 04:53:49 GMT 50.744732 -6.847153 33,025 84 521 0
2018-04-22 04:53:45 GMT 50.743988 -6.858826 33,025 84 521 0
2018-04-22 04:53:39 GMT 50.742313 -6.884918 33,025 84 521 64
2018-04-22 04:53:35 GMT 50.741455 -6.897929 33,000 84 521 64
2018-04-22 04:53:29 GMT 50.739944 -6.922500 33,000 84 521 0
2018-04-22 04:53:25 GMT 50.739052 -6.937027 33,000 84 521 0
2018-04-22 04:53:18 GMT 50.737473 -6.962140 33,000 84 521 0
2018-04-22 04:53:15 GMT 50.736649 -6.974982 33,000 84 521 0
2018-04-22 04:53:08 GMT 50.735096 -6.999359 33,000 84 521 0
2018-04-22 04:53:05 GMT 50.734257 -7.012177 33,000 84 521 0
2018-04-22 04:52:58 GMT 50.732620 -7.038079 33,000 84 521 0
2018-04-22 04:52:55 GMT 50.731792 -7.051163 33,000 84 521 -64
2018-04-22 04:52:48 GMT 50.730240 -7.076235 33,025 84 521 -64
2018-04-22 04:52:45 GMT 50.729370 -7.089615 33,025 84 521 0
2018-04-22 04:52:38 GMT 50.727787 -7.114944 33,025 84 521 0
2018-04-22 04:52:34 GMT 50.726898 -7.128717 33,025 84 521 0
2018-04-22 04:52:28 GMT 50.725388 -7.151728 33,025 83 521 0
2018-04-22 04:52:24 GMT 50.724342 -7.167435 33,000 83 521 0
2018-04-22 04:52:18 GMT 50.722778 -7.190997 33,000 84 521 0
2018-04-22 04:52:13 GMT 50.721725 -7.206883 33,000 84 521 0
2018-04-22 04:52:07 GMT 50.720341 -7.228928 33,000 84 521 0
2018-04-22 04:52:03 GMT 50.719223 -7.246323 33,025 84 521 -64
2018-04-22 04:51:57 GMT 50.717789 -7.267976 33,025 84 520 0
2018-04-22 04:51:53 GMT 50.716873 -7.282674 33,025 84 520 0
2018-04-22 04:51:47 GMT 50.715359 -7.305832 33,025 84 520 0
2018-04-22 04:51:43 GMT 50.714333 -7.321320 33,025 83 520 0
2018-04-22 04:51:36 GMT 50.712566 -7.347260 33,000 83 520 64
2018-04-22 04:51:32 GMT 50.711636 -7.360840 33,000 83 520 64
2018-04-22 04:51:27 GMT 50.710236 -7.382278 33,000 83 519 -64
2018-04-22 04:51:22 GMT 50.709122 -7.398529 33,000 83 520 0
2018-04-22 04:51:17 GMT 50.707718 -7.419706 33,000 83 519 -64
2018-04-22 04:51:12 GMT 50.706436 -7.438561 33,000 83 519 0
2018-04-22 04:51:06 GMT 50.705070 -7.459030 33,000 83 519 0
2018-04-22 04:51:02 GMT 50.703907 -7.475967 33,025 83 519 0
2018-04-22 04:50:56 GMT 50.702408 -7.498317 33,025 83 518 0
2018-04-22 04:50:52 GMT 50.701355 -7.513683 33,025 84 518 0
2018-04-22 04:50:47 GMT 50.699982 -7.534691 33,000 84 518 -64
2018-04-22 04:50:41 GMT 50.698700 -7.553472 33,025 84 518 0
2018-04-22 04:50:36 GMT 50.697418 -7.572921 33,025 83 519 -64
2018-04-22 04:50:32 GMT 50.696224 -7.590408 33,025 83 519 0
2018-04-22 04:50:25 GMT 50.694580 -7.613822 33,025 83 519 0
2018-04-22 04:50:21 GMT 50.693481 -7.628446 33,000 83 518 64
2018-04-22 04:50:15 GMT 50.691788 -7.651978 33,000 83 519 64
2018-04-22 04:50:11 GMT 50.690643 -7.668160 33,000 83 518 64
2018-04-22 04:50:06 GMT 50.689289 -7.687454 33,000 83 518 0
2018-04-22 04:50:01 GMT 50.688034 -7.705573 33,000 83 518 0
2018-04-22 04:49:55 GMT 50.686588 -7.726364 33,000 83 518 0
2018-04-22 04:49:50 GMT 50.685150 -7.746772 33,000 83 518 0
2018-04-22 04:49:46 GMT 50.683887 -7.764511 33,000 83 518 0
2018-04-22 04:49:40 GMT 50.682587 -7.783442 33,000 83 518 0
2018-04-22 04:49:35 GMT 50.681351 -7.801035 33,000 83 518 0
2018-04-22 04:49:28 GMT 50.679428 -7.828650 33,000 83 517 -64
2018-04-22 04:49:25 GMT 50.678650 -7.840304 33,025 83 517 0
2018-04-22 04:49:20 GMT 50.677418 -7.858047 33,000 83 517 0
2018-04-22 04:49:15 GMT 50.676067 -7.877808 33,000 83 517 0
2018-04-22 04:49:08 GMT 50.674438 -7.900620 33,025 83 517 0
2018-04-22 04:49:05 GMT 50.673412 -7.915497 33,000 83 517 0
2018-04-22 04:49:00 GMT 50.672016 -7.934570 33,025 83 517 0
2018-04-22 04:48:55 GMT 50.670715 -7.952468 33,025 83 516 0
2018-04-22 04:48:49 GMT 50.669270 -7.972585 33,025 83 516 0
2018-04-22 04:48:45 GMT 50.667892 -7.992192 33,000 83 516 64
2018-04-22 04:48:38 GMT 50.666245 -8.014749 33,000 83 516 0
2018-04-22 04:48:34 GMT 50.665127 -8.029670 33,000 83 516 -64
2018-04-22 04:48:31 GMT 50.664276 -8.041053 33,000 83 516 -64
2018-04-22 04:48:28 GMT 50.663544 -8.050738 33,000 83 516 64
2018-04-22 04:48:24 GMT 50.662216 -8.068663 33,000 83 516 -64
2018-04-22 04:48:19 GMT 50.660660 -8.089479 33,000 83 516 -64
2018-04-22 04:48:13 GMT 50.659309 -8.107984 33,000 83 516 -64
2018-04-22 04:48:08 GMT 50.658005 -8.125618 33,000 83 516 -64
2018-04-22 04:48:03 GMT 50.656677 -8.143905 33,000 83 516 -64
2018-04-22 04:47:58 GMT 50.655121 -8.164920 33,000 83 516 0
2018-04-22 04:47:53 GMT 50.653816 -8.182810 33,000 83 516 0
2018-04-22 04:47:47 GMT 50.652279 -8.203298 33,000 83 516 0
2018-04-22 04:47:43 GMT 50.651047 -8.220231 33,000 83 516 0
2018-04-22 04:47:37 GMT 50.649353 -8.243288 33,000 83 516 0
2018-04-22 04:47:33 GMT 50.648254 -8.258177 33,000 83 516 0
2018-04-22 04:47:27 GMT 50.646832 -8.277753 33,000 83 516 0
2018-04-22 04:47:22 GMT 50.645508 -8.295834 33,000 83 516 0
2018-04-22 04:47:17 GMT 50.643948 -8.316799 33,000 83 516 0
2018-04-22 04:47:13 GMT 50.642689 -8.334318 33,000 83 516 0
2018-04-22 04:47:07 GMT 50.641201 -8.354434 33,000 83 516 0
2018-04-22 04:47:02 GMT 50.639851 -8.373067 33,000 83 516 0
2018-04-22 04:46:57 GMT 50.638454 -8.391699 33,000 83 516 0
2018-04-22 04:46:52 GMT 50.637150 -8.408846 33,000 83 516 0
2018-04-22 04:46:46 GMT 50.635429 -8.430819 33,000 83 516 -64
2018-04-22 04:46:41 GMT 50.634029 -8.449080 33,025 83 516 -64
2018-04-22 04:46:36 GMT 50.632401 -8.470385 33,025 83 516 -64
2018-04-22 04:46:31 GMT 50.631180 -8.486577 33,025 83 517 0
2018-04-22 04:46:25 GMT 50.629375 -8.509876 33,025 83 517 64
2018-04-22 04:46:21 GMT 50.628342 -8.523078 33,025 82 517 64
2018-04-22 04:46:16 GMT 50.626602 -8.545123 33,025 83 517 0
2018-04-22 04:46:11 GMT 50.625324 -8.561690 33,000 83 517 0
2018-04-22 04:46:05 GMT 50.623672 -8.582780 33,000 83 517 64
2018-04-22 04:46:01 GMT 50.622299 -8.600271 33,000 83 517 64
2018-04-22 04:45:55 GMT 50.620605 -8.622316 33,000 83 517 0
2018-04-22 04:45:50 GMT 50.619278 -8.639085 33,000 83 517 0
2018-04-22 04:45:45 GMT 50.617691 -8.659379 33,025 83 517 -64
2018-04-22 04:45:40 GMT 50.616257 -8.677465 33,025 82 517 0
2018-04-22 04:45:34 GMT 50.614571 -8.698574 33,025 82 517 64
2018-04-22 04:45:30 GMT 50.613373 -8.714037 33,025 82 517 0
2018-04-22 04:45:23 GMT 50.611267 -8.740663 33,000 82 517 64
2018-04-22 04:45:20 GMT 50.610352 -8.752345 33,000 83 517 0
2018-04-22 04:45:14 GMT 50.608658 -8.774390 33,000 83 517 0
2018-04-22 04:45:10 GMT 50.607330 -8.791159 33,025 83 517 -64
2018-04-22 04:45:04 GMT 50.605633 -8.812965 33,025 82 516 0
2018-04-22 04:44:59 GMT 50.604332 -8.829370 33,025 82 517 0
2018-04-22 04:44:54 GMT 50.602661 -8.849993 33,000 82 516 0
2018-04-22 04:44:49 GMT 50.601353 -8.866561 33,025 82 517 0
2018-04-22 04:44:44 GMT 50.599686 -8.887217 33,025 82 517 64
2018-04-22 04:44:39 GMT 50.598221 -8.905865 33,000 82 517 0
2018-04-22 04:44:33 GMT 50.596603 -8.925798 33,000 82 516 0
2018-04-22 04:44:29 GMT 50.595253 -8.942871 33,000 82 516 -64
2018-04-22 04:44:22 GMT 50.593346 -8.966700 33,025 82 516 -64
2018-04-22 04:44:18 GMT 50.592087 -8.982552 33,025 82 516 0
2018-04-22 04:44:12 GMT 50.590118 -9.007054 33,000 82 515 64
2018-04-22 04:44:09 GMT 50.589249 -9.017623 33,025 82 516 0
2018-04-22 04:44:02 GMT 50.587097 -9.043844 33,025 82 516 0
2018-04-22 04:43:58 GMT 50.585850 -9.059193 33,025 82 515 64
2018-04-22 04:43:51 GMT 50.583988 -9.081833 33,000 82 515 64
2018-04-22 04:43:48 GMT 50.582962 -9.094082 33,000 82 515 128
2018-04-22 04:43:41 GMT 50.580917 -9.118725 33,000 82 515 0
2018-04-22 04:43:38 GMT 50.579681 -9.133542 33,000 82 515 0
2018-04-22 04:43:31 GMT 50.577702 -9.157030 33,000 82 515 -64
2018-04-22 04:43:28 GMT 50.576614 -9.170187 33,000 82 514 -64
2018-04-22 04:43:21 GMT 50.574722 -9.193330 33,000 82 514 -64
2018-04-22 04:43:17 GMT 50.573513 -9.208102 33,000 82 514 0
2018-04-22 04:43:12 GMT 50.571651 -9.230965 33,000 82 513 0
2018-04-22 04:43:08 GMT 50.570488 -9.244698 33,025 82 513 0
2018-04-22 04:43:01 GMT 50.568626 -9.267562 33,025 82 513 -64
2018-04-22 04:42:57 GMT 50.567276 -9.283744 33,000 82 513 64
2018-04-22 04:42:50 GMT 50.565319 -9.307350 33,000 82 512 64
2018-04-22 04:42:47 GMT 50.564247 -9.320266 33,000 82 512 64
2018-04-22 04:42:40 GMT 50.562248 -9.343798 33,000 82 512 0
2018-04-22 04:42:36 GMT 50.560959 -9.359123 33,000 82 512 0
2018-04-22 04:42:27 GMT 50.557640 -9.399026 33,025 82 511 -64
2018-04-22 04:42:20 GMT 50.555923 -9.419403 33,025 82 511 0
2018-04-22 04:42:16 GMT 50.554688 -9.434437 33,000 82 511 64
2018-04-22 04:42:10 GMT 50.552795 -9.456705 33,000 82 510 64
2018-04-22 04:42:06 GMT 50.551483 -9.471588 33,000 82 510 0
2018-04-22 04:41:58 GMT 50.548885 -9.501838 33,000 82 510 0
2018-04-22 04:41:55 GMT 50.548187 -9.509751 33,000 82 510 0
2018-04-22 04:41:49 GMT 50.546219 -9.532447 33,025 82 510 -128
2018-04-22 04:41:46 GMT 50.544983 -9.547119 33,025 82 509 -128
2018-04-22 04:41:38 GMT 50.542507 -9.576218 33,025 82 509 64
2018-04-22 04:41:35 GMT 50.541916 -9.583331 33,025 82 509 64
2018-04-22 04:41:29 GMT 50.539902 -9.605837 33,000 82 509 64
2018-04-22 04:41:25 GMT 50.538528 -9.621711 33,000 82 509 64
2018-04-22 04:41:17 GMT 50.535965 -9.650983 33,025 82 509 -64
2018-04-22 04:41:14 GMT 50.535187 -9.659729 33,025 82 508 -64
2018-04-22 04:41:07 GMT 50.532688 -9.688828 33,025 82 508 0
2018-04-22 04:41:04 GMT 50.531849 -9.698255 33,025 82 508 0
2018-04-22 04:40:58 GMT 50.530151 -9.717841 33,025 82 507 0
2018-04-22 04:40:55 GMT 50.528683 -9.734406 33,025 82 507 0
2018-04-22 04:40:48 GMT 50.526672 -9.757522 33,025 82 507 0
2018-04-22 04:40:44 GMT 50.525528 -9.770315 33,025 82 507 0
2018-04-22 04:40:38 GMT 50.523605 -9.792505 33,025 82 507 0
2018-04-22 04:40:34 GMT 50.522213 -9.807970 33,025 82 507 0
2018-04-22 04:40:27 GMT 50.519897 -9.834065 33,025 82 507 0
2018-04-22 04:40:24 GMT 50.518906 -9.845160 33,000 82 507 0
2018-04-22 04:40:16 GMT 50.516441 -9.873146 33,025 82 506 0
2018-04-22 04:40:13 GMT 50.515602 -9.882944 33,025 82 506 0
2018-04-22 04:40:06 GMT 50.513229 -9.909891 33,000 82 506 0
2018-04-22 04:40:03 GMT 50.512390 -9.919318 33,000 82 506 0
2018-04-22 04:39:57 GMT 50.510376 -9.941687 33,025 81 506 -64
2018-04-22 04:39:53 GMT 50.509048 -9.956577 33,025 82 506 0
2018-04-22 04:39:46 GMT 50.506485 -9.985271 33,000 82 506 0
2018-04-22 04:39:42 GMT 50.505524 -9.996185 33,025 82 505 0
2018-04-22 04:39:36 GMT 50.503693 -10.016857 33,025 81 506 64
2018-04-22 04:39:33 GMT 50.502502 -10.029939 33,000 81 506 0
2018-04-22 04:39:25 GMT 50.499912 -10.058800 33,025 81 506 0
2018-04-22 04:39:22 GMT 50.499077 -10.067856 33,025 81 506 0
2018-04-22 04:39:15 GMT 50.496517 -10.096139 33,025 81 505 0
2018-04-22 04:39:12 GMT 50.495770 -10.104081 33,025 81 505 -64
2018-04-22 04:39:05 GMT 50.493210 -10.131621 33,025 81 505 -64
2018-04-22 04:39:02 GMT 50.492203 -10.142621 33,025 81 505 64
2018-04-22 04:38:55 GMT 50.490143 -10.164739 33,000 81 504 64
2018-04-22 04:38:52 GMT 50.488880 -10.178239 33,000 81 504 64
2018-04-22 04:38:45 GMT 50.486229 -10.206447 33,000 81 504 64
2018-04-22 04:38:41 GMT 50.485336 -10.216056 33,000 81 504 64
2018-04-22 04:38:35 GMT 50.483204 -10.239703 33,000 81 504 -64
2018-04-22 04:38:32 GMT 50.481853 -10.254178 33,000 81 504 -64
2018-04-22 04:38:24 GMT 50.479568 -10.279228 33,025 81 503 -64
2018-04-22 04:38:21 GMT 50.478546 -10.290255 33,025 81 503 -64
2018-04-22 04:38:14 GMT 50.476364 -10.313849 33,025 81 503 0
2018-04-22 04:38:11 GMT 50.475220 -10.326064 33,000 81 503 64
2018-04-22 04:38:01 GMT 50.471832 -10.362854 33,000 81 503 0
2018-04-22 04:37:50 GMT 50.468304 -10.400861 33,000 81 503 -64
2018-04-22 04:37:40 GMT 50.464828 -10.437735 33,000 81 503 -64
2018-04-22 04:37:34 GMT 50.462765 -10.459949 33,025 81 503 0
2018-04-22 04:37:30 GMT 50.461578 -10.472717 33,025 81 503 0
2018-04-22 04:37:23 GMT 50.459198 -10.497870 33,025 81 503 64
2018-04-22 04:37:20 GMT 50.458054 -10.510519 33,025 81 503 64
2018-04-22 04:37:10 GMT 50.454666 -10.546441 33,000 81 503 64
2018-04-22 04:36:59 GMT 50.451126 -10.584065 33,000 81 503 64
2018-04-22 04:36:52 GMT 50.448807 -10.608673 33,000 81 502 -64
2018-04-22 04:36:49 GMT 50.447754 -10.619804 33,000 81 502 0
2018-04-22 04:36:42 GMT 50.445190 -10.646402 33,000 81 502 -64
2018-04-22 04:36:39 GMT 50.444099 -10.657778 33,000 81 501 0
2018-04-22 04:36:32 GMT 50.441677 -10.682497 33,000 81 501 0
2018-04-22 04:36:29 GMT 50.440659 -10.692733 33,000 81 501 0
2018-04-22 04:36:18 GMT 50.437042 -10.730390 33,000 81 501 0
2018-04-22 04:36:08 GMT 50.433609 -10.766240 33,000 81 501 0
2018-04-22 04:35:58 GMT 50.430038 -10.803174 33,000 81 501 0
2018-04-22 04:35:51 GMT 50.427666 -10.827769 33,000 81 501 0
2018-04-22 04:35:48 GMT 50.426468 -10.840109 33,000 81 501 0
2018-04-22 04:35:41 GMT 50.423943 -10.865404 33,000 81 501 -64
2018-04-22 04:35:38 GMT 50.422806 -10.876682 33,000 81 502 0
2018-04-22 04:35:27 GMT 50.418915 -10.915784 33,000 81 502 0
2018-04-22 04:35:18 GMT 50.415527 -10.950623 33,000 81 502 0
2018-04-22 04:35:07 GMT 50.411976 -10.986328 33,000 81 503 0
2018-04-22 04:34:57 GMT 50.408298 -11.023741 33,000 81 503 0
2018-04-22 04:34:46 GMT 50.404530 -11.062267 33,000 81 504 0
2018-04-22 04:34:36 GMT 50.401062 -11.097348 33,000 81 505 0
2018-04-22 04:34:27 GMT 50.397263 -11.135222 33,000 81 505 0
2018-04-22 04:34:16 GMT 50.393646 -11.171289 33,000 81 505 0
2018-04-22 04:34:06 GMT 50.390003 -11.207836 33,000 81 505 0
2018-04-22 04:33:56 GMT 50.386372 -11.243913 33,000 80 505 0
2018-04-22 04:33:46 GMT 50.382507 -11.281771 33,000 80 505 0
2018-04-22 04:33:35 GMT 50.378784 -11.318145 33,000 80 505 0
2018-04-22 04:33:25 GMT 50.375061 -11.354009 33,000 81 506 0
2018-04-22 04:33:15 GMT 50.371384 -11.390595 33,000 81 506 0
2018-04-22 04:33:04 GMT 50.367554 -11.428745 33,000 80 506 0
2018-04-22 04:32:55 GMT 50.363655 -11.466386 33,000 80 506 -64
2018-04-22 04:32:44 GMT 50.359932 -11.502463 33,000 80 506 0
2018-04-22 04:32:34 GMT 50.356022 -11.539653 33,025 80 506 0
2018-04-22 04:32:24 GMT 50.352173 -11.575904 33,025 80 506 -64
2018-04-22 04:32:13 GMT 50.348282 -11.613416 33,025 80 506 0
2018-04-22 04:32:03 GMT 50.344570 -11.648922 33,025 80 506 64
2018-04-22 04:31:53 GMT 50.340454 -11.687357 33,000 80 506 0
2018-04-22 04:31:43 GMT 50.336796 -11.722561 33,025 80 507 0
2018-04-22 04:31:32 GMT 50.332886 -11.760493 33,000 80 507 0
2018-04-22 04:31:22 GMT 50.329113 -11.795902 33,025 80 507 -64
2018-04-22 04:31:12 GMT 50.325111 -11.833463 33,025 80 507 0
2018-04-22 04:31:02 GMT 50.321156 -11.870653 33,025 80 507 -64
2018-04-22 04:30:51 GMT 50.317104 -11.908586 33,025 80 507 128
2018-04-22 04:30:41 GMT 50.313099 -11.945702 33,000 80 507 64
2018-04-22 04:30:32 GMT 50.309235 -11.981036 33,000 80 507 -64
2018-04-22 04:30:21 GMT 50.305206 -12.018031 33,000 80 507 0
2018-04-22 04:30:10 GMT 50.300903 -12.057421 33,000 80 507 0
2018-04-22 04:30:00 GMT 50.297134 -12.092384 33,000 80 507 0
2018-04-22 04:29:51 GMT 50.293259 -12.128183 33,000 80 506 0
2018-04-22 04:29:40 GMT 50.289139 -12.165985 33,000 80 506 0
2018-04-22 04:29:30 GMT 50.285168 -12.202099 33,025 80 505 -64
2018-04-22 04:29:20 GMT 50.281128 -12.238553 33,025 80 505 0
2018-04-22 04:29:10 GMT 50.277008 -12.276210 33,000 80 505 0
2018-04-22 04:28:59 GMT 50.272972 -12.312556 33,025 80 504 0
2018-04-22 04:28:49 GMT 50.268829 -12.349821 33,025 80 504 0
We lost coverage of the aircraft here for a total of 225 minutes
2018-04-22 00:43:56 GMT 43.736526 -61.275131 33,025 71 497 0
2018-04-22 00:43:16 GMT 43.707230 -61.397926 33,000 71 496 0
2018-04-22 00:43:07 GMT 43.700073 -61.427830 33,025 71 496 -64
2018-04-22 00:42:41 GMT 43.681454 -61.506241 33,000 71 495 64
2018-04-22 00:42:32 GMT 43.676006 -61.528996 33,000 71 494 0
2018-04-22 00:42:25 GMT 43.670235 -61.552933 33,000 71 494 0
2018-04-22 00:42:13 GMT 43.662277 -61.585972 33,025 71 494 0
2018-04-22 00:42:02 GMT 43.653664 -61.621662 33,000 71 493 0
2018-04-22 00:41:52 GMT 43.647263 -61.648693 33,000 71 493 64
2018-04-22 00:41:29 GMT 43.630554 -61.717167 33,000 71 492 0
2018-04-22 00:41:20 GMT 43.623779 -61.745079 33,000 71 491 0
2018-04-22 00:41:01 GMT 43.609818 -61.802376 33,000 71 491 0
2018-04-22 00:40:50 GMT 43.602219 -61.833481 33,000 71 491 -64
2018-04-22 00:40:39 GMT 43.594025 -61.867271 33,000 71 491 -64
2018-04-22 00:40:29 GMT 43.587067 -61.896015 33,000 71 491 0
2018-04-22 00:40:08 GMT 43.571918 -61.958248 33,000 71 490 0
2018-04-22 00:39:57 GMT 43.564453 -61.988567 33,000 71 491 0
2018-04-22 00:39:46 GMT 43.556461 -62.020897 33,000 71 490 0
2018-04-22 00:39:37 GMT 43.549255 -62.050335 33,025 71 491 0
2018-04-22 00:39:15 GMT 43.533875 -62.112675 33,000 71 491 0
2018-04-22 00:39:04 GMT 43.524811 -62.149593 33,025 71 491 0
2018-04-22 00:38:54 GMT 43.518196 -62.176338 33,025 71 491 0
2018-04-22 00:38:45 GMT 43.510563 -62.207008 33,000 71 491 0
2018-04-22 00:38:30 GMT 43.500740 -62.246574 33,000 71 491 -64
2018-04-22 00:38:23 GMT 43.495197 -62.268742 33,025 71 491 -64
2018-04-22 00:38:08 GMT 43.484711 -62.310814 33,025 71 491 0
2018-04-22 00:38:03 GMT 43.480350 -62.328381 33,025 71 492 0
2018-04-22 00:37:52 GMT 43.472534 -62.360123 33,000 71 492 0
2018-04-22 00:37:39 GMT 43.462646 -62.400043 33,025 71 492 0
2018-04-22 00:37:30 GMT 43.456512 -62.424572 33,025 71 492 0
2018-04-22 00:37:21 GMT 43.449345 -62.453354 33,025 71 491 0
2018-04-22 00:37:09 GMT 43.441383 -62.485264 33,000 71 491 64
2018-04-22 00:37:00 GMT 43.434036 -62.514633 33,000 71 491 0
2018-04-22 00:36:49 GMT 43.426163 -62.545868 33,000 70 492 -64
2018-04-22 00:36:34 GMT 43.415680 -62.587452 33,000 70 492 0
2018-04-22 00:36:28 GMT 43.410519 -62.607944 33,000 70 492 64
2018-04-22 00:36:18 GMT 43.403046 -62.637592 33,000 70 492 0
2018-04-22 00:36:07 GMT 43.395126 -62.668827 33,000 70 492 0
2018-04-22 00:35:56 GMT 43.387070 -62.700634 33,000 70 492 0
2018-04-22 00:35:47 GMT 43.379421 -62.730824 33,000 71 492 0
2018-04-22 00:35:36 GMT 43.371651 -62.761818 33,000 70 492 0
2018-04-22 00:35:25 GMT 43.363770 -62.792934 33,025 70 492 0
2018-04-22 00:35:15 GMT 43.355915 -62.823357 33,000 70 493 64
2018-04-22 00:35:04 GMT 43.347610 -62.855911 33,000 70 492 0
2018-04-22 00:34:53 GMT 43.339828 -62.886574 33,000 70 493 0
2018-04-22 00:34:42 GMT 43.332001 -62.917297 33,000 70 493 64
2018-04-22 00:34:32 GMT 43.324173 -62.947956 33,000 70 493 0
2018-04-22 00:34:22 GMT 43.316254 -62.979256 33,000 70 494 64
2018-04-22 00:34:11 GMT 43.308384 -63.010124 33,000 70 494 0
2018-04-22 00:34:01 GMT 43.300323 -63.041595 33,000 70 494 0
2018-04-22 00:33:50 GMT 43.292744 -63.071007 33,000 70 494 64
2018-04-22 00:33:41 GMT 43.284317 -63.103832 33,000 70 495 -64
2018-04-22 00:33:30 GMT 43.276775 -63.133457 33,000 70 495 0
2018-04-22 00:33:20 GMT 43.268829 -63.164680 33,000 70 495 0
2018-04-22 00:33:09 GMT 43.261135 -63.194469 33,000 70 497 -64
2018-04-22 00:32:59 GMT 43.252991 -63.225998 33,025 70 497 0
2018-04-22 00:32:48 GMT 43.244888 -63.257423 33,000 70 497 64
2018-04-22 00:32:38 GMT 43.236832 -63.288342 33,000 70 498 0
2018-04-22 00:32:27 GMT 43.228775 -63.319191 33,000 70 499 0
2018-04-22 00:32:17 GMT 43.220627 -63.350426 33,000 70 500 -64
2018-04-22 00:32:06 GMT 43.212627 -63.381241 33,000 70 500 0
2018-04-22 00:31:55 GMT 43.204285 -63.413277 33,000 70 501 0
2018-04-22 00:31:44 GMT 43.195267 -63.447960 33,000 70 502 0
2018-04-22 00:31:33 GMT 43.187073 -63.479004 33,000 70 503 0
2018-04-22 00:31:23 GMT 43.178970 -63.509537 33,000 70 504 0
2018-04-22 00:31:13 GMT 43.171383 -63.538448 33,000 70 505 0
2018-04-22 00:31:03 GMT 43.163235 -63.569706 33,000 70 505 0
2018-04-22 00:30:52 GMT 43.154800 -63.601768 33,000 70 507 -64
2018-04-22 00:30:42 GMT 43.146523 -63.633270 33,025 70 507 -64
2018-04-22 00:30:31 GMT 43.137772 -63.666603 33,025 70 508 0
2018-04-22 00:30:20 GMT 43.129486 -63.698208 33,000 70 509 0
2018-04-22 00:30:10 GMT 43.121479 -63.728485 33,000 70 510 0
2018-04-22 00:30:00 GMT 43.113239 -63.759678 33,025 70 510 -64
2018-04-22 00:29:50 GMT 43.104717 -63.791786 33,025 70 511 -64
2018-04-22 00:29:39 GMT 43.096199 -63.824223 33,025 70 510 0
2018-04-22 00:29:28 GMT 43.087921 -63.855606 33,000 70 510 64
2018-04-22 00:29:19 GMT 43.079628 -63.886871 33,000 70 509 -64
2018-04-22 00:29:08 GMT 43.071304 -63.918201 33,025 70 509 0
2018-04-22 00:28:58 GMT 43.062962 -63.949455 33,000 70 509 0
2018-04-22 00:28:47 GMT 43.054302 -63.982021 33,025 69 509 0
2018-04-22 00:28:37 GMT 43.046017 -64.013084 33,025 69 508 0
2018-04-22 00:28:26 GMT 43.037567 -64.044540 33,000 69 508 0
2018-04-22 00:28:16 GMT 43.029007 -64.076355 33,025 69 507 0
2018-04-22 00:28:05 GMT 43.020447 -64.108162 33,000 70 506 0
2018-04-22 00:27:55 GMT 43.012081 -64.139557 33,025 69 506 0
2018-04-22 00:27:43 GMT 43.003418 -64.171394 33,025 69 505 -64
2018-04-22 00:27:34 GMT 42.994854 -64.202927 33,025 69 504 0
2018-04-22 00:27:23 GMT 42.986664 -64.233543 33,025 69 504 64
2018-04-22 00:27:12 GMT 42.977554 -64.267525 33,000 69 503 0
2018-04-22 00:27:01 GMT 42.969624 -64.296829 33,000 69 503 0
2018-04-22 00:26:51 GMT 42.960827 -64.329597 33,000 69 503 0
2018-04-22 00:26:44 GMT 42.955936 -64.347710 33,000 69 501 -64
2018-04-22 00:26:41 GMT 42.952835 -64.359123 33,025 69 501 -64
2018-04-22 00:26:30 GMT 42.944019 -64.391853 33,025 69 501 0
2018-04-22 00:26:20 GMT 42.936127 -64.421021 33,025 69 501 0
2018-04-22 00:26:14 GMT 42.930588 -64.441391 33,025 69 500 0
2018-04-22 00:26:10 GMT 42.927727 -64.451820 33,025 69 500 0
2018-04-22 00:26:03 GMT 42.922577 -64.470901 33,025 69 499 0
2018-04-22 00:25:58 GMT 42.919022 -64.483994 33,000 69 499 0
2018-04-22 00:25:49 GMT 42.910950 -64.513573 33,000 69 498 0
2018-04-22 00:25:41 GMT 42.905476 -64.533432 33,000 69 498 0
2018-04-22 00:25:38 GMT 42.902496 -64.544289 33,000 69 497 0
2018-04-22 00:25:31 GMT 42.897354 -64.562881 33,000 69 497 0
2018-04-22 00:25:28 GMT 42.893875 -64.575531 33,000 69 497 0
2018-04-22 00:25:21 GMT 42.888996 -64.593269 33,000 69 497 0
2018-04-22 00:25:16 GMT 42.885406 -64.606316 33,000 69 497 64
2018-04-22 00:25:11 GMT 42.880188 -64.625351 33,000 69 498 0
2018-04-22 00:25:06 GMT 42.876938 -64.637215 33,000 69 498 0
2018-04-22 00:25:00 GMT 42.871994 -64.655243 33,000 69 498 0
2018-04-22 00:24:56 GMT 42.868931 -64.666573 33,000 69 498 0
2018-04-22 00:24:50 GMT 42.863571 -64.686096 33,000 69 497 -64
2018-04-22 00:24:46 GMT 42.860458 -64.697525 33,025 69 497 -64
2018-04-22 00:24:38 GMT 42.854370 -64.719757 33,025 69 497 0
2018-04-22 00:24:34 GMT 42.851257 -64.730873 33,025 69 497 0
2018-04-22 00:24:29 GMT 42.846497 -64.747795 33,000 69 497 0
2018-04-22 00:24:25 GMT 42.843235 -64.759628 33,025 69 497 0
2018-04-22 00:24:17 GMT 42.837662 -64.779671 33,025 69 497 0
2018-04-22 00:24:14 GMT 42.834686 -64.790527 33,025 69 497 0
2018-04-22 00:24:04 GMT 42.826035 -64.822083 33,025 69 497 64
2018-04-22 00:23:52 GMT 42.817566 -64.852867 33,000 69 497 64
2018-04-22 00:23:43 GMT 42.809509 -64.882126 33,000 69 497 0
2018-04-22 00:23:31 GMT 42.800629 -64.914032 33,000 69 497 0
2018-04-22 00:23:21 GMT 42.791977 -64.944992 33,000 69 498 0
2018-04-22 00:23:11 GMT 42.784012 -64.973640 33,000 69 497 0
2018-04-22 00:23:00 GMT 42.775269 -65.005234 33,000 69 498 0
2018-04-22 00:22:49 GMT 42.765820 -65.039001 33,000 69 498 0
2018-04-22 00:22:39 GMT 42.758278 -65.065887 33,000 69 498 0
2018-04-22 00:22:30 GMT 42.749405 -65.097923 33,000 69 498 0
2018-04-22 00:22:21 GMT 42.743240 -65.120377 33,000 69 498 0
2018-04-22 00:22:17 GMT 42.740307 -65.130913 33,000 69 499 0
2018-04-22 00:22:10 GMT 42.734482 -65.151863 33,000 69 499 0
2018-04-22 00:22:03 GMT 42.728065 -65.174797 33,000 69 499 0
2018-04-22 00:21:57 GMT 42.723595 -65.190575 33,000 69 498 0
2018-04-22 00:21:48 GMT 42.715401 -65.219826 33,025 69 498 0
2018-04-22 00:21:37 GMT 42.706879 -65.250427 33,000 69 498 0
2018-04-22 00:21:26 GMT 42.697632 -65.283447 33,025 69 498 -64
2018-04-22 00:21:18 GMT 42.692081 -65.303116 33,025 69 497 -64
2018-04-22 00:21:15 GMT 42.689381 -65.312759 33,025 69 497 0
2018-04-22 00:21:02 GMT 42.678772 -65.350174 33,025 68 497 64
2018-04-22 00:20:57 GMT 42.674469 -65.365280 33,000 68 497 0
2018-04-22 00:20:53 GMT 42.671364 -65.376190 33,000 68 497 0
2018-04-22 00:20:41 GMT 42.661285 -65.411476 33,000 69 497 64
2018-04-22 00:20:33 GMT 42.654648 -65.435066 33,000 69 497 0
2018-04-22 00:20:22 GMT 42.645760 -65.466637 33,000 69 496 -64
2018-04-22 00:20:12 GMT 42.636963 -65.497742 33,000 69 496 0
2018-04-22 00:20:00 GMT 42.627502 -65.530952 33,000 68 497 64
2018-04-22 00:19:52 GMT 42.619785 -65.558167 33,000 69 496 -64
2018-04-22 00:19:41 GMT 42.611481 -65.587318 33,000 69 496 0
2018-04-22 00:19:31 GMT 42.602325 -65.619423 33,000 68 497 64
2018-04-22 00:19:20 GMT 42.594086 -65.648308 33,000 68 498 0
2018-04-22 00:19:10 GMT 42.584793 -65.680885 33,000 68 498 0
2018-04-22 00:18:58 GMT 42.576096 -65.711479 33,000 68 498 0
2018-04-22 00:18:48 GMT 42.566994 -65.743340 33,000 68 499 0
2018-04-22 00:18:37 GMT 42.558430 -65.772972 33,000 68 498 0
2018-04-22 00:18:28 GMT 42.550140 -65.801781 33,000 68 498 0
2018-04-22 00:18:19 GMT 42.543858 -65.823624 33,000 68 500 0
2018-04-22 00:18:16 GMT 42.541031 -65.833389 33,000 68 499 -64
2018-04-22 00:18:06 GMT 42.531876 -65.865097 33,025 68 499 -64
2018-04-22 00:17:55 GMT 42.523361 -65.894875 33,000 68 500 64
2018-04-22 00:17:45 GMT 42.514622 -65.925377 33,000 68 500 0
2018-04-22 00:17:35 GMT 42.505966 -65.955299 33,000 68 501 0
2018-04-22 00:17:24 GMT 42.497177 -65.985634 33,000 68 502 0
2018-04-22 00:17:14 GMT 42.488342 -66.016281 33,000 68 502 0
2018-04-22 00:17:06 GMT 42.482025 -66.038254 33,000 68 502 0
2018-04-22 00:17:02 GMT 42.478958 -66.048744 33,000 68 502 0
2018-04-22 00:16:53 GMT 42.470352 -66.078270 33,000 68 503 64
2018-04-22 00:16:42 GMT 42.461506 -66.108505 33,000 68 502 -64
2018-04-22 00:16:34 GMT 42.455017 -66.130829 33,025 68 504 0
2018-04-22 00:16:31 GMT 42.452454 -66.139633 33,025 68 503 -64
2018-04-22 00:16:21 GMT 42.443573 -66.170403 33,025 68 504 0
2018-04-22 00:16:11 GMT 42.434143 -66.202927 33,025 68 504 0
2018-04-22 00:16:03 GMT 42.428558 -66.221962 33,025 68 505 0
2018-04-22 00:16:00 GMT 42.425629 -66.231956 33,025 68 505 0
2018-04-22 00:15:50 GMT 42.416210 -66.264359 33,025 68 506 0
2018-04-22 00:15:42 GMT 42.410347 -66.284348 33,000 68 506 0
2018-04-22 00:15:39 GMT 42.407639 -66.293564 33,025 68 506 0
2018-04-22 00:15:29 GMT 42.398335 -66.325165 33,000 68 507 0
2018-04-22 00:15:22 GMT 42.392258 -66.345940 33,000 68 507 0
2018-04-22 00:15:17 GMT 42.388916 -66.357422 33,000 68 507 0
2018-04-22 00:15:08 GMT 42.380180 -66.387314 33,000 68 508 0
2018-04-22 00:15:00 GMT 42.373943 -66.408585 33,000 68 508 0
2018-04-22 00:14:56 GMT 42.370731 -66.419510 33,000 68 509 0
2018-04-22 00:14:50 GMT 42.365204 -66.438255 33,000 68 509 -64
2018-04-22 00:14:47 GMT 42.362411 -66.447685 33,025 68 509 -64
2018-04-22 00:14:38 GMT 42.354855 -66.473610 33,025 68 510 0
2018-04-22 00:14:35 GMT 42.352856 -66.480377 33,025 68 510 0
2018-04-22 00:14:27 GMT 42.345451 -66.505547 33,000 68 511 64
2018-04-22 00:14:19 GMT 42.337830 -66.531456 33,000 68 511 0
2018-04-22 00:14:07 GMT 42.328217 -66.564041 33,025 68 511 0
2018-04-22 00:14:01 GMT 42.322266 -66.584206 33,000 68 511 0
2018-04-22 00:13:58 GMT 42.319012 -66.594971 33,000 68 511 0
2018-04-22 00:13:46 GMT 42.309608 -66.626648 33,025 68 512 -64
2018-04-22 00:13:35 GMT 42.299103 -66.662041 33,025 68 511 0
2018-04-22 00:13:26 GMT 42.291779 -66.686752 33,000 68 511 64
2018-04-22 00:13:13 GMT 42.281021 -66.722656 33,000 67 511 0
2018-04-22 00:13:05 GMT 42.272552 -66.750504 33,000 67 511 -64
2018-04-22 00:12:53 GMT 42.262756 -66.782333 33,025 67 511 0
2018-04-22 00:12:43 GMT 42.253555 -66.812355 33,000 67 511 0
2018-04-22 00:12:32 GMT 42.244125 -66.843254 33,000 67 511 0
2018-04-22 00:12:20 GMT 42.233353 -66.878761 33,000 67 512 64
2018-04-22 00:12:12 GMT 42.225037 -66.905991 33,000 67 512 -64
2018-04-22 00:11:59 GMT 42.214409 -66.941292 33,000 68 512 0
2018-04-22 00:11:49 GMT 42.205902 -66.970596 33,000 69 514 64
2018-04-22 00:11:40 GMT 42.197891 -66.999687 33,000 69 514 64
2018-04-22 00:11:28 GMT 42.188553 -67.033646 33,000 69 515 0
2018-04-22 00:11:19 GMT 42.179855 -67.065163 33,000 69 515 0
2018-04-22 00:11:10 GMT 42.172325 -67.092354 33,000 69 516 -64
2018-04-22 00:11:07 GMT 42.169739 -67.101868 33,000 69 516 -64
2018-04-22 00:10:57 GMT 42.162315 -67.128761 33,000 69 515 0
2018-04-22 00:10:47 GMT 42.153168 -67.161674 33,000 69 516 0
2018-04-22 00:10:35 GMT 42.143833 -67.195190 33,000 69 516 -64
2018-04-22 00:10:26 GMT 42.135818 -67.224220 33,000 69 516 0
2018-04-22 00:10:13 GMT 42.125931 -67.259735 33,000 69 517 0
2018-04-22 00:10:05 GMT 42.118137 -67.287552 33,000 69 517 0
2018-04-22 00:09:53 GMT 42.109360 -67.318977 33,025 69 518 -64
2018-04-22 00:09:49 GMT 42.105476 -67.332970 33,025 69 518 -64
2018-04-22 00:09:43 GMT 42.100662 -67.350311 33,025 69 517 0
2018-04-22 00:09:40 GMT 42.098465 -67.358116 33,025 69 517 0
2018-04-22 00:09:32 GMT 42.091187 -67.384331 33,025 69 518 0
2018-04-22 00:09:25 GMT 42.085644 -67.404060 33,000 69 518 0
2018-04-22 00:09:21 GMT 42.082108 -67.416710 33,000 69 518 0
2018-04-22 00:09:16 GMT 42.078003 -67.431335 33,000 69 518 64
2018-04-22 00:09:11 GMT 42.073288 -67.448189 33,000 69 518 64
2018-04-22 00:09:06 GMT 42.069763 -67.460861 33,000 69 519 0
2018-04-22 00:09:00 GMT 42.064743 -67.478859 33,000 69 518 0
2018-04-22 00:08:56 GMT 42.060879 -67.492722 33,000 69 519 0
2018-04-22 00:08:47 GMT 42.053238 -67.520035 33,025 69 519 0
2018-04-22 00:08:39 GMT 42.046234 -67.545067 33,025 69 519 0
2018-04-22 00:08:28 GMT 42.037136 -67.577545 33,000 69 520 0
2018-04-22 00:08:19 GMT 42.029114 -67.606056 33,000 69 519 0
2018-04-22 00:08:07 GMT 42.019863 -67.638733 33,000 69 520 0
2018-04-22 00:07:57 GMT 42.010696 -67.671371 33,000 69 520 0
2018-04-22 00:07:47 GMT 42.001831 -67.702873 33,025 69 520 0
2018-04-22 00:07:42 GMT 41.998684 -67.713913 33,000 69 520 64
2018-04-22 00:07:36 GMT 41.992867 -67.734421 33,000 69 520 0
2018-04-22 00:07:33 GMT 41.990250 -67.743568 33,000 69 520 0
2018-04-22 00:07:26 GMT 41.983932 -67.765854 33,000 69 520 0
2018-04-22 00:07:23 GMT 41.982285 -67.771599 33,000 69 520 0
2018-04-22 00:07:13 GMT 41.973175 -67.803871 33,025 69 520 0
2018-04-22 00:07:05 GMT 41.966400 -67.827652 33,000 69 519 0
2018-04-22 00:07:02 GMT 41.964203 -67.835518 33,025 69 519 0
2018-04-22 00:06:55 GMT 41.957161 -67.860374 33,000 69 519 0
2018-04-22 00:06:52 GMT 41.955917 -67.864731 33,025 69 519 0
2018-04-22 00:06:42 GMT 41.947037 -67.896072 33,000 69 520 64
2018-04-22 00:06:32 GMT 41.938446 -67.926292 33,000 69 520 0
2018-04-22 00:06:21 GMT 41.929413 -67.958115 33,025 69 520 0
2018-04-22 00:06:11 GMT 41.920803 -67.988380 33,000 69 520 0
2018-04-22 00:06:01 GMT 41.911770 -68.019936 33,025 68 520 0
2018-04-22 00:05:50 GMT 41.902275 -68.053024 33,025 69 520 0
2018-04-22 00:05:40 GMT 41.893944 -68.082214 33,025 69 520 64
2018-04-22 00:05:29 GMT 41.884506 -68.115112 33,000 68 519 64
2018-04-22 00:05:20 GMT 41.875854 -68.145134 33,000 68 519 0
2018-04-22 00:05:09 GMT 41.866989 -68.175850 33,000 68 519 64
2018-04-22 00:04:59 GMT 41.857819 -68.207596 33,000 68 519 0
2018-04-22 00:04:48 GMT 41.848846 -68.238579 33,025 68 518 -128
2018-04-22 00:04:38 GMT 41.839691 -68.269981 33,025 68 517 0
2018-04-22 00:04:26 GMT 41.829792 -68.304176 33,025 68 517 0
2018-04-22 00:04:16 GMT 41.820808 -68.335213 33,025 68 518 -64
2018-04-22 00:04:06 GMT 41.812012 -68.365433 33,025 68 518 0
2018-04-22 00:03:56 GMT 41.803120 -68.395836 33,000 68 518 0
2018-04-22 00:03:44 GMT 41.793686 -68.428223 33,000 68 518 0
2018-04-22 00:03:35 GMT 41.784824 -68.458878 33,000 68 519 64
2018-04-22 00:03:26 GMT 41.777748 -68.483086 33,000 68 519 0
2018-04-22 00:03:23 GMT 41.775192 -68.491890 33,000 68 519 64
2018-04-22 00:03:14 GMT 41.766541 -68.521477 33,000 68 519 64
2018-04-22 00:03:08 GMT 41.761917 -68.537270 33,000 68 519 0
2018-04-22 00:03:05 GMT 41.759453 -68.545807 33,000 68 519 0
2018-04-22 00:03:01 GMT 41.755962 -68.557755 33,000 68 519 0
2018-04-22 00:02:55 GMT 41.750473 -68.576408 33,000 68 519 0
2018-04-22 00:02:52 GMT 41.748001 -68.584778 33,000 68 519 0
2018-04-22 00:02:45 GMT 41.741669 -68.606361 33,000 68 519 0
2018-04-22 00:02:42 GMT 41.738876 -68.615944 33,000 68 519 0
2018-04-22 00:02:34 GMT 41.731979 -68.639397 33,000 68 519 -64
2018-04-22 00:02:31 GMT 41.729691 -68.647133 33,000 68 519 0
2018-04-22 00:02:24 GMT 41.723557 -68.668045 33,000 68 519 0
2018-04-22 00:02:21 GMT 41.720490 -68.678474 33,000 68 519 0
2018-04-22 00:02:18 GMT 41.717880 -68.687393 33,000 68 519 0
2018-04-22 00:02:11 GMT 41.711411 -68.709328 33,000 68 519 -64
2018-04-22 00:02:03 GMT 41.705128 -68.730789 33,000 68 519 -64
2018-04-22 00:01:59 GMT 41.701496 -68.743370 33,025 68 518 -64
2018-04-22 00:01:53 GMT 41.696468 -68.760681 33,025 68 518 -64
2018-04-22 00:01:50 GMT 41.692841 -68.773041 33,025 68 517 0
2018-04-22 00:01:39 GMT 41.683292 -68.805588 33,025 68 518 0
2018-04-22 00:01:34 GMT 41.680126 -68.816315 33,025 68 518 -64
2018-04-22 00:01:29 GMT 41.674400 -68.835991 33,025 68 517 64
2018-04-22 00:01:19 GMT 41.665649 -68.865860 33,025 68 516 -64
2018-04-22 00:01:11 GMT 41.659653 -68.886024 33,000 68 516 0
2018-04-22 00:01:08 GMT 41.656616 -68.896225 33,000 68 516 0
2018-04-22 00:00:58 GMT 41.647522 -68.926598 33,025 68 516 64
2018-04-22 00:00:49 GMT 41.640335 -68.950821 33,000 68 516 64
2018-04-22 00:00:46 GMT 41.638088 -68.958374 33,000 68 514 0
2018-04-22 00:00:37 GMT 41.628845 -68.989517 33,000 68 515 0
2018-04-22 00:00:29 GMT 41.622482 -69.010803 33,000 68 514 0
2018-04-22 00:00:26 GMT 41.620010 -69.019051 33,000 68 514 0
2018-04-22 00:00:23 GMT 41.616817 -69.029785 33,000 68 514 0
2018-04-22 00:00:19 GMT 41.614197 -69.038460 33,000 68 514 0
2018-04-22 00:00:14 GMT 41.609741 -69.053352 33,000 68 513 0
2018-04-22 00:00:09 GMT 41.605366 -69.068047 33,025 68 513 -64
2018-04-22 00:00:05 GMT 41.601013 -69.082535 33,025 68 512 0
2018-04-21 23:59:59 GMT 41.596191 -69.098511 33,025 68 512 0
2018-04-21 23:59:54 GMT 41.592041 -69.112495 33,025 68 512 64
2018-04-21 23:59:49 GMT 41.587395 -69.128151 33,025 68 512 0
2018-04-21 23:59:44 GMT 41.582886 -69.143265 33,025 68 511 -64
2018-04-21 23:59:38 GMT 41.578079 -69.159370 33,025 68 511 0
2018-04-21 23:59:33 GMT 41.573868 -69.173355 33,025 68 510 64
2018-04-21 23:59:28 GMT 41.568970 -69.189713 33,025 68 509 0
2018-04-21 23:59:23 GMT 41.563934 -69.206314 33,025 68 510 0
2018-04-21 23:59:17 GMT 41.559929 -69.219551 33,000 68 509 0
2018-04-21 23:59:11 GMT 41.553818 -69.239838 33,000 68 510 0
2018-04-21 23:59:07 GMT 41.550705 -69.250320 33,025 68 509 0
2018-04-21 23:59:01 GMT 41.544846 -69.269859 33,025 68 510 -64
2018-04-21 23:58:57 GMT 41.541641 -69.280663 33,025 68 510 0
2018-04-21 23:58:51 GMT 41.536285 -69.298447 33,025 68 509 0
2018-04-21 23:58:46 GMT 41.532650 -69.310570 33,025 68 509 64
2018-04-21 23:58:41 GMT 41.527267 -69.328476 33,000 68 510 64
2018-04-21 23:58:35 GMT 41.523056 -69.342461 33,000 68 510 64
2018-04-21 23:58:30 GMT 41.518158 -69.358810 33,000 68 509 64
2018-04-21 23:58:26 GMT 41.514774 -69.369972 33,000 68 509 64
2018-04-21 23:58:20 GMT 41.508636 -69.390213 33,000 67 509 0
2018-04-21 23:58:15 GMT 41.505508 -69.400505 33,000 67 509 0
2018-04-21 23:58:09 GMT 41.498932 -69.422173 33,000 68 509 -64
2018-04-21 23:58:05 GMT 41.496246 -69.431038 33,000 68 509 -64
2018-04-21 23:57:59 GMT 41.491013 -69.448387 33,000 68 509 -64
2018-04-21 23:57:55 GMT 41.487167 -69.460999 33,025 68 509 -64
2018-04-21 23:57:48 GMT 41.480438 -69.483284 33,025 68 509 0
2018-04-21 23:57:44 GMT 41.477829 -69.491959 33,025 68 509 0
2018-04-21 23:57:37 GMT 41.472015 -69.511185 33,025 68 508 0
2018-04-21 23:57:34 GMT 41.468948 -69.521362 33,000 67 509 0
2018-04-21 23:57:28 GMT 41.462822 -69.541473 33,000 67 509 0
2018-04-21 23:57:22 GMT 41.458862 -69.554573 33,000 67 508 0
2018-04-21 23:57:16 GMT 41.453522 -69.572105 33,000 68 508 64
2018-04-21 23:57:07 GMT 41.444572 -69.601517 33,000 68 508 0
2018-04-21 23:57:03 GMT 41.441986 -69.610062 33,000 68 508 0
2018-04-21 23:56:55 GMT 41.434563 -69.634605 33,025 68 508 -64
2018-04-21 23:56:51 GMT 41.431072 -69.646233 33,025 67 509 -64
2018-04-21 23:56:45 GMT 41.425369 -69.664932 33,025 67 508 0
2018-04-21 23:56:41 GMT 41.422878 -69.673187 33,025 67 508 -64
2018-04-21 23:56:34 GMT 41.416550 -69.693756 33,025 67 508 -64
2018-04-21 23:56:31 GMT 41.413849 -69.702698 33,025 67 509 0
2018-04-21 23:56:24 GMT 41.407330 -69.724159 33,000 68 508 64
2018-04-21 23:56:21 GMT 41.404633 -69.732971 33,000 68 508 64
2018-04-21 23:56:14 GMT 41.398224 -69.754196 33,000 67 509 0
2018-04-21 23:56:11 GMT 41.395599 -69.762733 33,000 67 509 0
2018-04-21 23:56:03 GMT 41.388611 -69.785782 33,000 66 507 0
2018-04-21 23:55:59 GMT 41.385033 -69.797516 33,000 68 509 0
2018-04-21 23:55:53 GMT 41.378815 -69.817993 33,025 68 509 -64
2018-04-21 23:55:50 GMT 41.377213 -69.823357 33,025 68 509 0
2018-04-21 23:55:42 GMT 41.370117 -69.846741 33,025 67 509 0
2018-04-21 23:55:39 GMT 41.367828 -69.854309 33,025 67 508 0
2018-04-21 23:55:32 GMT 41.360641 -69.877380 33,025 67 508 64
2018-04-21 23:55:29 GMT 41.358776 -69.883286 33,000 67 507 64
2018-04-21 23:55:21 GMT 41.350582 -69.909126 33,000 66 507 0
2018-04-21 23:55:18 GMT 41.348419 -69.915833 33,000 66 508 0
2018-04-21 23:55:13 GMT 41.344070 -69.929321 33,000 66 507 0
2018-04-21 23:55:08 GMT 41.339828 -69.942337 33,000 66 508 0
2018-04-21 23:55:01 GMT 41.332802 -69.964058 33,000 67 508 64
2018-04-21 23:54:58 GMT 41.330109 -69.972534 33,000 67 508 64
2018-04-21 23:54:53 GMT 41.324524 -69.990112 33,000 67 508 64
2018-04-21 23:54:47 GMT 41.320187 -70.003761 33,000 66 508 0
2018-04-21 23:54:37 GMT 41.310036 -70.035347 33,000 66 509 0
2018-04-21 23:54:30 GMT 41.303192 -70.056702 33,000 66 508 64
2018-04-21 23:54:27 GMT 41.301376 -70.062309 33,000 66 509 0
2018-04-21 23:54:21 GMT 41.295979 -70.078979 33,000 66 508 -64
2018-04-21 23:54:16 GMT 41.291603 -70.092400 33,000 66 508 0
2018-04-21 23:54:10 GMT 41.286156 -70.109001 33,000 66 508 0
2018-04-21 23:54:06 GMT 41.281906 -70.122009 33,000 66 509 0
2018-04-21 23:54:02 GMT 41.277786 -70.134644 33,000 66 509 0
2018-04-21 23:53:59 GMT 41.275864 -70.140686 33,000 66 509 0
2018-04-21 23:53:56 GMT 41.272560 -70.150887 33,000 66 509 0
2018-04-21 23:53:53 GMT 41.269398 -70.160629 33,000 66 509 0
2018-04-21 23:53:49 GMT 41.266090 -70.170990 33,000 66 509 -64
2018-04-21 23:53:45 GMT 41.262863 -70.180908 33,000 66 509 -64
2018-04-21 23:53:40 GMT 41.257385 -70.197952 33,000 66 509 0
2018-04-21 23:53:35 GMT 41.253296 -70.210449 33,000 66 509 -64
2018-04-21 23:53:28 GMT 41.246910 -70.230103 33,000 66 509 0
2018-04-21 23:53:24 GMT 41.243317 -70.241150 33,000 66 509 -64
2018-04-21 23:53:19 GMT 41.237507 -70.259064 33,000 66 509 -64
2018-04-21 23:53:16 GMT 41.235214 -70.266113 33,000 66 510 0
2018-04-21 23:53:13 GMT 41.232479 -70.274544 33,000 66 510 0
2018-04-21 23:53:09 GMT 41.228989 -70.285339 33,000 66 509 0
2018-04-21 23:53:06 GMT 41.225033 -70.297516 33,000 66 509 -64
2018-04-21 23:53:02 GMT 41.222168 -70.306274 33,000 66 509 -64
2018-04-21 23:52:56 GMT 41.216419 -70.323921 33,000 66 510 0
2018-04-21 23:52:53 GMT 41.214020 -70.331238 33,000 66 511 0
2018-04-21 23:52:49 GMT 41.209110 -70.346336 33,000 66 511 0
2018-04-21 23:52:43 GMT 41.204224 -70.361252 33,000 66 511 0
2018-04-21 23:52:40 GMT 41.202393 -70.366882 33,000 66 511 0
2018-04-21 23:52:37 GMT 41.198311 -70.379356 33,000 66 511 0
2018-04-21 23:52:34 GMT 41.195343 -70.388428 33,000 66 512 0
2018-04-21 23:52:31 GMT 41.193558 -70.393860 33,000 66 511 0
2018-04-21 23:52:26 GMT 41.188583 -70.409004 33,025 66 512 0
2018-04-21 23:52:21 GMT 41.184254 -70.422241 33,025 66 512 0
2018-04-21 23:52:18 GMT 41.180420 -70.433899 33,025 66 512 64
2018-04-21 23:52:12 GMT 41.174973 -70.450562 33,000 66 513 64
2018-04-21 23:52:09 GMT 41.172474 -70.458191 33,000 66 513 64
2018-04-21 23:52:05 GMT 41.169205 -70.468140 33,000 66 513 64
2018-04-21 23:52:00 GMT 41.164124 -70.483704 33,000 66 513 -64
2018-04-21 23:51:56 GMT 41.160419 -70.495087 33,000 66 513 -64
2018-04-21 23:51:49 GMT 41.153732 -70.515442 33,025 66 513 -64
2018-04-21 23:51:41 GMT 41.146221 -70.538345 33,025 66 513 0
2018-04-21 23:51:38 GMT 41.142914 -70.548454 33,025 66 513 0
2018-04-21 23:51:34 GMT 41.139610 -70.558502 33,025 66 513 0
2018-04-21 23:51:29 GMT 41.134506 -70.573975 33,000 66 514 0
2018-04-21 23:51:21 GMT 41.126129 -70.599365 33,000 66 514 0
2018-04-21 23:51:18 GMT 41.124069 -70.605713 33,000 66 514 0
2018-04-21 23:51:10 GMT 41.116562 -70.628540 33,025 66 515 -64
2018-04-21 23:51:07 GMT 41.114193 -70.635597 33,025 66 515 0
2018-04-21 23:50:57 GMT 41.104275 -70.665688 33,025 66 515 -64
2018-04-21 23:50:52 GMT 41.099899 -70.678917 33,025 66 515 0
2018-04-21 23:50:47 GMT 41.093994 -70.696655 33,025 66 515 64
2018-04-21 23:50:39 GMT 41.086990 -70.717773 33,000 66 516 64
2018-04-21 23:50:36 GMT 41.083923 -70.726990 33,000 66 516 64
2018-04-21 23:50:29 GMT 41.076462 -70.749573 33,000 66 517 0
2018-04-21 23:50:26 GMT 41.073944 -70.757141 33,000 66 517 0
2018-04-21 23:50:20 GMT 41.068710 -70.772926 33,000 66 517 0
2018-04-21 23:50:17 GMT 41.065613 -70.782349 33,000 66 518 0
2018-04-21 23:50:14 GMT 41.063690 -70.788147 33,000 66 518 0
2018-04-21 23:50:08 GMT 41.056232 -70.810631 33,000 66 518 0
2018-04-21 23:50:03 GMT 41.052696 -70.821365 33,000 66 518 0
2018-04-21 23:49:59 GMT 41.048645 -70.833542 33,000 66 519 0
2018-04-21 23:49:54 GMT 41.042641 -70.851830 33,000 66 519 0
2018-04-21 23:49:49 GMT 41.038311 -70.864937 33,000 66 519 0
2018-04-21 23:49:46 GMT 41.035538 -70.873230 33,000 66 519 0
2018-04-21 23:49:43 GMT 41.033066 -70.880737 33,000 66 519 0
2018-04-21 23:49:38 GMT 41.028255 -70.895149 33,000 66 519 0
2018-04-21 23:49:35 GMT 41.025883 -70.902390 33,000 66 519 0
2018-04-21 23:49:32 GMT 41.022858 -70.911446 33,000 66 520 0
2018-04-21 23:49:26 GMT 41.016678 -70.930237 33,000 66 520 0
2018-04-21 23:49:22 GMT 41.012474 -70.942902 33,000 66 521 64
2018-04-21 23:49:15 GMT 41.006050 -70.962440 33,000 66 521 64
2018-04-21 23:49:11 GMT 41.001892 -70.975159 33,000 66 523 -128
2018-04-21 23:49:05 GMT 40.997345 -70.989098 33,000 66 522 -64
2018-04-21 23:49:01 GMT 40.992050 -71.005371 33,000 66 523 -128
2018-04-21 23:48:55 GMT 40.987335 -71.019714 33,000 66 523 -128
2018-04-21 23:48:52 GMT 40.984680 -71.027954 33,000 66 524 -64
2018-04-21 23:48:48 GMT 40.981155 -71.038818 33,000 66 524 -64
2018-04-21 23:48:44 GMT 40.975891 -71.054993 33,000 66 524 64
2018-04-21 23:48:41 GMT 40.973831 -71.061462 33,000 66 524 64
2018-04-21 23:48:37 GMT 40.969894 -71.073547 33,000 66 525 64
2018-04-21 23:48:34 GMT 40.967644 -71.080482 33,000 66 525 64
2018-04-21 23:48:29 GMT 40.961781 -71.098457 33,000 66 526 64
2018-04-21 23:48:24 GMT 40.957535 -71.111633 33,000 66 527 -64
2018-04-21 23:48:21 GMT 40.954742 -71.120178 33,000 66 527 -64
2018-04-21 23:48:16 GMT 40.949818 -71.135414 33,000 66 528 -64
2018-04-21 23:48:12 GMT 40.946186 -71.146652 33,000 66 528 0
2018-04-21 23:48:08 GMT 40.941650 -71.160767 33,000 66 528 0
2018-04-21 23:48:03 GMT 40.937805 -71.172745 33,000 66 528 0
2018-04-21 23:48:00 GMT 40.934734 -71.182228 33,000 66 528 0
2018-04-21 23:47:55 GMT 40.929703 -71.197815 33,000 66 527 0
2018-04-21 23:47:52 GMT 40.927608 -71.204140 33,000 66 527 0
2018-04-21 23:47:49 GMT 40.924622 -71.213135 33,000 65 526 0
2018-04-21 23:47:46 GMT 40.921005 -71.223694 33,000 65 526 0
2018-04-21 23:47:42 GMT 40.917297 -71.234497 33,000 65 526 0
2018-04-21 23:47:39 GMT 40.913727 -71.244690 33,025 65 527 -64
2018-04-21 23:47:34 GMT 40.908737 -71.259338 33,025 66 529 0
2018-04-21 23:47:31 GMT 40.905357 -71.269562 33,025 66 529 0
2018-04-21 23:47:27 GMT 40.900982 -71.282852 33,025 67 530 0
2018-04-21 23:47:24 GMT 40.898144 -71.291847 33,000 67 532 0
2018-04-21 23:47:21 GMT 40.896652 -71.296654 33,000 68 534 64
2018-04-21 23:47:17 GMT 40.893021 -71.308388 33,000 68 533 64
2018-04-21 23:47:13 GMT 40.889099 -71.321533 33,000 69 535 0
2018-04-21 23:47:10 GMT 40.885479 -71.333855 33,000 69 536 0
2018-04-21 23:47:06 GMT 40.881866 -71.346558 33,000 70 538 0
2018-04-21 23:47:01 GMT 40.877937 -71.360886 33,000 70 538 0
2018-04-21 23:46:57 GMT 40.875046 -71.371521 33,000 70 540 0
2018-04-21 23:46:53 GMT 40.871796 -71.383972 33,000 71 540 0
2018-04-21 23:46:50 GMT 40.869282 -71.393776 33,025 71 542 0
2018-04-21 23:46:47 GMT 40.867046 -71.402580 33,025 71 542 0
2018-04-21 23:46:42 GMT 40.863228 -71.418373 33,025 72 545 0
2018-04-21 23:46:39 GMT 40.861313 -71.426453 33,025 76 553 0
2018-04-21 23:46:36 GMT 40.859039 -71.436478 33,025 73 547 0
2018-04-21 23:46:32 GMT 40.855408 -71.452576 33,025 74 549 64
2018-04-21 23:46:29 GMT 40.854401 -71.457397 33,000 74 549 64
2018-04-21 23:46:25 GMT 40.851776 -71.469810 33,000 74 549 64
2018-04-21 23:46:20 GMT 40.847729 -71.489906 33,000 75 552 0
2018-04-21 23:46:17 GMT 40.846161 -71.497864 33,000 75 553 0
2018-04-21 23:46:14 GMT 40.844654 -71.505577 33,000 76 553 0
2018-04-21 23:46:11 GMT 40.842003 -71.519997 33,000 76 555 0
2018-04-21 23:46:07 GMT 40.839626 -71.533478 33,000 77 556 0
2018-04-21 23:46:04 GMT 40.838745 -71.538635 33,000 78 557 -64
2018-04-21 23:46:00 GMT 40.836273 -71.554199 33,025 79 559 -64
2018-04-21 23:45:57 GMT 40.834740 -71.564377 33,025 79 560 0
2018-04-21 23:45:54 GMT 40.832794 -71.578003 33,025 79 560 0
2018-04-21 23:45:50 GMT 40.830830 -71.591911 33,025 79 560 0
2018-04-21 23:45:47 GMT 40.829803 -71.599274 33,025 79 560 0
2018-04-21 23:45:44 GMT 40.828583 -71.608215 33,025 79 560 0
2018-04-21 23:45:40 GMT 40.826965 -71.619751 33,025 79 560 -64
2018-04-21 23:45:37 GMT 40.825706 -71.628860 33,025 79 560 -64
2018-04-21 23:45:33 GMT 40.823730 -71.643127 33,025 79 560 -64
2018-04-21 23:45:30 GMT 40.822357 -71.653023 33,025 79 560 -64
2018-04-21 23:45:27 GMT 40.820724 -71.664383 33,025 79 560 0
2018-04-21 23:45:23 GMT 40.818832 -71.677979 33,025 79 560 0
2018-04-21 23:45:19 GMT 40.816956 -71.691223 33,025 79 560 0
2018-04-21 23:45:16 GMT 40.815536 -71.701416 33,025 79 560 64
2018-04-21 23:45:13 GMT 40.813660 -71.714905 33,025 79 560 64
2018-04-21 23:45:07 GMT 40.811371 -71.731483 33,000 79 560 0
2018-04-21 23:45:04 GMT 40.809788 -71.742905 33,025 79 560 0
2018-04-21 23:45:00 GMT 40.807617 -71.758484 33,025 79 560 -64
2018-04-21 23:44:55 GMT 40.805828 -71.771057 33,025 79 560 0
2018-04-21 23:44:52 GMT 40.804047 -71.783997 33,025 79 560 0
2018-04-21 23:44:49 GMT 40.802849 -71.792534 33,025 79 560 0
2018-04-21 23:44:46 GMT 40.801453 -71.802582 33,025 79 560 0
2018-04-21 23:44:43 GMT 40.800056 -71.812630 33,025 79 560 0
2018-04-21 23:44:39 GMT 40.797729 -71.829422 33,025 79 560 0
2018-04-21 23:44:34 GMT 40.796127 -71.840698 33,025 79 560 0
2018-04-21 23:44:30 GMT 40.794159 -71.854736 33,025 79 560 0
2018-04-21 23:44:27 GMT 40.792511 -71.866516 33,025 79 560 0
2018-04-21 23:44:24 GMT 40.791321 -71.875244 33,025 79 560 0
2018-04-21 23:44:21 GMT 40.789398 -71.888977 33,000 79 560 0
2018-04-21 23:44:17 GMT 40.787815 -71.900215 33,000 79 559 0
2018-04-21 23:44:14 GMT 40.786465 -71.909889 33,000 79 560 0
2018-04-21 23:44:09 GMT 40.784462 -71.924309 33,000 79 560 0
2018-04-21 23:44:06 GMT 40.782944 -71.935242 33,000 79 560 0
2018-04-21 23:44:03 GMT 40.781528 -71.945091 33,000 79 559 0
2018-04-21 23:44:00 GMT 40.780087 -71.955452 33,000 79 559 0
2018-04-21 23:43:57 GMT 40.778412 -71.967407 33,000 79 559 0
2018-04-21 23:43:54 GMT 40.777107 -71.976555 33,000 79 559 64
2018-04-21 23:43:51 GMT 40.775059 -71.991348 33,000 79 559 64
2018-04-21 23:43:47 GMT 40.773430 -72.003021 33,000 79 559 0
2018-04-21 23:43:43 GMT 40.771683 -72.015259 33,000 79 559 0
2018-04-21 23:43:38 GMT 40.769939 -72.027802 33,000 79 559 -64
2018-04-21 23:43:35 GMT 40.768169 -72.040161 33,000 79 558 0
2018-04-21 23:43:32 GMT 40.766785 -72.050049 33,025 79 559 -64
2018-04-21 23:43:29 GMT 40.765228 -72.061096 33,025 79 558 0
2018-04-21 23:43:26 GMT 40.763515 -72.073311 33,025 79 558 0
2018-04-21 23:43:23 GMT 40.762161 -72.083130 33,025 79 558 0
2018-04-21 23:43:20 GMT 40.761280 -72.089348 33,025 79 558 0
2018-04-21 23:43:17 GMT 40.760071 -72.098030 33,025 79 558 0
2018-04-21 23:43:14 GMT 40.758205 -72.111389 33,025 79 558 0
2018-04-21 23:43:11 GMT 40.756805 -72.121216 33,025 79 558 0
2018-04-21 23:43:07 GMT 40.755112 -72.133240 33,025 79 557 0
2018-04-21 23:43:04 GMT 40.753506 -72.144722 33,025 79 557 0
2018-04-21 23:43:01 GMT 40.751862 -72.156250 33,025 79 557 0
2018-04-21 23:42:57 GMT 40.749756 -72.171265 33,025 79 557 0
2018-04-21 23:42:52 GMT 40.747879 -72.184570 33,025 79 557 0
2018-04-21 23:42:49 GMT 40.746872 -72.191589 33,000 79 557 0
2018-04-21 23:42:46 GMT 40.745033 -72.204704 33,000 79 557 64
2018-04-21 23:42:43 GMT 40.743122 -72.218063 33,000 79 557 64
2018-04-21 23:42:40 GMT 40.741913 -72.226677 33,000 79 557 64
2018-04-21 23:42:36 GMT 40.739960 -72.240349 33,000 79 557 64
2018-04-21 23:42:30 GMT 40.737679 -72.256645 33,000 79 557 64
2018-04-21 23:42:27 GMT 40.736374 -72.266006 33,000 79 557 0
2018-04-21 23:42:24 GMT 40.734879 -72.276489 33,000 79 557 0
2018-04-21 23:42:19 GMT 40.732185 -72.295280 33,000 79 556 0
2018-04-21 23:42:14 GMT 40.729980 -72.310791 33,000 79 556 0
2018-04-21 23:42:11 GMT 40.728195 -72.323364 33,000 79 556 0
2018-04-21 23:42:08 GMT 40.727188 -72.330383 33,000 79 556 0
2018-04-21 23:42:04 GMT 40.725266 -72.343689 33,000 79 555 -64
2018-04-21 23:42:01 GMT 40.723984 -72.352661 33,000 79 555 -64
2018-04-21 23:41:58 GMT 40.722656 -72.361938 33,000 79 555 -64
2018-04-21 23:41:54 GMT 40.720547 -72.376366 33,000 79 554 -64
2018-04-21 23:41:51 GMT 40.719242 -72.385361 33,025 79 555 0
2018-04-21 23:41:47 GMT 40.717163 -72.399719 33,025 79 555 0
2018-04-21 23:41:44 GMT 40.715286 -72.412354 33,025 78 554 0
2018-04-21 23:41:41 GMT 40.714325 -72.418945 33,025 78 554 0
2018-04-21 23:41:37 GMT 40.712353 -72.432365 33,025 78 554 0
2018-04-21 23:41:34 GMT 40.710815 -72.442596 33,025 78 553 0
2018-04-21 23:41:31 GMT 40.708630 -72.456772 33,025 78 552 0
2018-04-21 23:41:27 GMT 40.707047 -72.467163 33,025 78 553 0
2018-04-21 23:41:21 GMT 40.704437 -72.484169 33,025 78 552 0
2018-04-21 23:41:16 GMT 40.701225 -72.504524 33,025 77 552 0
2018-04-21 23:41:13 GMT 40.699905 -72.512573 33,000 77 548 0
2018-04-21 23:41:10 GMT 40.698029 -72.523987 33,000 77 548 0
2018-04-21 23:41:07 GMT 40.696335 -72.533813 33,025 76 547 -64
2018-04-21 23:41:02 GMT 40.694057 -72.546593 33,025 75 545 -64
2018-04-21 23:40:59 GMT 40.691254 -72.561279 33,025 73 540 0
2018-04-21 23:40:56 GMT 40.689606 -72.569214 33,025 74 542 0
2018-04-21 23:40:50 GMT 40.685944 -72.586365 33,025 73 541 0
2018-04-21 23:40:47 GMT 40.684143 -72.594414 33,000 72 538 0
2018-04-21 23:40:44 GMT 40.682007 -72.603699 33,025 72 537 0
2018-04-21 23:40:38 GMT 40.676605 -72.625732 33,025 71 535 0
2018-04-21 23:40:35 GMT 40.674179 -72.635109 33,025 69 532 -64
2018-04-21 23:40:30 GMT 40.670380 -72.648987 33,025 69 530 0
2018-04-21 23:40:26 GMT 40.666809 -72.661377 33,025 69 529 0
2018-04-21 23:40:23 GMT 40.665054 -72.667572 33,000 68 529 0
2018-04-21 23:40:19 GMT 40.661377 -72.680176 33,025 69 529 64
2018-04-21 23:40:16 GMT 40.657700 -72.692787 33,000 69 529 64
2018-04-21 23:40:13 GMT 40.655548 -72.700134 33,000 69 529 64
2018-04-21 23:40:09 GMT 40.651974 -72.712326 33,000 69 530 64
2018-04-21 23:40:05 GMT 40.649181 -72.721939 33,000 68 529 64
2018-04-21 23:40:02 GMT 40.646202 -72.732117 33,000 68 529 64
2018-04-21 23:39:58 GMT 40.642338 -72.745346 33,000 68 529 0
2018-04-21 23:39:55 GMT 40.639481 -72.755127 33,000 68 529 0
2018-04-21 23:39:52 GMT 40.637283 -72.762573 33,000 68 529 0
2018-04-21 23:39:49 GMT 40.634472 -72.772377 33,000 69 528 0
2018-04-21 23:39:46 GMT 40.631424 -72.782715 33,000 69 528 0
2018-04-21 23:39:43 GMT 40.630001 -72.787666 33,000 69 528 0
2018-04-21 23:39:40 GMT 40.627350 -72.796661 33,000 69 528 0
2018-04-21 23:39:37 GMT 40.624008 -72.808167 33,000 68 529 0
2018-04-21 23:39:34 GMT 40.621063 -72.818260 33,000 68 528 0
2018-04-21 23:39:31 GMT 40.618790 -72.825867 33,000 68 528 0
2018-04-21 23:39:27 GMT 40.614761 -72.839661 33,000 68 528 0
2018-04-21 23:39:23 GMT 40.612061 -72.848938 33,000 68 528 0
2018-04-21 23:39:20 GMT 40.609192 -72.858643 33,000 68 528 0
2018-04-21 23:39:17 GMT 40.606430 -72.868042 33,000 68 528 0
2018-04-21 23:39:14 GMT 40.603271 -72.878845 33,000 68 528 0
2018-04-21 23:39:11 GMT 40.601349 -72.885376 33,000 68 527 0
2018-04-21 23:39:08 GMT 40.598694 -72.894348 33,000 68 527 0
2018-04-21 23:39:05 GMT 40.596111 -72.903152 33,000 68 522 0
2018-04-21 23:39:02 GMT 40.593521 -72.911987 33,000 68 527 0
2018-04-21 23:38:59 GMT 40.590820 -72.921265 33,000 68 526 0
2018-04-21 23:38:56 GMT 40.588257 -72.929871 33,000 68 526 0
2018-04-21 23:38:53 GMT 40.585590 -72.938980 33,000 68 526 0
2018-04-21 23:38:50 GMT 40.582844 -72.948219 33,000 68 526 0
2018-04-21 23:38:47 GMT 40.580330 -72.956833 33,000 68 526 0
2018-04-21 23:38:44 GMT 40.577679 -72.965759 33,000 68 526 0
2018-04-21 23:38:41 GMT 40.575119 -72.974548 33,000 68 526 0
2018-04-21 23:38:38 GMT 40.572556 -72.983215 33,000 68 525 0
2018-04-21 23:38:34 GMT 40.568924 -72.995537 33,000 68 525 0
2018-04-21 23:38:31 GMT 40.566193 -73.004944 33,025 68 525 -64
2018-04-21 23:38:28 GMT 40.563034 -73.015625 33,025 68 524 -64
2018-04-21 23:38:24 GMT 40.559242 -73.028557 33,025 68 524 -64
2018-04-21 23:38:21 GMT 40.557404 -73.034607 33,025 68 524 -64
2018-04-21 23:38:18 GMT 40.555191 -73.042168 33,025 68 524 -64
2018-04-21 23:38:15 GMT 40.551727 -73.053894 33,025 68 523 0
2018-04-21 23:38:11 GMT 40.548843 -73.063660 33,025 68 523 0
2018-04-21 23:38:08 GMT 40.546463 -73.071655 33,025 68 523 0
2018-04-21 23:38:05 GMT 40.543785 -73.080681 33,025 68 522 0
2018-04-21 23:38:02 GMT 40.540714 -73.090981 33,025 68 522 0
2018-04-21 23:37:59 GMT 40.537548 -73.101593 33,000 68 522 0
2018-04-21 23:37:55 GMT 40.534801 -73.110771 33,000 68 521 64
2018-04-21 23:37:52 GMT 40.531860 -73.120667 33,000 68 521 64
2018-04-21 23:37:49 GMT 40.529755 -73.127747 33,000 68 521 64
2018-04-21 23:37:46 GMT 40.526093 -73.140076 33,000 68 521 64
2018-04-21 23:37:43 GMT 40.523895 -73.147461 33,000 68 521 64
2018-04-21 23:37:40 GMT 40.520554 -73.158630 33,000 68 521 0
2018-04-21 23:37:37 GMT 40.518833 -73.164391 33,000 68 520 64
2018-04-21 23:37:33 GMT 40.514225 -73.179680 33,000 68 520 0
2018-04-21 23:37:29 GMT 40.511341 -73.189423 33,000 68 520 0
2018-04-21 23:37:26 GMT 40.508873 -73.197662 33,000 68 520 0
2018-04-21 23:37:22 GMT 40.506126 -73.206772 33,000 68 520 0
2018-04-21 23:37:19 GMT 40.502518 -73.218933 33,000 68 520 0
2018-04-21 23:37:16 GMT 40.500725 -73.224937 33,000 68 520 0
2018-04-21 23:37:13 GMT 40.497025 -73.237427 33,000 68 520 0
2018-04-21 23:37:09 GMT 40.493370 -73.249657 33,000 68 520 64
2018-04-21 23:37:06 GMT 40.490616 -73.258911 33,000 68 520 0
2018-04-21 23:37:02 GMT 40.488251 -73.266945 33,000 68 519 0
2018-04-21 23:36:58 GMT 40.483566 -73.282654 33,000 68 519 0
2018-04-21 23:36:55 GMT 40.481827 -73.288422 33,000 68 519 0
2018-04-21 23:36:51 GMT 40.477917 -73.301590 33,000 68 519 0
2018-04-21 23:36:47 GMT 40.474365 -73.313477 33,000 68 519 0
2018-04-21 23:36:42 GMT 40.470337 -73.326965 33,000 68 519 0
2018-04-21 23:36:39 GMT 40.468231 -73.334114 33,000 68 519 0
2018-04-21 23:36:36 GMT 40.465576 -73.343079 33,000 68 518 0
2018-04-21 23:36:32 GMT 40.461365 -73.357117 33,000 68 519 0
2018-04-21 23:36:29 GMT 40.458298 -73.367371 33,000 68 519 0
2018-04-21 23:36:26 GMT 40.456009 -73.374939 33,000 68 518 0
2018-04-21 23:36:22 GMT 40.452393 -73.386902 33,000 68 518 0
2018-04-21 23:36:19 GMT 40.450470 -73.393311 33,000 68 518 0
2018-04-21 23:36:16 GMT 40.447517 -73.403091 33,000 68 518 0
2018-04-21 23:36:13 GMT 40.445389 -73.410278 33,000 68 518 0
2018-04-21 23:36:09 GMT 40.441280 -73.423813 33,025 68 518 0
2018-04-21 23:36:05 GMT 40.438301 -73.433739 33,025 68 518 0
2018-04-21 23:36:02 GMT 40.435833 -73.441917 33,000 68 518 0
2018-04-21 23:35:59 GMT 40.432114 -73.454285 33,000 68 518 0
2018-04-21 23:35:55 GMT 40.428955 -73.464783 33,000 68 517 0
2018-04-21 23:35:52 GMT 40.426849 -73.471802 33,000 68 517 0
2018-04-21 23:35:48 GMT 40.422318 -73.487000 33,000 68 517 0
2018-04-21 23:35:44 GMT 40.419819 -73.495293 33,000 68 517 0
2018-04-21 23:35:41 GMT 40.417236 -73.503906 33,000 68 517 0
2018-04-21 23:35:38 GMT 40.413574 -73.516174 33,000 68 517 0
2018-04-21 23:35:34 GMT 40.411011 -73.524597 33,000 68 517 0
2018-04-21 23:35:31 GMT 40.408413 -73.533180 33,000 68 517 0
2018-04-21 23:35:27 GMT 40.404877 -73.544792 33,000 68 517 0
2018-04-21 23:35:24 GMT 40.401764 -73.555176 33,025 68 517 0
2018-04-21 23:35:21 GMT 40.398880 -73.564758 33,000 68 517 0
2018-04-21 23:35:16 GMT 40.395519 -73.575935 33,000 68 517 0
2018-04-21 23:35:13 GMT 40.391922 -73.587769 33,000 68 517 0
2018-04-21 23:35:10 GMT 40.390072 -73.593979 33,000 68 517 0
2018-04-21 23:35:06 GMT 40.385929 -73.607712 33,000 68 517 0
2018-04-21 23:35:03 GMT 40.384048 -73.613953 33,000 68 517 0
2018-04-21 23:35:00 GMT 40.380890 -73.624390 33,000 68 517 0
2018-04-21 23:34:55 GMT 40.376221 -73.639832 33,025 68 516 0
2018-04-21 23:34:51 GMT 40.373173 -73.649849 33,000 68 516 64
2018-04-21 23:34:47 GMT 40.369263 -73.662781 33,000 68 516 0
2018-04-21 23:34:44 GMT 40.366974 -73.670288 33,000 68 516 0
2018-04-21 23:34:41 GMT 40.364281 -73.679123 33,000 68 516 0
2018-04-21 23:34:38 GMT 40.361721 -73.687553 33,000 68 516 0
2018-04-21 23:34:33 GMT 40.357269 -73.702209 33,000 68 516 -64
2018-04-21 23:34:30 GMT 40.354706 -73.710632 33,000 68 515 -64
2018-04-21 23:34:26 GMT 40.350723 -73.723633 33,000 68 515 0
2018-04-21 23:34:23 GMT 40.348114 -73.732361 33,025 68 515 0
2018-04-21 23:34:19 GMT 40.345520 -73.740860 33,025 68 515 0
2018-04-21 23:34:16 GMT 40.342712 -73.750000 33,025 68 515 0
2018-04-21 23:34:13 GMT 40.339237 -73.761459 33,025 68 515 0
2018-04-21 23:34:10 GMT 40.336578 -73.770264 33,000 68 515 0
2018-04-21 23:34:07 GMT 40.333466 -73.780556 33,000 68 515 0
2018-04-21 23:34:03 GMT 40.330715 -73.789490 33,000 68 514 0
2018-04-21 23:34:00 GMT 40.327972 -73.798477 33,000 68 514 0
2018-04-21 23:33:57 GMT 40.324993 -73.808273 33,000 68 514 0
2018-04-21 23:33:54 GMT 40.322983 -73.814819 33,000 68 514 0
2018-04-21 23:33:51 GMT 40.319733 -73.825439 33,000 68 514 0
2018-04-21 23:33:48 GMT 40.317543 -73.832558 33,000 68 514 0
2018-04-21 23:33:45 GMT 40.314892 -73.841232 33,000 68 514 0
2018-04-21 23:33:41 GMT 40.312096 -73.850471 33,000 68 514 0
2018-04-21 23:33:38 GMT 40.308151 -73.863281 33,000 68 513 0
2018-04-21 23:33:34 GMT 40.305954 -73.870483 33,000 68 514 0
2018-04-21 23:33:31 GMT 40.303299 -73.879150 33,000 68 514 0
2018-04-21 23:33:28 GMT 40.299637 -73.890930 33,000 68 514 0
2018-04-21 23:33:24 GMT 40.297108 -73.899162 33,000 68 514 0
2018-04-21 23:33:21 GMT 40.294052 -73.909058 33,000 68 513 0
2018-04-21 23:33:18 GMT 40.290802 -73.919739 33,000 68 513 0
2018-04-21 23:33:15 GMT 40.288635 -73.926811 33,000 68 513 0
2018-04-21 23:33:11 GMT 40.284908 -73.938866 33,000 68 513 0
2018-04-21 23:33:08 GMT 40.281792 -73.948975 33,000 68 513 0
2018-04-21 23:33:05 GMT 40.279633 -73.955994 33,000 67 513 0
2018-04-21 23:33:02 GMT 40.276390 -73.966515 33,000 67 513 0
2018-04-21 23:32:59 GMT 40.274948 -73.971069 33,000 67 513 0
2018-04-21 23:32:56 GMT 40.271690 -73.981743 33,000 67 512 0
2018-04-21 23:32:53 GMT 40.269287 -73.989319 33,000 67 513 0
2018-04-21 23:32:50 GMT 40.266174 -73.999390 33,000 67 513 0
2018-04-21 23:32:47 GMT 40.263729 -74.007278 33,000 67 513 0
2018-04-21 23:32:44 GMT 40.260040 -74.019226 33,000 67 513 0
2018-04-21 23:32:40 GMT 40.256973 -74.028931 33,000 67 513 0
2018-04-21 23:32:37 GMT 40.254791 -74.035988 33,000 67 513 0
2018-04-21 23:32:34 GMT 40.251671 -74.046043 33,000 67 513 0
2018-04-21 23:32:31 GMT 40.249065 -74.054344 33,000 67 512 0
2018-04-21 23:32:27 GMT 40.245762 -74.064957 33,000 67 512 0
2018-04-21 23:32:24 GMT 40.243107 -74.073570 33,000 67 513 0
2018-04-21 23:32:21 GMT 40.240406 -74.082184 33,000 67 513 0
2018-04-21 23:32:18 GMT 40.237801 -74.090546 33,000 67 513 0
2018-04-21 23:32:15 GMT 40.234726 -74.100403 33,000 67 513 0
2018-04-21 23:32:12 GMT 40.231613 -74.110474 33,000 67 513 0
2018-04-21 23:32:09 GMT 40.229736 -74.116516 33,000 67 514 0
2018-04-21 23:32:06 GMT 40.226906 -74.125565 33,000 67 513 0
2018-04-21 23:32:03 GMT 40.224426 -74.133423 33,000 67 514 0
2018-04-21 23:32:00 GMT 40.222137 -74.140930 33,000 67 514 0
2018-04-21 23:31:57 GMT 40.219345 -74.149780 33,000 67 514 0
2018-04-21 23:31:54 GMT 40.215225 -74.163025 33,000 67 514 0
2018-04-21 23:31:51 GMT 40.212940 -74.170326 33,000 67 514 64
2018-04-21 23:31:48 GMT 40.210373 -74.178467 33,000 67 514 64
2018-04-21 23:31:45 GMT 40.208286 -74.185242 33,000 67 514 0
2018-04-21 23:31:42 GMT 40.205956 -74.192734 33,000 67 514 0
2018-04-21 23:31:39 GMT 40.203186 -74.201477 33,000 67 514 0
2018-04-21 23:31:35 GMT 40.199020 -74.214828 33,000 67 514 0
2018-04-21 23:31:32 GMT 40.196693 -74.222260 33,000 67 514 0
2018-04-21 23:31:29 GMT 40.193993 -74.230934 33,000 67 514 0
2018-04-21 23:31:25 GMT 40.190964 -74.240540 33,000 67 514 0
2018-04-21 23:31:22 GMT 40.187714 -74.250916 33,000 67 514 -64
2018-04-21 23:31:19 GMT 40.184509 -74.261230 33,000 67 514 -64
2018-04-21 23:31:16 GMT 40.181564 -74.270638 33,000 67 515 -64
2018-04-21 23:31:13 GMT 40.179794 -74.276382 33,000 67 515 0
2018-04-21 23:31:10 GMT 40.177002 -74.285309 33,000 67 515 0
2018-04-21 23:31:07 GMT 40.173416 -74.296852 33,000 67 515 0
2018-04-21 23:31:04 GMT 40.170410 -74.306519 33,000 67 515 0
2018-04-21 23:31:01 GMT 40.168808 -74.311707 33,000 67 516 0
2018-04-21 23:30:58 GMT 40.166473 -74.319153 33,000 67 516 0
2018-04-21 23:30:55 GMT 40.162804 -74.330872 33,000 67 516 0
2018-04-21 23:30:51 GMT 40.159035 -74.342987 33,000 67 515 0
2018-04-21 23:30:48 GMT 40.157032 -74.349289 33,000 67 516 0
2018-04-21 23:30:45 GMT 40.153290 -74.361267 33,000 67 516 0
2018-04-21 23:30:42 GMT 40.151539 -74.366890 33,025 67 515 -64
2018-04-21 23:30:39 GMT 40.149071 -74.374634 33,025 66 514 0
2018-04-21 23:30:36 GMT 40.146278 -74.383560 33,000 67 516 0
2018-04-21 23:30:33 GMT 40.142551 -74.395355 33,000 67 515 -64
2018-04-21 23:30:30 GMT 40.140381 -74.402100 33,025 67 515 -64
2018-04-21 23:30:27 GMT 40.138000 -74.409546 33,025 67 515 -64
2018-04-21 23:30:24 GMT 40.135712 -74.416748 33,025 67 515 -64
2018-04-21 23:30:21 GMT 40.133057 -74.425049 33,025 66 513 0
2018-04-21 23:30:18 GMT 40.129749 -74.435181 33,000 66 513 0
2018-04-21 23:30:15 GMT 40.127335 -74.442444 33,000 65 512 64
2018-04-21 23:30:12 GMT 40.123512 -74.453911 33,000 66 513 0
2018-04-21 23:30:09 GMT 40.120834 -74.462036 33,000 66 513 64
2018-04-21 23:30:06 GMT 40.117950 -74.470520 33,000 65 512 64
2018-04-21 23:30:01 GMT 40.113598 -74.483376 33,000 65 511 0
2018-04-21 23:29:58 GMT 40.110573 -74.492111 33,000 65 511 0
2018-04-21 23:29:55 GMT 40.107361 -74.501411 33,000 65 510 0
2018-04-21 23:29:52 GMT 40.103683 -74.511711 33,000 65 510 0
2018-04-21 23:29:48 GMT 40.099632 -74.523201 33,000 65 510 -64
2018-04-21 23:29:45 GMT 40.097630 -74.528755 33,000 65 510 0
2018-04-21 23:29:41 GMT 40.093300 -74.541054 33,000 65 511 0
2018-04-21 23:29:38 GMT 40.089981 -74.550415 33,000 65 511 0
2018-04-21 23:29:34 GMT 40.085808 -74.562340 33,000 65 512 0
2018-04-21 23:29:30 GMT 40.082920 -74.570763 33,000 65 512 0
2018-04-21 23:29:27 GMT 40.079453 -74.580750 33,000 66 512 0
2018-04-21 23:29:24 GMT 40.077381 -74.586746 33,000 66 512 0
2018-04-21 23:29:21 GMT 40.073238 -74.598915 33,000 66 512 0
2018-04-21 23:29:18 GMT 40.071304 -74.604675 33,000 66 512 0
2018-04-21 23:29:15 GMT 40.068420 -74.613159 33,000 66 512 0
2018-04-21 23:29:12 GMT 40.064575 -74.624817 33,000 45 472 64
2018-04-21 23:29:09 GMT 40.062698 -74.630493 33,000 66 513 0
2018-04-21 23:29:06 GMT 40.059631 -74.639832 33,000 67 513 0
2018-04-21 23:29:03 GMT 40.056805 -74.648544 33,000 67 513 0
2018-04-21 23:28:57 GMT 40.051682 -74.664146 33,025 67 513 -64
2018-04-21 23:28:54 GMT 40.049496 -74.671013 33,025 67 513 0
2018-04-21 23:28:51 GMT 40.046402 -74.680542 33,025 67 513 0
2018-04-21 23:28:48 GMT 40.042698 -74.692116 33,025 67 514 128
2018-04-21 23:28:45 GMT 40.039856 -74.701111 33,000 67 514 192
2018-04-21 23:28:42 GMT 40.036972 -74.710152 33,000 64 509 256
2018-04-21 23:28:39 GMT 40.034969 -74.716393 33,000 58 499 -192
2018-04-21 23:28:36 GMT 40.033016 -74.722389 32,975 63 508 128
2018-04-21 23:28:33 GMT 40.029617 -74.732185 32,975 63 507 64
2018-04-21 23:28:30 GMT 40.026871 -74.739616 32,975 60 503 -64
2018-04-21 23:28:27 GMT 40.022186 -74.750549 32,975 55 493 -320
2018-04-21 23:28:24 GMT 40.018524 -74.757751 33,000 50 482 -128
2018-04-21 23:28:21 GMT 40.015930 -74.762398 33,000 47 477 0
2018-04-21 23:28:18 GMT 40.010204 -74.771637 33,000 48 478 0
2018-04-21 23:28:14 GMT 40.004478 -74.780067 33,000 47 476 64
2018-04-21 23:28:11 GMT 40.000664 -74.785622 33,000 47 476 64
2018-04-21 23:28:07 GMT 39.993896 -74.795227 33,000 47 476 0
2018-04-21 23:28:04 GMT 39.991028 -74.799355 33,000 47 476 0
2018-04-21 23:28:01 GMT 39.985153 -74.807739 33,000 47 476 0
2018-04-21 23:27:55 GMT 39.976269 -74.820267 33,000 47 474 0
2018-04-21 23:27:52 GMT 39.971661 -74.826820 33,000 47 475 0
2018-04-21 23:27:49 GMT 39.969360 -74.830078 33,000 47 475 0
2018-04-21 23:27:46 GMT 39.963089 -74.838928 33,000 47 475 0
2018-04-21 23:27:43 GMT 39.958923 -74.844788 33,000 46 474 0
2018-04-21 23:27:40 GMT 39.954388 -74.851166 33,000 46 474 0
2018-04-21 23:27:35 GMT 39.948242 -74.859718 33,000 46 474 0
2018-04-21 23:27:32 GMT 39.941528 -74.868958 33,000 46 473 64
2018-04-21 23:27:29 GMT 39.938141 -74.873573 33,000 46 473 64
2018-04-21 23:27:25 GMT 39.930908 -74.883301 33,000 45 472 64
2018-04-21 23:27:21 GMT 39.924690 -74.891487 33,000 44 470 0
2018-04-21 23:27:18 GMT 39.922485 -74.894394 33,000 44 470 0
2018-04-21 23:27:14 GMT 39.915985 -74.902756 33,000 43 469 -64
2018-04-21 23:27:11 GMT 39.909977 -74.910278 33,000 43 469 -64
2018-04-21 23:27:08 GMT 39.906143 -74.915054 33,000 43 467 -64
2018-04-21 23:27:04 GMT 39.900249 -74.922302 33,000 42 466 -64
2018-04-21 23:27:01 GMT 39.894058 -74.929688 33,000 42 465 0
2018-04-21 23:26:57 GMT 39.889400 -74.935120 33,000 41 465 0
2018-04-21 23:26:52 GMT 39.879021 -74.947266 33,000 41 464 0
2018-04-21 23:26:47 GMT 39.872864 -74.954407 33,000 41 465 0
2018-04-21 23:26:44 GMT 39.867477 -74.960693 33,000 41 465 0
2018-04-21 23:26:40 GMT 39.859406 -74.970108 33,000 41 465 0
2018-04-21 23:26:36 GMT 39.854347 -74.975952 33,000 41 465 0
2018-04-21 23:26:32 GMT 39.846771 -74.984856 33,000 41 465 -64
2018-04-21 23:26:26 GMT 39.838520 -74.994446 33,000 41 464 0
2018-04-21 23:26:22 GMT 39.833351 -75.000366 33,000 41 464 0
2018-04-21 23:26:19 GMT 39.827442 -75.007202 33,000 41 464 64
2018-04-21 23:26:16 GMT 39.821091 -75.014526 33,000 41 465 0
2018-04-21 23:26:13 GMT 39.817291 -75.018860 33,000 41 464 64
2018-04-21 23:26:10 GMT 39.812897 -75.023964 33,000 41 464 0
2018-04-21 23:26:07 GMT 39.808228 -75.029335 33,000 41 465 0
2018-04-21 23:26:04 GMT 39.804199 -75.033997 33,000 41 465 0
2018-04-21 23:26:01 GMT 39.798531 -75.040588 33,000 41 466 -64
2018-04-21 23:25:58 GMT 39.793625 -75.046234 33,000 41 465 -64
2018-04-21 23:25:55 GMT 39.788105 -75.052673 33,000 41 465 0
2018-04-21 23:25:52 GMT 39.781082 -75.060745 33,025 41 465 0
2018-04-21 23:25:47 GMT 39.776375 -75.066223 33,025 41 465 0
2018-04-21 23:25:43 GMT 39.770508 -75.072983 33,025 41 465 0
2018-04-21 23:25:40 GMT 39.763275 -75.081345 33,000 41 466 0
2018-04-21 23:25:36 GMT 39.757645 -75.087791 33,000 41 465 64
2018-04-21 23:25:33 GMT 39.754215 -75.091797 33,000 41 466 0
2018-04-21 23:25:30 GMT 39.750164 -75.096436 33,000 41 466 0
2018-04-21 23:25:26 GMT 39.741180 -75.106812 33,000 41 466 0
2018-04-21 23:25:23 GMT 39.736588 -75.112091 33,000 41 466 -64
2018-04-21 23:25:20 GMT 39.731918 -75.117523 33,000 41 466 0
2018-04-21 23:25:16 GMT 39.726841 -75.123352 33,000 41 466 0
2018-04-21 23:25:13 GMT 39.721939 -75.128990 33,000 41 466 0
2018-04-21 23:25:10 GMT 39.717205 -75.134460 33,000 41 466 0
2018-04-21 23:25:07 GMT 39.710457 -75.142273 33,000 41 466 0
2018-04-21 23:25:04 GMT 39.706593 -75.146729 33,000 41 466 -64
2018-04-21 23:25:01 GMT 39.701889 -75.152214 33,025 41 466 -64
2018-04-21 23:24:57 GMT 39.696163 -75.158813 33,025 41 465 0
2018-04-21 23:24:54 GMT 39.689552 -75.166382 33,025 41 465 0
2018-04-21 23:24:49 GMT 39.681828 -75.175293 33,025 41 465 0
2018-04-21 23:24:46 GMT 39.676846 -75.181030 33,025 41 465 0
2018-04-21 23:24:43 GMT 39.672840 -75.185669 33,025 41 465 64
2018-04-21 23:24:40 GMT 39.668976 -75.190063 33,000 41 465 64
2018-04-21 23:24:37 GMT 39.664398 -75.195389 33,000 41 465 64
2018-04-21 23:24:34 GMT 39.657944 -75.202789 33,000 41 466 0
2018-04-21 23:24:31 GMT 39.653988 -75.207275 33,000 41 465 64
2018-04-21 23:24:28 GMT 39.648029 -75.214172 33,000 41 466 0
2018-04-21 23:24:25 GMT 39.644714 -75.217957 33,000 41 466 0
2018-04-21 23:24:22 GMT 39.639462 -75.223938 33,000 41 466 0
2018-04-21 23:24:19 GMT 39.634415 -75.229774 33,000 41 466 0
2018-04-21 23:24:16 GMT 39.629501 -75.235413 33,000 41 466 0
2018-04-21 23:24:11 GMT 39.621002 -75.245125 33,000 41 466 0
2018-04-21 23:24:08 GMT 39.615303 -75.251709 33,000 41 466 0
2018-04-21 23:24:05 GMT 39.613022 -75.254272 33,000 41 466 0
2018-04-21 23:24:01 GMT 39.604889 -75.263634 33,000 41 466 0
2018-04-21 23:23:57 GMT 39.598618 -75.270859 33,000 41 466 0
2018-04-21 23:23:53 GMT 39.591980 -75.278442 33,000 41 466 0
2018-04-21 23:23:48 GMT 39.584885 -75.286560 33,000 41 466 0
2018-04-21 23:23:45 GMT 39.580761 -75.291260 33,000 41 466 64
2018-04-21 23:23:42 GMT 39.575966 -75.296814 33,000 41 466 64
2018-04-21 23:23:39 GMT 39.568909 -75.304832 33,000 41 466 64
2018-04-21 23:23:36 GMT 39.565445 -75.308777 33,000 41 466 64
2018-04-21 23:23:32 GMT 39.557968 -75.317429 33,000 41 466 64
2018-04-21 23:23:28 GMT 39.552292 -75.323875 33,000 41 466 64
2018-04-21 23:23:25 GMT 39.547440 -75.329430 33,000 41 466 0
2018-04-21 23:23:20 GMT 39.538490 -75.339661 33,000 41 467 -64
2018-04-21 23:23:17 GMT 39.534348 -75.344414 33,000 41 466 -64
2018-04-21 23:23:13 GMT 39.526749 -75.353073 33,000 41 467 -64
2018-04-21 23:23:10 GMT 39.521713 -75.358810 33,000 41 466 -64
2018-04-21 23:23:07 GMT 39.517548 -75.363640 33,000 41 466 -64
2018-04-21 23:23:04 GMT 39.513401 -75.368347 33,000 41 467 0
2018-04-21 23:22:56 GMT 39.500244 -75.383469 33,000 41 467 0
2018-04-21 23:22:53 GMT 39.495529 -75.388840 33,000 41 467 64
2018-04-21 23:22:50 GMT 39.490677 -75.394394 33,000 41 467 64
2018-04-21 23:22:46 GMT 39.483143 -75.403015 33,000 41 467 0
2018-04-21 23:22:42 GMT 39.478500 -75.408249 33,000 41 468 0
2018-04-21 23:22:37 GMT 39.469574 -75.418396 33,000 41 468 0
2018-04-21 23:22:34 GMT 39.464661 -75.424072 33,000 41 468 0
2018-04-21 23:22:30 GMT 39.457024 -75.432739 33,000 41 468 0
2018-04-21 23:22:27 GMT 39.453827 -75.436371 33,000 41 468 -64
2018-04-21 23:22:23 GMT 39.447968 -75.442993 33,000 41 469 0
2018-04-21 23:22:20 GMT 39.442108 -75.449684 33,000 41 469 0
2018-04-21 23:22:17 GMT 39.437073 -75.455414 33,000 41 469 0
2018-04-21 23:22:14 GMT 39.431900 -75.461327 33,000 41 468 0
2018-04-21 23:22:11 GMT 39.427746 -75.466003 33,000 41 468 0
2018-04-21 23:22:08 GMT 39.423569 -75.470757 33,000 41 468 0
2018-04-21 23:22:05 GMT 39.416527 -75.478821 33,000 41 469 0
2018-04-21 23:22:01 GMT 39.411575 -75.484436 33,000 41 469 0
2018-04-21 23:21:56 GMT 39.402924 -75.494225 33,000 41 469 0
2018-04-21 23:21:53 GMT 39.396973 -75.500977 33,000 41 469 0
2018-04-21 23:21:49 GMT 39.390640 -75.508240 33,000 41 469 0
2018-04-21 23:21:45 GMT 39.386490 -75.512917 33,000 41 469 0
2018-04-21 23:21:41 GMT 39.377563 -75.523125 33,000 41 469 0
2018-04-21 23:21:38 GMT 39.374130 -75.527008 33,000 41 469 0
2018-04-21 23:21:35 GMT 39.368774 -75.533157 33,000 41 470 0
2018-04-21 23:21:31 GMT 39.361450 -75.541458 33,000 41 470 0
2018-04-21 23:21:28 GMT 39.356369 -75.547249 33,000 41 470 0
2018-04-21 23:21:25 GMT 39.352158 -75.552086 33,000 41 470 0
2018-04-21 23:21:21 GMT 39.345932 -75.559128 33,000 41 470 0
2018-04-21 23:21:18 GMT 39.342545 -75.563011 33,000 41 470 0
2018-04-21 23:21:15 GMT 39.335815 -75.570595 33,000 41 470 0
2018-04-21 23:21:12 GMT 39.331661 -75.575317 33,000 41 470 0
2018-04-21 23:21:09 GMT 39.325794 -75.582031 33,000 41 471 -64
2018-04-21 23:21:04 GMT 39.318111 -75.590759 33,000 41 471 -64
2018-04-21 23:20:59 GMT 39.309540 -75.600449 33,025 41 470 0
2018-04-21 23:20:56 GMT 39.304642 -75.606056 33,025 41 470 0
2018-04-21 23:20:53 GMT 39.300468 -75.610779 33,025 41 470 0
2018-04-21 23:20:48 GMT 39.292099 -75.620331 33,000 41 470 64
2018-04-21 23:20:45 GMT 39.287434 -75.625549 33,000 41 470 64
2018-04-21 23:20:42 GMT 39.283401 -75.630119 33,000 41 470 64
2018-04-21 23:20:38 GMT 39.276581 -75.637886 33,000 41 470 0
2018-04-21 23:20:35 GMT 39.270355 -75.644928 33,000 41 470 0
2018-04-21 23:20:32 GMT 39.266346 -75.649475 33,000 41 470 0
2018-04-21 23:20:27 GMT 39.257126 -75.659920 33,000 41 470 0
2018-04-21 23:20:24 GMT 39.253124 -75.664429 33,000 41 470 0
2018-04-21 23:20:21 GMT 39.249252 -75.668816 33,000 41 470 0
2018-04-21 23:20:18 GMT 39.242977 -75.675903 33,000 41 470 0
2018-04-21 23:20:14 GMT 39.235565 -75.684334 33,025 41 469 -64
2018-04-21 23:20:10 GMT 39.231201 -75.689209 33,000 41 469 -64
2018-04-21 23:20:07 GMT 39.223434 -75.697952 33,025 41 469 0
2018-04-21 23:20:04 GMT 39.219933 -75.701904 33,025 41 469 0
2018-04-21 23:20:01 GMT 39.214211 -75.708374 33,025 41 469 0
2018-04-21 23:19:56 GMT 39.205364 -75.718323 33,025 41 469 0
2018-04-21 23:19:53 GMT 39.201454 -75.722778 33,000 41 469 64
2018-04-21 23:19:50 GMT 39.197357 -75.727356 33,000 41 469 64
2018-04-21 23:19:44 GMT 39.186859 -75.739265 33,000 41 469 0
2018-04-21 23:19:41 GMT 39.182739 -75.743927 33,000 41 469 0
2018-04-21 23:19:38 GMT 39.178665 -75.748520 33,000 41 469 0
2018-04-21 23:19:35 GMT 39.171158 -75.757004 33,000 41 469 0
2018-04-21 23:19:32 GMT 39.167145 -75.761536 33,000 41 469 0
2018-04-21 23:19:29 GMT 39.162964 -75.766197 33,000 41 470 0
2018-04-21 23:19:24 GMT 39.154953 -75.775215 33,000 41 470 0
2018-04-21 23:19:21 GMT 39.150055 -75.780769 33,000 41 470 0
2018-04-21 23:19:18 GMT 39.145870 -75.785461 33,000 41 470 0
2018-04-21 23:19:15 GMT 39.139893 -75.792168 33,000 41 470 0
2018-04-21 23:19:12 GMT 39.134930 -75.797791 33,000 41 469 0
2018-04-21 23:19:09 GMT 39.129272 -75.804115 33,000 41 470 0
2018-04-21 23:19:04 GMT 39.121010 -75.813416 33,000 41 469 0
2018-04-21 23:19:00 GMT 39.116043 -75.819038 33,000 41 469 0
2018-04-21 23:18:57 GMT 39.111374 -75.824280 33,000 41 469 0
2018-04-21 23:18:53 GMT 39.104736 -75.831757 33,000 41 470 0
2018-04-21 23:18:50 GMT 39.097366 -75.840057 33,000 41 470 0
2018-04-21 23:18:46 GMT 39.093361 -75.844543 33,000 41 469 0
2018-04-21 23:18:43 GMT 39.087170 -75.851562 33,000 41 469 0
2018-04-21 23:18:40 GMT 39.083908 -75.855225 33,000 41 469 0
2018-04-21 23:18:37 GMT 39.076767 -75.863220 33,000 41 470 0
2018-04-21 23:18:33 GMT 39.071869 -75.868774 33,000 41 470 0
2018-04-21 23:18:30 GMT 39.066730 -75.874573 33,000 41 469 0
2018-04-21 23:18:26 GMT 39.058960 -75.883286 33,000 41 469 0
2018-04-21 23:18:22 GMT 39.052345 -75.890686 33,000 41 469 0
2018-04-21 23:18:18 GMT 39.047272 -75.896362 33,000 41 469 0
2018-04-21 23:18:15 GMT 39.041035 -75.903320 33,000 41 469 0
2018-04-21 23:18:10 GMT 39.033142 -75.912247 33,000 41 469 0
2018-04-21 23:18:07 GMT 39.027420 -75.918694 33,000 41 469 0
2018-04-21 23:18:04 GMT 39.022980 -75.923645 33,000 41 469 0
2018-04-21 23:18:01 GMT 39.017899 -75.929321 33,000 41 469 0
2018-04-21 23:17:57 GMT 39.012592 -75.935303 33,000 41 469 0
2018-04-21 23:17:53 GMT 39.005173 -75.943588 33,000 41 469 0
2018-04-21 23:17:50 GMT 39.001652 -75.947571 33,000 41 469 0
2018-04-21 23:17:47 GMT 38.995514 -75.954399 33,000 41 469 0
2018-04-21 23:17:42 GMT 38.987503 -75.963356 33,000 41 469 0
2018-04-21 23:17:38 GMT 38.981682 -75.969849 33,000 41 469 0
2018-04-21 23:17:35 GMT 38.977585 -75.974426 33,000 41 469 0
2018-04-21 23:17:31 GMT 38.968739 -75.984314 33,000 41 469 0
2018-04-21 23:17:28 GMT 38.964500 -75.989075 33,000 41 469 0
2018-04-21 23:17:25 GMT 38.960407 -75.993652 33,000 41 469 0
2018-04-21 23:17:22 GMT 38.954636 -76.000191 33,000 41 469 0
2018-04-21 23:17:18 GMT 38.949234 -76.006226 33,000 41 469 0
2018-04-21 23:17:15 GMT 38.943554 -76.012512 33,000 41 469 0
2018-04-21 23:17:09 GMT 38.932526 -76.024857 33,000 41 469 0
2018-04-21 23:17:06 GMT 38.930660 -76.026978 33,000 41 469 0
2018-04-21 23:17:02 GMT 38.922791 -76.035706 33,000 41 469 0
2018-04-21 23:16:59 GMT 38.918610 -76.040375 33,000 41 469 0
2018-04-21 23:16:55 GMT 38.910278 -76.049690 33,025 41 469 -64
2018-04-21 23:16:52 GMT 38.906078 -76.054321 33,025 41 468 -64
2018-04-21 23:16:46 GMT 38.895721 -76.065933 33,025 41 469 0
2018-04-21 23:16:43 GMT 38.889816 -76.072502 33,025 41 469 0
2018-04-21 23:16:36 GMT 38.879013 -76.084503 33,000 41 469 64
2018-04-21 23:16:33 GMT 38.876472 -76.087341 33,000 41 469 64
2018-04-21 23:16:30 GMT 38.871586 -76.092834 33,000 41 469 64
2018-04-21 23:16:25 GMT 38.861946 -76.103577 33,000 41 469 0
2018-04-21 23:16:21 GMT 38.856766 -76.109344 33,000 41 469 0
2018-04-21 23:16:18 GMT 38.849007 -76.118042 33,000 41 469 0
2018-04-21 23:16:15 GMT 38.844910 -76.122559 33,000 41 469 0
2018-04-21 23:16:12 GMT 38.840561 -76.127373 33,000 41 469 0
2018-04-21 23:16:09 GMT 38.837311 -76.131012 33,000 41 469 0
2018-04-21 23:16:04 GMT 38.827972 -76.141464 33,000 41 469 0
2018-04-21 23:15:59 GMT 38.819778 -76.150536 33,000 41 469 0
2018-04-21 23:15:54 GMT 38.810440 -76.160927 33,000 41 469 0
2018-04-21 23:15:50 GMT 38.806183 -76.165642 33,000 41 469 0
2018-04-21 23:15:47 GMT 38.799133 -76.173470 33,000 41 469 0
2018-04-21 23:15:44 GMT 38.795143 -76.177917 33,000 40 468 0
2018-04-21 23:15:41 GMT 38.789886 -76.183777 33,000 40 468 0
2018-04-21 23:15:37 GMT 38.782204 -76.192261 33,000 40 468 0
2018-04-21 23:15:34 GMT 38.779083 -76.195740 33,000 40 468 0
2018-04-21 23:15:30 GMT 38.772629 -76.202904 33,000 40 468 0
2018-04-21 23:15:27 GMT 38.768372 -76.207619 33,000 40 468 0
2018-04-21 23:15:23 GMT 38.761185 -76.215622 33,000 40 468 0
2018-04-21 23:15:20 GMT 38.755344 -76.222046 33,000 40 468 0
2018-04-21 23:15:17 GMT 38.751205 -76.226669 33,025 41 467 0
2018-04-21 23:15:12 GMT 38.742264 -76.236572 33,000 41 467 0
2018-04-21 23:15:09 GMT 38.738167 -76.241089 33,000 41 467 0
2018-04-21 23:15:04 GMT 38.730103 -76.250076 33,000 41 467 0
2018-04-21 23:15:01 GMT 38.725021 -76.255684 33,000 41 467 0
2018-04-21 23:14:58 GMT 38.719940 -76.261299 33,000 41 467 0
2018-04-21 23:14:51 GMT 38.708607 -76.273865 33,000 41 467 0
2018-04-21 23:14:48 GMT 38.703461 -76.279572 33,000 40 467 0
2018-04-21 23:14:45 GMT 38.699341 -76.284103 33,000 40 467 0
2018-04-21 23:14:41 GMT 38.690590 -76.293762 33,000 40 467 0
2018-04-21 23:14:37 GMT 38.686615 -76.298195 33,000 40 467 0
2018-04-21 23:14:33 GMT 38.679790 -76.305664 33,000 40 467 0
2018-04-21 23:14:30 GMT 38.674065 -76.311951 33,000 40 467 0
2018-04-21 23:14:27 GMT 38.669827 -76.316650 33,000 40 467 0
2018-04-21 23:14:23 GMT 38.663040 -76.324112 33,000 40 467 0
2018-04-21 23:14:20 GMT 38.656815 -76.330978 33,000 40 467 0
2018-04-21 23:14:17 GMT 38.651917 -76.336411 33,000 40 467 -64
2018-04-21 23:14:13 GMT 38.646782 -76.342102 33,000 40 467 0
2018-04-21 23:14:09 GMT 38.639694 -76.349907 33,000 40 467 0
2018-04-21 23:14:06 GMT 38.634933 -76.355164 33,000 40 467 0
2018-04-21 23:14:03 GMT 38.629715 -76.360954 33,000 40 467 0
2018-04-21 23:13:59 GMT 38.622623 -76.368774 33,000 40 467 0
2018-04-21 23:13:55 GMT 38.617363 -76.374512 33,025 40 467 0
2018-04-21 23:13:48 GMT 38.604004 -76.389343 33,000 41 466 0
2018-04-21 23:13:45 GMT 38.600605 -76.393127 33,000 40 467 64
2018-04-21 23:13:41 GMT 38.595390 -76.398865 33,000 40 467 0
2018-04-21 23:13:38 GMT 38.589336 -76.405518 33,000 40 467 0
2018-04-21 23:13:35 GMT 38.583611 -76.411865 33,000 40 467 0
2018-04-21 23:13:27 GMT 38.570801 -76.425972 33,000 40 467 0
2018-04-21 23:13:23 GMT 38.564526 -76.432922 33,000 40 467 0
2018-04-21 23:13:17 GMT 38.555328 -76.443108 33,000 41 466 0
2018-04-21 23:13:14 GMT 38.548046 -76.451172 33,000 41 466 0
2018-04-21 23:13:06 GMT 38.535736 -76.464783 33,000 40 467 0
2018-04-21 23:13:03 GMT 38.531891 -76.468994 33,000 40 467 64
2018-04-21 23:13:00 GMT 38.527004 -76.474426 33,000 41 467 0
2018-04-21 23:12:57 GMT 38.521465 -76.480530 33,000 40 467 0
2018-04-21 23:12:53 GMT 38.515411 -76.487183 33,000 40 467 -64
2018-04-21 23:12:42 GMT 38.491470 -76.513626 33,000 40 467 0
2018-04-21 23:12:35 GMT 38.486504 -76.519104 33,000 40 467 0
2018-04-21 23:12:32 GMT 38.481033 -76.525146 33,000 40 467 0
2018-04-21 23:12:27 GMT 38.473663 -76.533272 33,000 40 467 0
2018-04-21 23:12:24 GMT 38.467884 -76.539673 33,000 41 467 0
2018-04-21 23:12:20 GMT 38.462994 -76.545105 33,000 41 467 0
2018-04-21 23:12:15 GMT 38.452744 -76.556374 33,000 40 466 0
2018-04-21 23:12:11 GMT 38.445816 -76.563965 33,000 40 466 0
2018-04-21 23:12:03 GMT 38.433884 -76.576920 33,000 40 466 0
2018-04-21 23:11:59 GMT 38.426918 -76.584412 33,000 40 466 0
2018-04-21 23:11:53 GMT 38.416862 -76.595215 33,000 40 466 0
2018-04-21 23:11:49 GMT 38.411228 -76.601219 33,000 40 466 0
2018-04-21 23:11:46 GMT 38.406555 -76.606262 33,000 39 467 64
2018-04-21 23:11:43 GMT 38.400604 -76.612633 33,000 40 466 64
2018-04-21 23:11:40 GMT 38.394836 -76.618828 33,000 40 466 0
2018-04-21 23:11:36 GMT 38.390469 -76.623489 33,000 40 466 0
2018-04-21 23:11:31 GMT 38.381836 -76.632797 33,000 40 466 0
2018-04-21 23:11:27 GMT 38.375153 -76.639969 33,000 40 466 0
2018-04-21 23:11:21 GMT 38.364670 -76.651199 33,000 40 466 0
2018-04-21 23:11:16 GMT 38.357254 -76.659149 33,000 40 466 0
2018-04-21 23:11:13 GMT 38.352386 -76.664330 33,000 40 466 0
2018-04-21 23:11:10 GMT 38.346615 -76.670540 33,000 40 466 0
2018-04-21 23:11:07 GMT 38.340843 -76.676750 33,000 40 466 0
2018-04-21 23:10:59 GMT 38.330788 -76.687492 33,000 40 466 0
2018-04-21 23:10:55 GMT 38.322647 -76.696259 33,000 40 466 0
2018-04-21 23:10:49 GMT 38.311375 -76.708336 33,000 40 466 0
2018-04-21 23:10:45 GMT 38.306168 -76.713905 33,000 40 465 0
2018-04-21 23:10:41 GMT 38.297928 -76.722733 33,000 40 465 0
2018-04-21 23:10:38 GMT 38.295036 -76.725830 33,000 40 465 0
2018-04-21 23:10:34 GMT 38.287033 -76.734360 33,000 40 465 0
2018-04-21 23:10:29 GMT 38.278656 -76.743362 33,000 40 465 0
2018-04-21 23:10:26 GMT 38.274536 -76.747742 33,000 40 465 0
2018-04-21 23:10:23 GMT 38.269154 -76.753471 33,000 40 465 0
2018-04-21 23:10:18 GMT 38.260586 -76.762611 33,000 40 465 0
2018-04-21 23:10:14 GMT 38.252426 -76.771355 33,000 40 465 0
2018-04-21 23:10:09 GMT 38.245411 -76.778847 33,000 40 465 0
2018-04-21 23:10:06 GMT 38.239822 -76.784821 33,000 40 465 0
2018-04-21 23:10:02 GMT 38.235725 -76.789238 33,000 40 465 0
2018-04-21 23:09:58 GMT 38.227249 -76.798286 33,000 40 464 0
2018-04-21 23:09:52 GMT 38.218506 -76.807579 33,000 40 464 0
2018-04-21 23:09:47 GMT 38.210312 -76.816231 33,025 40 464 0
2018-04-21 23:09:42 GMT 38.199692 -76.827507 33,000 39 465 0
2018-04-21 23:09:37 GMT 38.193420 -76.834167 33,000 39 464 64
2018-04-21 23:09:34 GMT 38.188381 -76.839516 33,000 40 464 64
2018-04-21 23:09:30 GMT 38.181496 -76.846855 33,000 40 464 64
2018-04-21 23:09:26 GMT 38.175613 -76.853050 33,000 40 464 64
2018-04-21 23:09:23 GMT 38.170277 -76.858742 33,000 40 464 64
2018-04-21 23:09:20 GMT 38.165085 -76.864265 33,000 40 464 0
2018-04-21 23:09:15 GMT 38.158310 -76.871452 33,000 39 464 0
2018-04-21 23:09:12 GMT 38.153145 -76.876953 33,000 39 464 0
2018-04-21 23:09:09 GMT 38.148102 -76.882324 33,000 39 465 0
2018-04-21 23:09:06 GMT 38.141830 -76.888931 33,000 39 465 0
2018-04-21 23:09:02 GMT 38.135742 -76.895416 33,000 39 465 0
2018-04-21 23:08:59 GMT 38.130936 -76.900436 33,000 39 465 0
2018-04-21 23:08:54 GMT 38.124283 -76.907524 33,000 39 465 0
2018-04-21 23:08:51 GMT 38.118393 -76.913704 33,000 39 464 0
2018-04-21 23:08:45 GMT 38.106216 -76.926620 33,000 40 464 0
2018-04-21 23:08:41 GMT 38.101410 -76.931702 33,000 40 464 0
2018-04-21 23:08:35 GMT 38.090298 -76.943527 33,000 39 465 0
2018-04-21 23:08:32 GMT 38.086342 -76.947708 33,000 39 465 -64
2018-04-21 23:08:28 GMT 38.077835 -76.956718 33,000 39 465 -64
2018-04-21 23:08:24 GMT 38.072891 -76.961975 33,000 39 465 -64
2018-04-21 23:08:20 GMT 38.067020 -76.968185 33,000 39 465 -64
2018-04-21 23:08:16 GMT 38.060551 -76.974991 33,000 39 465 -64
2018-04-21 23:08:13 GMT 38.053150 -76.982811 33,000 39 467 64
2018-04-21 23:08:09 GMT 38.048904 -76.987282 33,000 39 465 0
2018-04-21 23:08:05 GMT 38.042210 -76.994400 33,000 39 465 0
2018-04-21 23:08:02 GMT 38.036251 -77.000664 33,000 39 467 64
2018-04-21 23:07:58 GMT 38.030338 -77.006935 33,000 39 465 0
2018-04-21 23:07:55 GMT 38.025684 -77.011833 33,000 40 466 64
2018-04-21 23:07:52 GMT 38.020798 -77.017021 33,000 39 467 64
2018-04-21 23:07:49 GMT 38.014709 -77.023514 33,000 39 467 64
2018-04-21 23:07:45 GMT 38.007481 -77.031120 33,000 39 467 64
2018-04-21 23:07:42 GMT 38.004177 -77.034637 33,000 39 467 64
2018-04-21 23:07:38 GMT 37.995667 -77.043671 33,000 39 467 0
2018-04-21 23:07:33 GMT 37.989349 -77.050331 33,000 39 467 0
2018-04-21 23:07:29 GMT 37.983032 -77.056992 33,000 39 467 -64
2018-04-21 23:07:23 GMT 37.971268 -77.069443 33,000 39 467 -64
2018-04-21 23:07:20 GMT 37.966003 -77.075005 33,000 39 468 0
2018-04-21 23:07:17 GMT 37.962513 -77.078705 33,000 39 468 0
2018-04-21 23:07:14 GMT 37.955475 -77.086159 33,000 39 468 0
2018-04-21 23:07:11 GMT 37.952038 -77.089752 33,000 39 468 0
2018-04-21 23:07:08 GMT 37.946918 -77.095184 33,000 39 468 -64
2018-04-21 23:07:03 GMT 37.938259 -77.104317 33,000 39 468 0
2018-04-21 23:06:59 GMT 37.933365 -77.109528 33,000 39 468 0
2018-04-21 23:06:56 GMT 37.928482 -77.114708 33,000 39 468 -64
2018-04-21 23:06:52 GMT 37.920731 -77.122856 33,025 40 468 -64
2018-04-21 23:06:49 GMT 37.915924 -77.127998 33,025 40 468 -64
2018-04-21 23:06:46 GMT 37.911724 -77.132500 33,025 40 469 0
2018-04-21 23:06:38 GMT 37.896965 -77.148209 33,025 40 469 0
2018-04-21 23:06:35 GMT 37.893585 -77.151840 33,025 40 469 0
2018-04-21 23:06:30 GMT 37.882828 -77.163292 33,025 39 468 0
2018-04-21 23:06:26 GMT 37.878662 -77.167732 33,000 40 469 0
2018-04-21 23:06:23 GMT 37.872162 -77.174515 33,025 39 469 0
2018-04-21 23:06:20 GMT 37.867813 -77.179016 33,025 39 468 0
2018-04-21 23:06:16 GMT 37.860947 -77.186203 33,000 40 469 0
2018-04-21 23:06:13 GMT 37.855774 -77.191635 33,000 40 469 0
2018-04-21 23:06:09 GMT 37.847622 -77.200508 33,000 41 471 0
2018-04-21 23:06:06 GMT 37.843849 -77.204689 33,000 42 472 0
2018-04-21 23:06:02 GMT 37.837986 -77.211258 33,000 43 474 0
2018-04-21 23:05:59 GMT 37.833069 -77.216942 33,000 43 474 -64
2018-04-21 23:05:55 GMT 37.826523 -77.224655 33,000 43 474 -64
2018-04-21 23:05:52 GMT 37.821507 -77.230721 33,000 44 474 0
2018-04-21 23:05:49 GMT 37.816151 -77.237289 33,000 45 476 -64
2018-04-21 23:05:45 GMT 37.810844 -77.243980 33,025 46 476 -64
2018-04-21 23:05:42 GMT 37.805969 -77.250191 33,025 46 476 -64
2018-04-21 23:05:38 GMT 37.799698 -77.258430 33,000 48 479 64
2018-04-21 23:05:35 GMT 37.796135 -77.263206 33,025 47 479 0
2018-04-21 23:05:31 GMT 37.790359 -77.271049 33,025 47 479 64
2018-04-21 23:05:27 GMT 37.783356 -77.280754 33,000 48 479 64
2018-04-21 23:05:24 GMT 37.777771 -77.288704 33,000 49 480 64
2018-04-21 23:05:18 GMT 37.769211 -77.301270 33,000 50 482 0
2018-04-21 23:05:12 GMT 37.762665 -77.311203 33,000 51 483 -64
2018-04-21 23:05:06 GMT 37.751629 -77.328766 33,000 52 484 0
2018-04-21 23:05:03 GMT 37.748886 -77.333405 33,000 53 484 0
2018-04-21 23:05:00 GMT 37.746136 -77.338020 33,000 53 485 0
2018-04-21 23:04:54 GMT 37.737198 -77.353302 33,000 53 485 64
2018-04-21 23:04:51 GMT 37.733849 -77.358978 33,000 53 484 0
2018-04-21 23:04:45 GMT 37.725769 -77.372734 33,000 53 484 0
2018-04-21 23:04:42 GMT 37.723114 -77.377296 33,000 53 484 -64
2018-04-21 23:04:39 GMT 37.717758 -77.386353 33,000 53 484 -64
2018-04-21 23:04:35 GMT 37.711037 -77.397842 33,000 53 484 0
2018-04-21 23:04:30 GMT 37.703819 -77.410088 33,000 53 484 0
2018-04-21 23:04:27 GMT 37.701233 -77.414520 33,000 53 484 0
2018-04-21 23:04:23 GMT 37.695236 -77.424744 33,000 53 484 0
2018-04-21 23:04:18 GMT 37.689808 -77.433907 33,000 53 484 -64
2018-04-21 23:04:13 GMT 37.682281 -77.446716 33,025 53 484 0
2018-04-21 23:04:09 GMT 37.676285 -77.456947 33,025 53 484 0
2018-04-21 23:04:04 GMT 37.669510 -77.468513 33,000 53 484 0
2018-04-21 23:04:01 GMT 37.665695 -77.474930 33,000 53 484 0
2018-04-21 23:03:53 GMT 37.655548 -77.492188 33,000 53 484 0
2018-04-21 23:03:48 GMT 37.650242 -77.501198 33,000 53 484 0
2018-04-21 23:03:43 GMT 37.641998 -77.515228 33,000 53 484 0
2018-04-21 23:03:37 GMT 37.635483 -77.526337 33,000 53 483 0
2018-04-21 23:03:33 GMT 37.629337 -77.536789 33,000 53 483 64
2018-04-21 23:03:29 GMT 37.622910 -77.547760 33,000 53 484 0
2018-04-21 23:03:23 GMT 37.614952 -77.561211 33,000 53 484 0
2018-04-21 23:03:19 GMT 37.611507 -77.567062 33,000 53 484 0
2018-04-21 23:03:15 GMT 37.603920 -77.579956 33,000 53 484 0
2018-04-21 23:03:12 GMT 37.601303 -77.584335 33,000 53 484 0
2018-04-21 23:03:05 GMT 37.591629 -77.600739 33,000 53 484 0
2018-04-21 23:03:02 GMT 37.586929 -77.608765 33,000 53 484 0
2018-04-21 23:02:57 GMT 37.580460 -77.619720 33,000 53 484 0
2018-04-21 23:02:50 GMT 37.572922 -77.632492 33,000 53 484 -64
2018-04-21 23:02:40 GMT 37.558022 -77.657700 33,000 53 484 0
2018-04-21 23:02:37 GMT 37.555321 -77.662231 33,000 53 484 0
2018-04-21 23:02:33 GMT 37.549393 -77.672287 33,000 53 484 0
2018-04-21 23:02:29 GMT 37.544659 -77.680267 33,000 53 484 0
2018-04-21 23:02:23 GMT 37.535812 -77.695190 33,000 53 484 0
2018-04-21 23:02:20 GMT 37.530716 -77.703903 33,000 53 484 0
2018-04-21 23:02:17 GMT 37.528015 -77.708405 33,000 53 484 0
2018-04-21 23:02:09 GMT 37.517075 -77.726929 33,000 53 483 0
2018-04-21 23:02:02 GMT 37.507050 -77.743874 33,000 53 484 0
2018-04-21 23:01:59 GMT 37.502995 -77.750778 33,000 53 483 0
2018-04-21 23:01:51 GMT 37.493778 -77.766304 33,000 53 483 0
2018-04-21 23:01:48 GMT 37.489288 -77.773849 33,000 53 484 0
2018-04-21 23:01:42 GMT 37.480278 -77.789116 33,000 53 484 0
2018-04-21 23:01:37 GMT 37.474785 -77.798370 33,000 53 484 0
2018-04-21 23:01:33 GMT 37.469337 -77.807625 33,000 53 484 0
2018-04-21 23:01:29 GMT 37.463566 -77.817299 33,000 53 484 0
2018-04-21 23:01:26 GMT 37.460175 -77.823059 33,000 53 485 0
2018-04-21 23:01:19 GMT 37.449600 -77.840881 33,000 53 484 0
2018-04-21 23:01:16 GMT 37.446945 -77.845383 33,000 53 484 0
2018-04-21 23:01:11 GMT 37.438751 -77.859169 33,000 53 485 0
2018-04-21 23:01:07 GMT 37.434937 -77.865601 33,000 53 485 0
2018-04-21 23:01:03 GMT 37.429859 -77.874138 33,000 53 485 0
2018-04-21 23:00:58 GMT 37.421585 -77.888039 33,000 53 484 0
2018-04-21 23:00:55 GMT 37.418793 -77.892776 33,000 53 484 0
2018-04-21 23:00:47 GMT 37.407421 -77.911812 33,000 53 485 0
2018-04-21 23:00:39 GMT 37.395538 -77.931755 33,000 53 485 0
2018-04-21 23:00:36 GMT 37.392944 -77.936119 33,000 53 485 0
2018-04-21 23:00:31 GMT 37.387032 -77.946091 33,000 53 485 0
2018-04-21 23:00:27 GMT 37.379631 -77.958450 33,000 53 485 0
2018-04-21 23:00:23 GMT 37.374161 -77.967575 33,000 53 485 0
2018-04-21 23:00:16 GMT 37.366177 -77.980957 33,000 53 485 0
2018-04-21 23:00:13 GMT 37.362129 -77.987701 33,025 53 485 0
2018-04-21 23:00:04 GMT 37.348572 -78.010292 33,000 53 485 0
2018-04-21 22:59:53 GMT 37.334896 -78.033142 33,000 53 485 0
2018-04-21 22:59:45 GMT 37.323910 -78.051353 33,000 52 485 0
2018-04-21 22:59:42 GMT 37.318863 -78.059731 33,000 52 485 -64
2018-04-21 22:59:35 GMT 37.309204 -78.075623 33,000 52 485 0
2018-04-21 22:59:26 GMT 37.297977 -78.094101 33,000 52 485 -64
2018-04-21 22:59:22 GMT 37.291321 -78.105034 33,000 52 485 -64
2018-04-21 22:59:13 GMT 37.280869 -78.122086 33,000 52 485 0
2018-04-21 22:59:10 GMT 37.276424 -78.129333 33,000 52 485 0
2018-04-21 22:59:01 GMT 37.262741 -78.151772 33,000 52 485 64
2018-04-21 22:58:53 GMT 37.252731 -78.168205 33,000 52 485 0
2018-04-21 22:58:48 GMT 37.246445 -78.178413 33,025 52 485 0
2018-04-21 22:58:43 GMT 37.238617 -78.191277 33,000 52 486 64
2018-04-21 22:58:39 GMT 37.234993 -78.197220 33,000 52 485 64
2018-04-21 22:58:31 GMT 37.223637 -78.216087 33,000 53 486 -64
2018-04-21 22:58:28 GMT 37.219631 -78.222832 33,000 53 486 0
2018-04-21 22:58:19 GMT 37.207203 -78.244629 33,000 55 487 0
2018-04-21 22:58:11 GMT 37.197517 -78.261948 33,000 55 487 64
2018-04-21 22:58:08 GMT 37.193840 -78.268692 33,000 55 487 64
2018-04-21 22:57:59 GMT 37.182404 -78.289162 33,000 54 487 0
2018-04-21 22:57:56 GMT 37.178341 -78.296455 33,000 54 487 0
2018-04-21 22:57:51 GMT 37.170567 -78.310249 33,000 54 486 0
2018-04-21 22:57:47 GMT 37.166611 -78.317268 33,000 55 486 0
2018-04-21 22:57:39 GMT 37.156738 -78.334908 33,000 55 486 0
2018-04-21 22:57:35 GMT 37.151619 -78.344162 33,000 55 486 -64
2018-04-21 22:57:27 GMT 37.139420 -78.365944 33,000 55 486 0
2018-04-21 22:57:19 GMT 37.130768 -78.381371 33,000 55 486 0
2018-04-21 22:57:15 GMT 37.125038 -78.391632 33,025 55 486 -64
2018-04-21 22:57:09 GMT 37.116657 -78.406616 33,000 55 486 64
2018-04-21 22:57:06 GMT 37.112686 -78.413689 33,000 55 486 0
2018-04-21 22:56:59 GMT 37.102600 -78.431755 33,000 55 486 0
2018-04-21 22:56:54 GMT 37.098595 -78.438919 33,025 55 487 0
2018-04-21 22:56:48 GMT 37.089935 -78.454384 33,000 55 486 64
2018-04-21 22:56:45 GMT 37.084770 -78.463577 33,000 54 487 0
2018-04-21 22:56:34 GMT 37.071968 -78.486389 33,000 54 487 -64
2018-04-21 22:56:24 GMT 37.057663 -78.511864 33,000 55 487 0
2018-04-21 22:56:16 GMT 37.048832 -78.527702 33,000 55 486 0
2018-04-21 22:56:09 GMT 37.039719 -78.543945 33,000 55 486 64
2018-04-21 22:56:06 GMT 37.034492 -78.553322 33,000 55 486 64
2018-04-21 22:56:03 GMT 37.030628 -78.560249 33,000 55 486 64
2018-04-21 22:55:58 GMT 37.025391 -78.569542 33,000 54 487 0
2018-04-21 22:55:55 GMT 37.021637 -78.576263 33,000 54 487 0
2018-04-21 22:55:45 GMT 37.008682 -78.599289 33,000 55 487 -64
2018-04-21 22:55:35 GMT 36.994995 -78.623657 33,000 54 487 0
2018-04-21 22:55:29 GMT 36.988220 -78.635635 33,000 54 487 0
2018-04-21 22:55:25 GMT 36.982132 -78.646446 33,000 54 487 0
2018-04-21 22:55:14 GMT 36.967621 -78.672279 33,025 55 487 0
2018-04-21 22:55:03 GMT 36.954796 -78.695244 33,000 54 488 64
2018-04-21 22:54:56 GMT 36.946014 -78.710785 33,000 54 488 64
2018-04-21 22:54:53 GMT 36.942322 -78.717339 33,000 54 487 0
2018-04-21 22:54:47 GMT 36.933708 -78.732445 33,000 54 487 0
2018-04-21 22:54:42 GMT 36.928711 -78.741295 33,000 54 488 0
2018-04-21 22:54:33 GMT 36.915939 -78.763847 33,000 54 488 -64
2018-04-21 22:54:28 GMT 36.909126 -78.775909 33,000 54 488 -64
2018-04-21 22:54:25 GMT 36.904907 -78.783424 33,000 54 488 0
2018-04-21 22:54:21 GMT 36.899597 -78.792831 33,000 54 488 0
2018-04-21 22:54:11 GMT 36.886784 -78.815498 33,000 54 488 0
2018-04-21 22:54:08 GMT 36.883575 -78.821121 33,000 54 488 0
2018-04-21 22:54:02 GMT 36.873192 -78.839386 33,000 54 488 0
2018-04-21 22:53:51 GMT 36.860092 -78.862495 33,000 54 488 -64
2018-04-21 22:53:40 GMT 36.847183 -78.885323 33,000 54 489 0
2018-04-21 22:53:37 GMT 36.841114 -78.895981 33,000 54 489 0
2018-04-21 22:53:34 GMT 36.839081 -78.899513 33,025 54 488 0
2018-04-21 22:53:30 GMT 36.833313 -78.909645 33,025 54 488 -64
2018-04-21 22:53:20 GMT 36.819328 -78.934082 33,025 54 489 0
2018-04-21 22:53:08 GMT 36.804245 -78.960434 33,025 54 488 0
2018-04-21 22:52:59 GMT 36.791073 -78.983398 33,000 54 489 64
2018-04-21 22:52:52 GMT 36.783066 -78.997368 33,000 54 489 0
2018-04-21 22:52:47 GMT 36.776459 -79.008980 33,000 54 489 0
2018-04-21 22:52:38 GMT 36.764145 -79.030556 33,000 54 488 0
2018-04-21 22:52:34 GMT 36.759743 -79.038216 33,000 54 488 0
2018-04-21 22:52:26 GMT 36.749405 -79.056129 33,000 54 488 -64
2018-04-21 22:52:22 GMT 36.743866 -79.065742 33,000 54 488 -64
2018-04-21 22:52:16 GMT 36.736141 -79.079124 33,025 54 488 0
2018-04-21 22:52:12 GMT 36.729435 -79.090813 33,025 54 488 0
2018-04-21 22:52:06 GMT 36.721802 -79.104134 33,000 54 488 64
2018-04-21 22:52:00 GMT 36.714123 -79.117516 33,000 54 488 64
2018-04-21 22:51:54 GMT 36.708210 -79.127861 33,000 54 488 64
2018-04-21 22:51:44 GMT 36.694244 -79.152145 33,000 54 487 0
2018-04-21 22:51:36 GMT 36.683907 -79.169991 33,000 54 488 0
2018-04-21 22:51:33 GMT 36.680054 -79.176750 33,000 54 487 0
2018-04-21 22:51:28 GMT 36.673370 -79.188370 33,000 54 487 0
2018-04-21 22:51:23 GMT 36.665939 -79.201256 33,000 54 487 0
2018-04-21 22:51:15 GMT 36.655380 -79.219551 33,000 54 486 0
2018-04-21 22:51:11 GMT 36.651417 -79.226501 33,000 54 486 0
2018-04-21 22:51:08 GMT 36.646500 -79.235062 33,000 54 486 0
2018-04-21 22:51:04 GMT 36.641827 -79.243156 33,000 54 486 0
2018-04-21 22:50:57 GMT 36.631805 -79.260521 33,000 54 486 0
2018-04-21 22:50:54 GMT 36.627674 -79.267700 33,000 54 486 0
2018-04-21 22:50:51 GMT 36.624928 -79.272491 33,000 54 487 0
2018-04-21 22:50:47 GMT 36.619293 -79.282249 33,000 54 486 0
2018-04-21 22:50:42 GMT 36.611099 -79.296280 33,000 54 486 0
2018-04-21 22:50:36 GMT 36.603607 -79.309189 33,000 54 486 0
2018-04-21 22:50:33 GMT 36.600266 -79.314995 33,000 54 486 0
2018-04-21 22:50:30 GMT 36.597412 -79.319824 33,000 54 486 0
2018-04-21 22:50:27 GMT 36.593597 -79.326431 33,000 54 486 0
2018-04-21 22:50:23 GMT 36.587357 -79.337196 33,000 54 486 0
2018-04-21 22:50:20 GMT 36.583420 -79.343948 33,000 54 486 0
2018-04-21 22:50:12 GMT 36.572601 -79.362663 33,000 54 485 0
2018-04-21 22:50:09 GMT 36.569717 -79.367630 33,000 54 485 0
2018-04-21 22:50:00 GMT 36.556728 -79.390015 33,000 54 485 0
2018-04-21 22:49:55 GMT 36.550674 -79.400414 33,000 54 485 0
2018-04-21 22:49:49 GMT 36.542950 -79.413734 33,000 54 485 0
2018-04-21 22:49:44 GMT 36.537094 -79.423828 33,000 54 485 64
2018-04-21 22:49:38 GMT 36.529030 -79.437759 33,000 54 485 0
2018-04-21 22:49:35 GMT 36.524559 -79.445412 33,000 54 485 0
2018-04-21 22:49:30 GMT 36.517998 -79.456749 33,000 54 485 0
2018-04-21 22:49:27 GMT 36.514832 -79.462181 33,000 54 485 -64
2018-04-21 22:49:24 GMT 36.508778 -79.472527 33,000 54 485 0
2018-04-21 22:49:18 GMT 36.501984 -79.484268 33,000 54 485 0
2018-04-21 22:49:15 GMT 36.497955 -79.491180 33,000 54 485 0
2018-04-21 22:49:11 GMT 36.492188 -79.501137 33,000 54 485 0
2018-04-21 22:49:08 GMT 36.488155 -79.507996 33,000 54 485 0
2018-04-21 22:49:02 GMT 36.481590 -79.519279 33,000 54 485 0
2018-04-21 22:48:57 GMT 36.474472 -79.531570 33,000 54 485 0
2018-04-21 22:48:51 GMT 36.467102 -79.544220 33,000 54 485 0
2018-04-21 22:48:48 GMT 36.462460 -79.552238 33,000 54 485 0
2018-04-21 22:48:45 GMT 36.459061 -79.558136 33,000 54 485 0
2018-04-21 22:48:41 GMT 36.454079 -79.566727 33,000 54 485 64
2018-04-21 22:48:38 GMT 36.449471 -79.574615 33,000 54 485 64
2018-04-21 22:48:34 GMT 36.445282 -79.581802 33,000 54 485 0
2018-04-21 22:48:30 GMT 36.440094 -79.590736 33,000 54 485 0
2018-04-21 22:48:27 GMT 36.435608 -79.598412 33,000 54 485 -64
2018-04-21 22:48:24 GMT 36.431038 -79.606171 33,000 54 484 -64
2018-04-21 22:48:21 GMT 36.426289 -79.614296 33,000 54 485 0
2018-04-21 22:48:14 GMT 36.417572 -79.629250 33,000 54 484 0
2018-04-21 22:48:10 GMT 36.414139 -79.635086 33,000 54 485 0
2018-04-21 22:48:03 GMT 36.403976 -79.652481 33,000 54 485 0
2018-04-21 22:47:55 GMT 36.392353 -79.672386 33,000 54 486 0
2018-04-21 22:47:50 GMT 36.385368 -79.684364 33,000 54 486 0
2018-04-21 22:47:44 GMT 36.378757 -79.695587 33,000 54 485 0
2018-04-21 22:47:39 GMT 36.371544 -79.707970 33,000 54 485 -64
2018-04-21 22:47:32 GMT 36.362278 -79.723747 33,000 54 485 0
2018-04-21 22:47:28 GMT 36.357670 -79.731583 33,000 54 485 0
2018-04-21 22:47:21 GMT 36.347855 -79.748322 33,000 54 485 0
2018-04-21 22:47:17 GMT 36.342682 -79.757133 33,000 54 485 0
2018-04-21 22:47:11 GMT 36.334396 -79.771271 33,000 54 485 0
2018-04-21 22:47:05 GMT 36.328014 -79.782188 33,000 54 485 0
2018-04-21 22:47:02 GMT 36.323269 -79.790314 33,000 54 485 0
2018-04-21 22:46:59 GMT 36.319748 -79.796272 33,000 54 485 0
2018-04-21 22:46:55 GMT 36.315125 -79.804115 33,000 54 485 0
2018-04-21 22:46:52 GMT 36.309448 -79.813789 33,000 54 485 0
2018-04-21 22:46:46 GMT 36.302078 -79.826370 33,000 54 485 0
2018-04-21 22:46:41 GMT 36.295525 -79.837532 33,000 54 485 0
2018-04-21 22:46:36 GMT 36.288574 -79.849319 33,000 54 485 0
2018-04-21 22:46:30 GMT 36.282120 -79.860359 33,000 54 485 0
2018-04-21 22:46:24 GMT 36.274063 -79.874100 33,000 53 486 0
2018-04-21 22:46:20 GMT 36.268291 -79.883873 33,000 53 486 0
2018-04-21 22:46:14 GMT 36.260235 -79.897545 33,000 53 486 0
2018-04-21 22:46:09 GMT 36.253830 -79.908424 33,000 53 486 0
2018-04-21 22:46:03 GMT 36.244736 -79.923843 33,000 53 486 0
2018-04-21 22:45:59 GMT 36.240051 -79.931831 33,000 53 486 0
2018-04-21 22:45:53 GMT 36.232361 -79.944878 33,000 53 486 0
2018-04-21 22:45:48 GMT 36.226135 -79.955406 33,000 54 486 0
2018-04-21 22:45:42 GMT 36.217690 -79.969658 33,000 54 486 0
2018-04-21 22:45:37 GMT 36.211166 -79.980812 33,000 53 487 64
2018-04-21 22:45:30 GMT 36.202515 -79.995461 33,000 53 487 64
2018-04-21 22:45:27 GMT 36.198669 -80.001984 33,000 53 487 0
2018-04-21 22:45:20 GMT 36.189240 -80.017944 33,000 53 487 0
2018-04-21 22:45:17 GMT 36.184616 -80.025787 33,000 53 487 0
2018-04-21 22:45:11 GMT 36.175373 -80.041420 33,000 53 487 0
2018-04-21 22:45:06 GMT 36.170792 -80.049194 33,000 53 487 0
2018-04-21 22:44:59 GMT 36.161499 -80.064926 33,000 53 487 0
2018-04-21 22:44:55 GMT 36.155960 -80.074265 33,000 53 487 0
2018-04-21 22:44:50 GMT 36.147858 -80.087936 33,000 53 488 0
2018-04-21 22:44:45 GMT 36.142551 -80.096939 33,000 53 488 0
2018-04-21 22:44:36 GMT 36.129272 -80.119286 33,000 53 487 0
2018-04-21 22:44:33 GMT 36.125839 -80.125122 33,000 53 487 0
2018-04-21 22:44:28 GMT 36.119648 -80.135567 33,000 53 487 0
2018-04-21 22:44:24 GMT 36.114574 -80.144096 33,000 53 487 0
2018-04-21 22:44:18 GMT 36.105682 -80.159172 33,000 53 488 0
2018-04-21 22:44:14 GMT 36.100433 -80.168037 33,000 53 488 0
2018-04-21 22:44:07 GMT 36.091297 -80.183365 33,000 53 488 0
2018-04-21 22:44:04 GMT 36.086502 -80.191490 33,000 53 488 0
2018-04-21 22:43:56 GMT 36.076916 -80.207619 33,000 53 488 -64
2018-04-21 22:43:53 GMT 36.072769 -80.214569 33,000 53 488 -64
2018-04-21 22:43:45 GMT 36.060974 -80.234467 33,000 53 488 0
2018-04-21 22:43:42 GMT 36.058899 -80.237946 33,000 53 488 0
2018-04-21 22:43:35 GMT 36.048515 -80.255417 33,000 53 487 0
2018-04-21 22:43:32 GMT 36.045025 -80.261261 33,000 53 487 0
2018-04-21 22:43:24 GMT 36.033714 -80.280312 33,000 53 487 0
2018-04-21 22:43:20 GMT 36.028358 -80.289253 33,000 53 487 0
2018-04-21 22:43:12 GMT 36.018951 -80.305077 33,000 53 487 0
2018-04-21 22:43:09 GMT 36.013649 -80.313911 33,000 53 487 0
2018-04-21 22:43:01 GMT 36.003159 -80.331459 33,000 53 487 0
2018-04-21 22:42:50 GMT 35.988602 -80.355888 33,000 53 488 0
2018-04-21 22:42:41 GMT 35.977478 -80.374634 33,000 53 488 0
2018-04-21 22:42:38 GMT 35.972683 -80.382698 33,000 53 488 0
2018-04-21 22:42:31 GMT 35.963467 -80.398186 33,000 53 488 0
2018-04-21 22:42:28 GMT 35.960083 -80.403900 33,000 53 488 64
2018-04-21 22:42:21 GMT 35.949036 -80.422379 33,000 53 488 0
2018-04-21 22:42:18 GMT 35.945683 -80.427986 33,000 53 488 0
2018-04-21 22:42:13 GMT 35.939400 -80.438560 33,000 53 488 64
2018-04-21 22:42:08 GMT 35.932388 -80.450310 33,000 53 488 0
2018-04-21 22:41:57 GMT 35.918381 -80.473885 33,000 53 489 0
2018-04-21 22:41:47 GMT 35.904877 -80.496597 33,000 53 489 -64
2018-04-21 22:41:36 GMT 35.890228 -80.521027 33,000 53 490 0
2018-04-21 22:41:25 GMT 35.875435 -80.545799 33,000 53 490 -64
2018-04-21 22:41:17 GMT 35.863472 -80.565781 33,000 53 490 -64
2018-04-21 22:41:14 GMT 35.860611 -80.570641 33,000 53 490 -64
2018-04-21 22:41:05 GMT 35.848576 -80.590736 33,000 53 490 0
2018-04-21 22:40:54 GMT 35.832607 -80.617439 33,000 53 491 64
2018-04-21 22:40:43 GMT 35.818455 -80.641052 33,000 53 491 0
2018-04-21 22:40:30 GMT 35.799911 -80.671982 33,000 53 491 0
2018-04-21 22:40:23 GMT 35.791222 -80.686516 33,000 53 492 0
2018-04-21 22:40:12 GMT 35.775440 -80.712814 33,000 53 492 0
2018-04-21 22:40:05 GMT 35.766953 -80.726852 33,000 53 492 -64
2018-04-21 22:40:01 GMT 35.762688 -80.733971 33,000 53 492 -64
2018-04-21 22:39:52 GMT 35.747929 -80.758514 33,025 53 492 0
2018-04-21 22:39:45 GMT 35.739780 -80.772011 33,025 53 493 64
2018-04-21 22:39:41 GMT 35.734661 -80.780540 33,000 53 494 0
2018-04-21 22:39:31 GMT 35.720764 -80.803642 33,000 53 494 0
2018-04-21 22:39:20 GMT 35.706593 -80.827232 33,000 53 493 0
2018-04-21 22:39:15 GMT 35.699478 -80.839066 33,000 53 494 0
2018-04-21 22:39:08 GMT 35.690857 -80.853355 33,000 53 494 0
2018-04-21 22:38:58 GMT 35.676315 -80.877342 33,000 53 493 0
2018-04-21 22:38:47 GMT 35.662228 -80.900635 33,000 53 494 0
2018-04-21 22:38:44 GMT 35.657547 -80.908417 33,000 53 494 0
2018-04-21 22:38:37 GMT 35.646790 -80.926208 33,000 53 494 0
2018-04-21 22:38:26 GMT 35.632462 -80.949844 33,000 53 494 0
2018-04-21 22:38:18 GMT 35.620605 -80.969467 33,000 53 494 0
2018-04-21 22:38:14 GMT 35.616943 -80.975533 33,000 53 494 0
2018-04-21 22:38:09 GMT 35.606049 -80.993561 33,000 53 494 0
2018-04-21 22:38:05 GMT 35.603104 -80.998398 33,000 53 494 0
2018-04-21 22:38:00 GMT 35.597656 -81.007401 33,000 53 494 0
2018-04-21 22:37:57 GMT 35.592491 -81.015991 33,000 53 494 0
2018-04-21 22:37:54 GMT 35.588196 -81.023087 33,000 53 494 0
2018-04-21 22:37:46 GMT 35.578125 -81.039734 33,000 53 494 0
2018-04-21 22:37:40 GMT 35.570343 -81.052551 33,000 53 494 0
2018-04-21 22:37:36 GMT 35.562511 -81.065483 33,000 53 494 0
2018-04-21 22:37:31 GMT 35.558693 -81.071800 33,000 53 494 0
2018-04-21 22:37:27 GMT 35.552490 -81.081963 33,000 53 493 -64
2018-04-21 22:37:20 GMT 35.543144 -81.097389 33,000 53 493 0
2018-04-21 22:37:17 GMT 35.538025 -81.105766 33,000 53 494 0
2018-04-21 22:37:14 GMT 35.533218 -81.113663 33,000 53 494 0
2018-04-21 22:37:06 GMT 35.523834 -81.129166 33,000 53 493 0
2018-04-21 22:37:00 GMT 35.514332 -81.144783 33,000 53 494 0
2018-04-21 22:36:56 GMT 35.509598 -81.152512 33,000 53 493 0
2018-04-21 22:36:52 GMT 35.504181 -81.161385 33,000 53 494 0
2018-04-21 22:36:48 GMT 35.499947 -81.168335 33,000 53 494 0
2018-04-21 22:36:45 GMT 35.495224 -81.176033 33,000 53 494 0
2018-04-21 22:36:41 GMT 35.490463 -81.183929 33,000 53 494 0
2018-04-21 22:36:38 GMT 35.485153 -81.192680 33,000 53 494 0
2018-04-21 22:36:35 GMT 35.480438 -81.200417 33,000 53 494 0
2018-04-21 22:36:32 GMT 35.476822 -81.206360 33,000 53 494 0
2018-04-21 22:36:24 GMT 35.466476 -81.223412 33,000 53 493 0
2018-04-21 22:36:20 GMT 35.461029 -81.232391 33,000 53 493 0
2018-04-21 22:36:16 GMT 35.455444 -81.241547 33,000 53 493 0
2018-04-21 22:36:11 GMT 35.448761 -81.252541 33,000 53 493 0
2018-04-21 22:36:08 GMT 35.444916 -81.258774 33,000 53 493 0
2018-04-21 22:36:04 GMT 35.439800 -81.267212 33,000 53 493 0
2018-04-21 22:35:58 GMT 35.430954 -81.281761 33,000 53 493 0
2018-04-21 22:35:55 GMT 35.426579 -81.288895 33,000 53 493 0
2018-04-21 22:35:52 GMT 35.423813 -81.293510 33,000 53 493 0
2018-04-21 22:35:49 GMT 35.418526 -81.302162 33,000 53 493 -64
2018-04-21 22:35:41 GMT 35.408112 -81.319260 33,000 53 493 0
2018-04-21 22:35:32 GMT 35.395901 -81.339211 33,000 53 493 0
2018-04-21 22:35:25 GMT 35.386139 -81.355186 33,000 53 493 0
2018-04-21 22:35:22 GMT 35.381378 -81.363029 33,000 53 493 0
2018-04-21 22:35:19 GMT 35.376617 -81.370872 33,000 53 493 0
2018-04-21 22:35:10 GMT 35.366482 -81.387535 33,000 53 493 0
2018-04-21 22:35:07 GMT 35.362244 -81.394493 33,000 53 493 0
2018-04-21 22:35:00 GMT 35.350845 -81.413155 33,000 53 493 0
2018-04-21 22:34:56 GMT 35.345436 -81.421959 33,000 53 493 0
2018-04-21 22:34:50 GMT 35.337105 -81.435570 33,000 53 493 0
2018-04-21 22:34:46 GMT 35.333149 -81.442001 33,000 53 492 -64
2018-04-21 22:34:39 GMT 35.322876 -81.458878 33,000 53 493 0
2018-04-21 22:34:36 GMT 35.318157 -81.466545 33,000 53 492 0
2018-04-21 22:34:29 GMT 35.308685 -81.482048 33,000 53 492 0
2018-04-21 22:34:19 GMT 35.294975 -81.504410 33,000 53 492 0
2018-04-21 22:34:15 GMT 35.291439 -81.510201 33,000 53 492 0
2018-04-21 22:34:08 GMT 35.279659 -81.529305 33,000 53 491 0
2018-04-21 22:34:04 GMT 35.276184 -81.534981 33,000 53 491 0
2018-04-21 22:33:57 GMT 35.266205 -81.551170 33,000 53 491 0
2018-04-21 22:33:54 GMT 35.262623 -81.557068 33,000 53 491 0
2018-04-21 22:33:47 GMT 35.251511 -81.575150 33,000 53 491 0
2018-04-21 22:33:44 GMT 35.248703 -81.579681 33,000 53 490 0
2018-04-21 22:33:33 GMT 35.232422 -81.606216 33,000 53 491 0
2018-04-21 22:33:25 GMT 35.220795 -81.625053 33,000 52 491 0
2018-04-21 22:33:22 GMT 35.217545 -81.630379 33,000 52 491 0
2018-04-21 22:33:15 GMT 35.207016 -81.647362 33,000 53 490 0
2018-04-21 22:33:03 GMT 35.192093 -81.671463 33,000 52 490 0
2018-04-21 22:32:53 GMT 35.178455 -81.693420 33,000 52 490 0
2018-04-21 22:32:43 GMT 35.163300 -81.717819 33,000 52 490 0
2018-04-21 22:32:35 GMT 35.153782 -81.733131 33,000 52 490 64
2018-04-21 22:32:32 GMT 35.148102 -81.742264 33,000 52 490 64
2018-04-21 22:32:19 GMT 35.131302 -81.769051 33,000 54 491 0
2018-04-21 22:32:15 GMT 35.125488 -81.778244 33,000 52 490 0
2018-04-21 22:32:02 GMT 35.108067 -81.805969 33,000 52 490 0
2018-04-21 22:31:53 GMT 35.096420 -81.824493 33,000 52 490 0
2018-04-21 22:31:45 GMT 35.085388 -81.842033 33,000 52 490 0
2018-04-21 22:31:37 GMT 35.073948 -81.860107 33,000 52 490 0
2018-04-21 22:31:30 GMT 35.063053 -81.877441 33,000 52 490 0
2018-04-21 22:31:27 GMT 35.060120 -81.882172 33,000 53 491 -64
2018-04-21 22:31:23 GMT 35.054810 -81.890747 33,000 53 490 -64
2018-04-21 22:31:15 GMT 35.044060 -81.908798 33,000 54 491 64
2018-04-21 22:31:06 GMT 35.031490 -81.930489 33,000 54 491 0
2018-04-21 22:30:58 GMT 35.022041 -81.946793 33,000 54 492 0
2018-04-21 22:30:54 GMT 35.015896 -81.957436 33,000 54 491 0
2018-04-21 22:30:50 GMT 35.010956 -81.965912 33,000 54 492 0
2018-04-21 22:30:40 GMT 34.998734 -81.986931 33,000 54 492 0
2018-04-21 22:30:32 GMT 34.988197 -82.005157 33,000 54 492 0
2018-04-21 22:30:26 GMT 34.980515 -82.018379 33,000 54 492 0
2018-04-21 22:30:15 GMT 34.964767 -82.045563 33,000 54 492 0
2018-04-21 22:30:10 GMT 34.958313 -82.056664 33,000 54 492 -64
2018-04-21 22:30:04 GMT 34.950027 -82.070900 33,000 54 492 -64
2018-04-21 22:29:43 GMT 34.923347 -82.116737 33,000 54 492 0
2018-04-21 22:29:06 GMT 34.872803 -82.203522 33,000 54 493 -64
2018-04-21 22:28:50 GMT 34.853165 -82.237206 33,000 54 493 0
2018-04-21 22:28:28 GMT 34.824425 -82.286339 33,025 54 492 64
2018-04-21 22:28:24 GMT 34.817814 -82.297607 33,025 54 492 -64
2018-04-21 22:28:20 GMT 34.812695 -82.306419 33,025 54 492 64
2018-04-21 22:28:11 GMT 34.802124 -82.324593 32,975 54 491 512
2018-04-21 22:28:02 GMT 34.790535 -82.344528 32,850 54 491 1152
2018-04-21 22:27:55 GMT 34.779053 -82.364166 32,675 54 491 1152
2018-04-21 22:27:51 GMT 34.773926 -82.372963 32,600 54 491 1152
2018-04-21 22:27:40 GMT 34.761703 -82.393875 32,425 54 490 1152
2018-04-21 22:27:31 GMT 34.748703 -82.416122 32,250 54 490 1216
2018-04-21 22:27:18 GMT 34.731628 -82.445389 31,975 54 491 1216
2018-04-21 22:27:10 GMT 34.720825 -82.463768 31,800 54 491 1344
2018-04-21 22:26:57 GMT 34.703888 -82.492867 31,475 54 493 1536
2018-04-21 22:26:47 GMT 34.691071 -82.514725 31,225 54 493 1536
2018-04-21 22:26:38 GMT 34.679230 -82.534676 31,000 54 494 1536
2018-04-21 22:26:28 GMT 34.664383 -82.559509 30,725 53 496 1536
2018-04-21 22:26:17 GMT 34.650146 -82.583107 30,450 53 497 1536
2018-04-21 22:26:07 GMT 34.635796 -82.606834 30,175 53 498 1472
2018-04-21 22:25:55 GMT 34.620987 -82.631310 29,925 53 499 1536
2018-04-21 22:25:45 GMT 34.607307 -82.653976 29,675 53 499 1472
2018-04-21 22:25:35 GMT 34.592690 -82.678123 29,400 53 500 1472
2018-04-21 22:25:23 GMT 34.576256 -82.705193 29,100 53 500 1472
2018-04-21 22:25:13 GMT 34.563034 -82.726997 28,875 53 500 1472
2018-04-21 22:25:03 GMT 34.548557 -82.750854 28,625 53 500 1536
2018-04-21 22:24:56 GMT 34.539944 -82.765045 28,450 53 501 1600
2018-04-21 22:24:49 GMT 34.529472 -82.782211 28,250 53 501 1728
2018-04-21 22:24:41 GMT 34.518951 -82.799530 28,025 53 502 1792
2018-04-21 22:24:37 GMT 34.514145 -82.807487 27,925 53 502 1792
2018-04-21 22:24:31 GMT 34.504704 -82.823006 27,700 53 504 1792
2018-04-21 22:24:26 GMT 34.498856 -82.832657 27,575 53 504 1792
2018-04-21 22:24:20 GMT 34.490227 -82.846931 27,400 53 505 1792
2018-04-21 22:24:15 GMT 34.483109 -82.858665 27,250 53 505 1536
2018-04-21 22:24:10 GMT 34.474960 -82.872116 27,100 53 505 1280
2018-04-21 22:24:05 GMT 34.470722 -82.879089 27,050 53 505 1152
2018-04-21 22:23:58 GMT 34.459579 -82.897392 26,900 53 504 1152
2018-04-21 22:23:53 GMT 34.452621 -82.908714 26,800 53 502 1216
2018-04-21 22:23:45 GMT 34.440491 -82.928673 26,625 53 502 1216
2018-04-21 22:23:36 GMT 34.429459 -82.946724 26,450 53 501 1280
2018-04-21 22:23:33 GMT 34.425888 -82.952553 26,400 53 500 1280
2018-04-21 22:23:25 GMT 34.415268 -82.969925 26,100 53 499 1216
2018-04-21 22:23:20 GMT 34.406616 -82.984055 26,100 53 499 1216
2018-04-21 22:23:11 GMT 34.389084 -83.012749 25,825 53 497 1280
2018-04-21 22:23:04 GMT 34.378876 -83.029404 25,675 53 496 1280
2018-04-21 22:22:55 GMT 34.371826 -83.040894 25,575 53 495 1280
2018-04-21 22:22:49 GMT 34.363976 -83.053665 25,450 53 494 1344
2018-04-21 22:22:45 GMT 34.357040 -83.064995 25,325 53 494 1344
2018-04-21 22:22:37 GMT 34.349075 -83.077995 25,200 53 492 1344
2018-04-21 22:22:32 GMT 34.341064 -83.091057 25,075 53 492 1344
2018-04-21 22:22:27 GMT 34.335583 -83.099960 24,975 53 491 1344
2018-04-21 22:22:22 GMT 34.328476 -83.111572 24,850 53 490 1408
2018-04-21 22:22:16 GMT 34.320694 -83.124352 24,725 53 490 1472
2018-04-21 22:22:11 GMT 34.312912 -83.137192 24,575 53 490 1600
2018-04-21 22:22:01 GMT 34.298107 -83.161583 24,300 53 488 1344
2018-04-21 22:21:54 GMT 34.291672 -83.172279 24,200 53 488 1216
2018-04-21 22:21:49 GMT 34.284794 -83.183556 24,075 53 485 1280
2018-04-21 22:21:44 GMT 34.276970 -83.196426 23,950 53 484 1472
2018-04-21 22:21:37 GMT 34.267799 -83.211533 23,775 53 484 1536
2018-04-21 22:21:34 GMT 34.263702 -83.218285 23,700 53 483 1536
2018-04-21 22:21:30 GMT 34.258209 -83.227318 23,600 53 483 1472
2018-04-21 22:21:24 GMT 34.249649 -83.241447 23,425 53 482 1344
2018-04-21 22:21:19 GMT 34.244293 -83.250214 23,350 53 480 1472
2018-04-21 22:21:13 GMT 34.235725 -83.264297 23,175 53 480 1600
2018-04-21 22:21:08 GMT 34.229874 -83.273903 23,075 53 480 1600
2018-04-21 22:21:01 GMT 34.220737 -83.288841 22,875 53 478 1536
2018-04-21 22:20:57 GMT 34.213898 -83.300133 22,750 53 477 1472
2018-04-21 22:20:51 GMT 34.207489 -83.310669 22,625 53 476 1536
2018-04-21 22:20:41 GMT 34.194481 -83.331985 22,375 53 475 1600
2018-04-21 22:20:31 GMT 34.180756 -83.354446 22,100 53 472 1472
2018-04-21 22:20:19 GMT 34.166828 -83.377251 21,850 53 470 1280
2018-04-21 22:20:10 GMT 34.152493 -83.400597 21,600 53 467 1536
2018-04-21 22:19:55 GMT 34.134289 -83.430344 21,200 53 465 1792
2018-04-21 22:19:52 GMT 34.132240 -83.433662 21,150 53 462 1792
2018-04-21 22:19:45 GMT 34.121395 -83.451462 20,900 53 465 1728
2018-04-21 22:19:32 GMT 34.106186 -83.476311 20,600 53 462 1792
2018-04-21 22:19:25 GMT 34.095978 -83.493004 20,325 53 460 1792
2018-04-21 22:19:12 GMT 34.081421 -83.516891 20,000 53 458 1664
2018-04-21 22:18:33 GMT 34.032990 -83.596687 19,075 53 444 1792
2018-04-21 22:18:26 GMT 34.023308 -83.612709 18,825 53 439 1856
2018-04-21 22:17:42 GMT 33.971916 -83.696365 17,325 52 434 1920
2018-04-21 22:17:37 GMT 33.965973 -83.705620 17,325 51 432 1920
2018-04-21 22:17:26 GMT 33.951290 -83.726974 16,975 48 427 1472
2018-04-21 22:17:20 GMT 33.942169 -83.739082 16,825 45 423 1472
2018-04-21 22:17:17 GMT 33.939281 -83.742714 16,775 45 422 1472
2018-04-21 22:17:06 GMT 33.923767 -83.761108 16,350 43 422 3136
2018-04-21 22:16:56 GMT 33.909668 -83.777534 15,775 44 426 3392
2018-04-21 22:16:45 GMT 33.895428 -83.794151 15,325 44 427 2048
2018-04-21 22:16:35 GMT 33.880554 -83.811615 15,050 44 420 1152
2018-04-21 22:16:24 GMT 33.865311 -83.829552 14,825 44 414 1344
2018-04-21 22:16:14 GMT 33.851578 -83.845657 14,550 44 409 1856
2018-04-21 22:15:57 GMT 33.829422 -83.871704 13,925 44 406 2496
2018-04-21 22:15:53 GMT 33.822903 -83.879356 13,700 44 405 2816
2018-04-21 22:15:42 GMT 33.808228 -83.896362 13,200 44 405 2752
2018-04-21 22:15:32 GMT 33.794785 -83.911972 12,775 44 404 2304
2018-04-21 22:15:20 GMT 33.779526 -83.929886 12,400 44 397 1536
2018-04-21 22:15:11 GMT 33.767120 -83.944405 12,150 44 393 1536
2018-04-21 22:15:01 GMT 33.753845 -83.960045 11,850 44 386 1856
2018-04-21 22:14:47 GMT 33.736084 -83.981064 11,425 44 381 1920
2018-04-21 22:14:34 GMT 33.719879 -84.000320 11,050 44 373 1344
2018-04-21 22:14:29 GMT 33.714844 -84.006340 11,000 44 363 1024
2018-04-21 22:14:15 GMT 33.697769 -84.026405 10,750 43 353 960
2018-04-21 22:14:06 GMT 33.687195 -84.038513 10,675 43 340 384
2018-04-21 22:13:58 GMT 33.677795 -84.048958 10,525 42 329 1920
2018-04-21 22:13:47 GMT 33.665600 -84.062408 10,025 42 328 2944
2018-04-21 22:13:32 GMT 33.649864 -84.080605 9,625 47 317 960
2018-04-21 22:13:07 GMT 33.634598 -84.118256 9,000 79 290 2112
2018-04-21 22:12:45 GMT 33.633900 -84.153900 8,050 90 288 2624
2018-04-21 22:12:38 GMT 33.633850 -84.164200 7,825 90 281 2176
2018-04-21 22:12:33 GMT 33.633865 -84.171753 7,650 90 279 2752
2018-04-21 22:12:23 GMT 33.633945 -84.188522 7,100 90 281 3008
2018-04-21 22:12:10 GMT 33.633957 -84.208015 6,500 90 279 2368
2018-04-21 22:12:02 GMT 33.633945 -84.219818 6,250 89 272 1536
2018-04-21 22:11:52 GMT 33.633900 -84.235329 5,975 89 263 2176
2018-04-21 22:11:41 GMT 33.633759 -84.250893 5,500 89 260 2880
2018-04-21 22:11:31 GMT 33.633713 -84.265991 5,025 90 257 2560
2018-04-21 22:11:18 GMT 33.633865 -84.284698 4,475 90 251 3072

Making use of Plane Finder data

You are free to use the raw flight data, aircraft information and images provided in this report for your own purposes provided the data is correctly attributed to Plane Finder. We ask that you please credit Plane Finder and link to planefinder.net in close proximity to the content.

Optionally one of the following logos (no smaller then 150x24px) can be used and must link to planefinder.net

Embedding the Plane Finder map

You are welcome to embed the Plane Finder playback map on your website to offer visitors a more interactive experience. We suggest using the following HTML code:

<iframe src="//planefinder.net/data/report/DL80-N1200K-7700-squawk-2018-04-22/map" width="800" height="600" seamless="seamless"></iframe>

Where our data comes from

Plane Finder has a global network of data feeds and antenna radars that receive data broadcast directly from aircraft. The primary technologies used are ADS-B and MLAT. We also show feeds from the FAA and a FLARM glider feed.

Click here to find out more about the Plane Finder network.

How we collect our data